Darstellungsparameter: Aktuell verwendete Einstellungen:
Skalierung der Graphiken ... ?
xyx+y,   Skalierungsfaktor:      Skalierung: Modus: x, Faktor: 1
Darstellungszeitraum ... ?
Vom - - bis: - -   Zeitraum: 21.11.2018 - 20.02.2019
Min/Max/Avg-Anzeige ... ?
Zeige MMA aktuell
Zeige MMA Monat
Zeige MMA alles
Zeige --A aktuell
Zeige --A Monat
Zeige --A alles
Keine MMA-Anzeige
MMA:
Minimum Maximum Average (ber die Originaldaten)
MMA-Basis: 21.11.2018 - 20.02.2019
Quicknavigation für Darstellung... ?
Tage:      1T, 2T, 3T, 5T -1T -2T -3T -5T +1T +2T +3T +5T
Wochen: 1W, 2W, 3W -1W -2W -3W +1W +2W +3W
Monate: 1M, 3M, 6M -1M -3M -6M +1M +3M +6M
Jahre:    1J, 3J, 5J, 10J -1J -3J -5J -10J +1J +3J +5J +10J
Nutze für die Darstellung ... ?
Originaldaten oder Mittelwerte auf ...
Stundenbasis Tagesbasis Wochenbasis
Monatsbasis Jahresbasis      Datenbasis: Original-Daten
Darstellen als:
Statistik (Auto) Statistik J:M      Darstellung:
Zur Graphik,    zurück zur Übersicht aller Sensoren.
 
Tabellarische Datenbersicht: ?
 
Sensor: Nr:Datum:Temp:Feuchte:Taupunkt:
Aussen-T/F 1 21-11-2018 00:00:00 1.7 C 91 % 0.39 C
2 21-11-2018 00:05:00 1.6 C 91 % 0.29 C
3 21-11-2018 00:10:00 1.6 C 91 % 0.29 C
4 21-11-2018 00:15:00 1.4 C 91 % 0.1 C
5 21-11-2018 00:20:00 1.3 C 91 % 0 C
6 21-11-2018 00:25:00 1.2 C 91 % -0.1 C
7 21-11-2018 00:30:00 1.2 C 92 % 0.05 C
8 21-11-2018 00:35:00 1.2 C 92 % 0.05 C
9 21-11-2018 00:40:00 1.2 C 92 % 0.05 C
10 21-11-2018 00:45:00 1.3 C 92 % 0.15 C
11 21-11-2018 00:50:00 1.3 C 92 % 0.15 C
12 21-11-2018 00:55:00 1.4 C 93 % 0.4 C
13 21-11-2018 01:00:00 1.4 C 93 % 0.4 C
14 21-11-2018 01:05:00 1.5 C 93 % 0.49 C
15 21-11-2018 01:10:00 1.6 C 93 % 0.59 C
16 21-11-2018 01:15:00 1.6 C 93 % 0.59 C
17 21-11-2018 01:20:00 1.7 C 93 % 0.69 C
18 21-11-2018 01:25:00 1.7 C 93 % 0.69 C
19 21-11-2018 01:30:00 1.8 C 93 % 0.79 C
20 21-11-2018 01:35:00 1.9 C 93 % 0.89 C
21 21-11-2018 01:40:00 2.1 C 93 % 1.09 C
22 21-11-2018 01:45:00 2.2 C 93 % 1.19 C
23 21-11-2018 01:50:00 2.3 C 93 % 1.29 C
24 21-11-2018 01:55:00 2.4 C 93 % 1.39 C
25 21-11-2018 02:00:00 2.4 C 93 % 1.39 C
Sensor: Nr:Datum:Temp:Feuchte:Taupunkt:
Aussen-T/F 26 21-11-2018 02:05:00 2.5 C 93 % 1.49 C
27 21-11-2018 02:10:00 2.4 C 92 % 1.24 C
28 21-11-2018 02:15:00 2.4 C 92 % 1.24 C
29 21-11-2018 02:20:00 2.4 C 92 % 1.24 C
30 21-11-2018 02:25:00 2.4 C 92 % 1.24 C
31 21-11-2018 02:30:00 2.4 C 92 % 1.24 C
32 21-11-2018 02:35:00 2.4 C 92 % 1.24 C
33 21-11-2018 02:40:00 2.4 C 92 % 1.24 C
34 21-11-2018 02:45:00 2.5 C 92 % 1.34 C
35 21-11-2018 02:50:00 2.5 C 92 % 1.34 C
36 21-11-2018 02:55:00 2.4 C 92 % 1.24 C
37 21-11-2018 03:00:00 2.4 C 92 % 1.24 C
38 21-11-2018 03:05:00 2.3 C 92 % 1.14 C
39 21-11-2018 03:10:00 2.2 C 91 % 0.89 C
40 21-11-2018 03:15:00 2.2 C 91 % 0.89 C
41 21-11-2018 03:20:00 2.1 C 91 % 0.79 C
42 21-11-2018 03:25:00 2 C 91 % 0.69 C
43 21-11-2018 03:30:00 1.8 C 91 % 0.49 C
44 21-11-2018 03:35:00 1.7 C 91 % 0.39 C
45 21-11-2018 03:40:00 1.6 C 91 % 0.29 C
46 21-11-2018 03:45:00 1.4 C 91 % 0.1 C
47 21-11-2018 03:50:00 1.4 C 92 % 0.25 C
48 21-11-2018 03:55:00 1.4 C 92 % 0.25 C
49 21-11-2018 04:00:00 1.6 C 92 % 0.44 C
50 21-11-2018 04:05:00 1.6 C 93 % 0.59 C
Sensor: Nr:Datum:Temp:Feuchte:Taupunkt:
Aussen-T/F 51 21-11-2018 04:10:00 1.7 C 93 % 0.69 C
52 21-11-2018 04:15:00 1.8 C 93 % 0.79 C
53 21-11-2018 04:20:00 1.8 C 93 % 0.79 C
54 21-11-2018 04:25:00 1.8 C 93 % 0.79 C
55 21-11-2018 04:30:00 1.8 C 93 % 0.79 C
56 21-11-2018 04:35:00 1.8 C 92 % 0.64 C
57 21-11-2018 04:40:00 1.6 C 92 % 0.44 C
58 21-11-2018 04:45:00 1.4 C 92 % 0.25 C
59 21-11-2018 04:50:00 1.3 C 92 % 0.15 C
60 21-11-2018 04:55:00 1.2 C 92 % 0.05 C
61 21-11-2018 05:00:00 1.2 C 92 % 0.05 C
62 21-11-2018 05:05:00 1.1 C 92 % -0.05 C
63 21-11-2018 05:10:00 1 C 92 % -0.15 C
64 21-11-2018 05:15:00 0.9 C 92 % -0.25 C
65 21-11-2018 05:20:00 0.9 C 93 % -0.1 C
66 21-11-2018 05:25:00 0.9 C 93 % -0.1 C
67 21-11-2018 05:30:00 0.8 C 93 % -0.2 C
68 21-11-2018 05:35:00 0.8 C 93 % -0.2 C
69 21-11-2018 05:40:00 0.8 C 93 % -0.2 C
70 21-11-2018 05:45:00 0.8 C 93 % -0.2 C
71 21-11-2018 05:50:00 0.7 C 93 % -0.3 C
72 21-11-2018 05:55:00 0.6 C 93 % -0.4 C
73 21-11-2018 06:00:00 0.6 C 93 % -0.4 C
74 21-11-2018 06:05:00 0.5 C 93 % -0.5 C
75 21-11-2018 06:10:00 0.4 C 93 % -0.6 C
Sensor: Nr:Datum:Temp:Feuchte:Taupunkt:
Aussen-T/F 76 21-11-2018 06:15:00 0.4 C 93 % -0.6 C
77 21-11-2018 06:20:00 0.4 C 93 % -0.6 C
78 21-11-2018 06:25:00 0.4 C 93 % -0.6 C
79 21-11-2018 06:30:00 0.3 C 93 % -0.7 C
80 21-11-2018 06:35:00 0.2 C 93 % -0.79 C
81 21-11-2018 06:40:00 0.1 C 93 % -0.89 C
82 21-11-2018 06:45:00 0.1 C 93 % -0.89 C
83 21-11-2018 06:50:00 0.1 C 94 % -0.75 C
84 21-11-2018 06:55:00 0.1 C 94 % -0.75 C
85 21-11-2018 07:00:00 0.1 C 94 % -0.75 C
86 21-11-2018 07:05:00 0.2 C 94 % -0.65 C
87 21-11-2018 07:10:00 0.2 C 94 % -0.65 C
88 21-11-2018 07:15:00 0.3 C 94 % -0.55 C
89 21-11-2018 07:20:00 0.3 C 94 % -0.55 C
90 21-11-2018 07:25:00 0.3 C 94 % -0.55 C
91 21-11-2018 07:30:00 0.3 C 94 % -0.55 C
92 21-11-2018 07:35:00 0.3 C 94 % -0.55 C
93 21-11-2018 07:40:00 0.3 C 94 % -0.55 C
94 21-11-2018 07:45:00 0.3 C 94 % -0.55 C
95 21-11-2018 07:50:00 0.3 C 94 % -0.55 C
96 21-11-2018 07:55:00 0.3 C 94 % -0.55 C
97 21-11-2018 08:00:00 0.3 C 94 % -0.55 C
98 21-11-2018 08:05:00 0.2 C 94 % -0.65 C
99 21-11-2018 08:10:00 0.2 C 94 % -0.65 C
100 21-11-2018 08:15:00 0.2 C 94 % -0.65 C
Sensor: Nr:Datum:Temp:Feuchte:Taupunkt:
Aussen-T/F 101 21-11-2018 08:20:00 0.1 C 94 % -0.75 C
102 21-11-2018 08:25:00 0.1 C 94 % -0.75 C
103 21-11-2018 08:30:00 0.1 C 94 % -0.75 C
104 21-11-2018 08:35:00 0.2 C 94 % -0.65 C
105 21-11-2018 08:40:00 0.3 C 95 % -0.4 C
106 21-11-2018 08:45:00 0.5 C 95 % -0.21 C
107 21-11-2018 08:50:00 0.6 C 95 % -0.11 C
108 21-11-2018 08:55:00 0.7 C 95 % -0.01 C
109 21-11-2018 09:00:00 0.9 C 95 % 0.19 C
110 21-11-2018 09:05:00 1.1 C 95 % 0.39 C
111 21-11-2018 09:10:00 1.3 C 95 % 0.59 C
112 21-11-2018 09:15:00 1.4 C 95 % 0.69 C
113 21-11-2018 09:20:00 1.5 C 95 % 0.79 C
114 21-11-2018 09:25:00 1.6 C 95 % 0.89 C
115 21-11-2018 09:30:00 1.7 C 95 % 0.99 C
116 21-11-2018 09:35:00 1.7 C 94 % 0.84 C
117 21-11-2018 09:40:00 1.8 C 94 % 0.94 C
118 21-11-2018 09:45:00 1.8 C 94 % 0.94 C
119 21-11-2018 09:50:00 2 C 94 % 1.14 C
120 21-11-2018 09:55:00 2.2 C 94 % 1.34 C
121 21-11-2018 10:00:00 2.3 C 93 % 1.29 C
122 21-11-2018 10:05:00 2.4 C 92 % 1.24 C
123 21-11-2018 10:10:00 2.6 C 91 % 1.28 C
124 21-11-2018 10:15:00 2.7 C 91 % 1.38 C
125 21-11-2018 10:20:00 2.7 C 90 % 1.23 C
Sensor: Nr:Datum:Temp:Feuchte:Taupunkt:
Aussen-T/F 126 21-11-2018 10:25:00 2.7 C 90 % 1.23 C
127 21-11-2018 10:30:00 2.8 C 89 % 1.17 C
128 21-11-2018 10:35:00 2.8 C 89 % 1.17 C
129 21-11-2018 10:40:00 2.9 C 88 % 1.11 C
130 21-11-2018 10:45:00 3 C 89 % 1.37 C
131 21-11-2018 10:50:00 3.1 C 88 % 1.31 C
132 21-11-2018 10:55:00 3.1 C 88 % 1.31 C
133 21-11-2018 11:00:00 3.2 C 87 % 1.25 C
134 21-11-2018 11:05:00 3.3 C 87 % 1.35 C
135 21-11-2018 11:10:00 3.3 C 87 % 1.35 C
136 21-11-2018 11:15:00 3.3 C 87 % 1.35 C
137 21-11-2018 11:20:00 3.4 C 86 % 1.29 C
138 21-11-2018 11:25:00 3.4 C 86 % 1.29 C
139 21-11-2018 11:30:00 3.4 C 86 % 1.29 C
140 21-11-2018 11:35:00 3.4 C 86 % 1.29 C
141 21-11-2018 11:40:00 3.5 C 86 % 1.38 C
142 21-11-2018 11:45:00 3.6 C 86 % 1.48 C
143 21-11-2018 11:50:00 3.7 C 86 % 1.58 C
144 21-11-2018 11:55:00 3.7 C 85 % 1.42 C
145 21-11-2018 12:00:00 3.8 C 85 % 1.52 C
146 21-11-2018 12:05:00 3.8 C 85 % 1.52 C
147 21-11-2018 12:10:00 3.8 C 84 % 1.35 C
148 21-11-2018 12:15:00 3.8 C 84 % 1.35 C
149 21-11-2018 12:20:00 3.8 C 84 % 1.35 C
150 21-11-2018 12:25:00 3.8 C 84 % 1.35 C
Sensor: Nr:Datum:Temp:Feuchte:Taupunkt:
Aussen-T/F 151 21-11-2018 12:30:00 3.8 C 84 % 1.35 C
152 21-11-2018 12:35:00 3.8 C 84 % 1.35 C
153 21-11-2018 12:40:00 3.8 C 84 % 1.35 C
154 21-11-2018 12:45:00 3.9 C 84 % 1.45 C
155 21-11-2018 12:50:00 3.9 C 84 % 1.45 C
156 21-11-2018 12:55:00 3.9 C 83 % 1.28 C
157 21-11-2018 13:00:00 3.9 C 84 % 1.45 C
158 21-11-2018 13:05:00 3.9 C 84 % 1.45 C
159 21-11-2018 13:10:00 3.9 C 83 % 1.28 C
160 21-11-2018 13:15:00 3.9 C 84 % 1.45 C
161 21-11-2018 13:20:00 4 C 84 % 1.55 C
162 21-11-2018 13:25:00 4.1 C 83 % 1.48 C
163 21-11-2018 13:30:00 4.1 C 83 % 1.48 C
164 21-11-2018 13:35:00 4.1 C 83 % 1.48 C
165 21-11-2018 13:40:00 4.1 C 83 % 1.48 C
166 21-11-2018 13:45:00 4.1 C 83 % 1.48 C
167 21-11-2018 13:50:00 4.1 C 83 % 1.48 C
168 21-11-2018 13:55:00 4.1 C 83 % 1.48 C
169 21-11-2018 14:00:00 4.1 C 82 % 1.31 C
170 21-11-2018 14:05:00 4.1 C 82 % 1.31 C
171 21-11-2018 14:10:00 4.1 C 82 % 1.31 C
172 21-11-2018 14:15:00 4.1 C 83 % 1.48 C
173 21-11-2018 14:20:00 4.1 C 83 % 1.48 C
174 21-11-2018 14:25:00 4.1 C 82 % 1.31 C
175 21-11-2018 14:30:00 4.1 C 82 % 1.31 C
Sensor: Nr:Datum:Temp:Feuchte:Taupunkt:
Aussen-T/F 176 21-11-2018 14:35:00 4.1 C 82 % 1.31 C
177 21-11-2018 14:40:00 4.1 C 83 % 1.48 C
178 21-11-2018 14:45:00 4.1 C 83 % 1.48 C
179 21-11-2018 14:50:00 4.1 C 83 % 1.48 C
180 21-11-2018 14:55:00 4.1 C 83 % 1.48 C
181 21-11-2018 15:00:00 4 C 83 % 1.38 C
182 21-11-2018 15:05:00 4 C 83 % 1.38 C
183 21-11-2018 15:10:00 3.9 C 83 % 1.28 C
184 21-11-2018 15:15:00 3.9 C 83 % 1.28 C
185 21-11-2018 15:20:00 3.9 C 83 % 1.28 C
186 21-11-2018 15:25:00 3.9 C 83 % 1.28 C
187 21-11-2018 15:30:00 3.9 C 83 % 1.28 C
188 21-11-2018 15:35:00 3.8 C 83 % 1.19 C
189 21-11-2018 15:40:00 3.8 C 83 % 1.19 C
190 21-11-2018 15:45:00 3.8 C 83 % 1.19 C
191 21-11-2018 15:50:00 3.8 C 83 % 1.19 C
192 21-11-2018 15:55:00 3.7 C 83 % 1.09 C
193 21-11-2018 16:00:00 3.7 C 83 % 1.09 C
194 21-11-2018 16:05:00 3.7 C 83 % 1.09 C
195 21-11-2018 16:10:00 3.7 C 84 % 1.25 C
196 21-11-2018 16:15:00 3.7 C 84 % 1.25 C
197 21-11-2018 16:20:00 3.7 C 84 % 1.25 C
198 21-11-2018 16:25:00 3.7 C 83 % 1.09 C
199 21-11-2018 16:30:00 3.6 C 84 % 1.16 C
200 21-11-2018 16:35:00 3.6 C 84 % 1.16 C
Sensor: Nr:Datum:Temp:Feuchte:Taupunkt:
Aussen-T/F 201 21-11-2018 16:40:00 3.5 C 83 % 0.89 C
202 21-11-2018 16:45:00 3.4 C 84 % 0.96 C
203 21-11-2018 16:50:00 3.4 C 84 % 0.96 C
204 21-11-2018 16:55:00 3.4 C 84 % 0.96 C
205 21-11-2018 17:00:00 3.3 C 84 % 0.86 C
206 21-11-2018 17:05:00 3.3 C 84 % 0.86 C
207 21-11-2018 17:10:00 3.3 C 85 % 1.03 C
208 21-11-2018 17:15:00 3.3 C 84 % 0.86 C
209 21-11-2018 17:20:00 3.3 C 85 % 1.03 C
210 21-11-2018 17:25:00 3.3 C 85 % 1.03 C
211 21-11-2018 17:30:00 3.3 C 85 % 1.03 C
212 21-11-2018 17:35:00 3.3 C 85 % 1.03 C
213 21-11-2018 17:40:00 3.3 C 85 % 1.03 C
214 21-11-2018 17:45:00 3.3 C 85 % 1.03 C
215 21-11-2018 17:50:00 3.3 C 85 % 1.03 C
216 21-11-2018 17:55:00 3.3 C 85 % 1.03 C
217 21-11-2018 18:00:00 3.3 C 86 % 1.19 C
218 21-11-2018 18:05:00 3.3 C 86 % 1.19 C
219 21-11-2018 18:10:00 3.3 C 86 % 1.19 C
220 21-11-2018 18:15:00 3.3 C 86 % 1.19 C
221 21-11-2018 18:20:00 3.3 C 86 % 1.19 C
222 21-11-2018 18:25:00 3.3 C 86 % 1.19 C
223 21-11-2018 18:30:00 3.3 C 86 % 1.19 C
224 21-11-2018 18:35:00 3.3 C 85 % 1.03 C
225 21-11-2018 18:40:00 3.3 C 85 % 1.03 C
Sensor: Nr:Datum:Temp:Feuchte:Taupunkt:
Aussen-T/F 226 21-11-2018 18:45:00 3.3 C 85 % 1.03 C
227 21-11-2018 18:50:00 3.3 C 85 % 1.03 C
228 21-11-2018 18:55:00 3.3 C 85 % 1.03 C
229 21-11-2018 19:00:00 3.3 C 85 % 1.03 C
230 21-11-2018 19:05:00 3.3 C 86 % 1.19 C
231 21-11-2018 19:10:00 3.3 C 85 % 1.03 C
232 21-11-2018 19:15:00 3.3 C 85 % 1.03 C
233 21-11-2018 19:20:00 3.2 C 85 % 0.93 C
234 21-11-2018 19:25:00 3.3 C 85 % 1.03 C
235 21-11-2018 19:30:00 3.3 C 85 % 1.03 C
236 21-11-2018 19:35:00 3.2 C 85 % 0.93 C
237 21-11-2018 19:40:00 3.2 C 85 % 0.93 C
238 21-11-2018 19:45:00 3.2 C 85 % 0.93 C
239 21-11-2018 19:50:00 3.2 C 86 % 1.09 C
240 21-11-2018 19:55:00 3.2 C 86 % 1.09 C
241 21-11-2018 20:00:00 3.2 C 86 % 1.09 C
242 21-11-2018 20:05:00 3.2 C 86 % 1.09 C
243 21-11-2018 20:10:00 3.2 C 86 % 1.09 C
244 21-11-2018 20:15:00 3.2 C 86 % 1.09 C
245 21-11-2018 20:20:00 3.2 C 86 % 1.09 C
246 21-11-2018 20:25:00 3.1 C 87 % 1.15 C
247 21-11-2018 20:30:00 3.1 C 87 % 1.15 C
248 21-11-2018 20:35:00 3.1 C 87 % 1.15 C
249 21-11-2018 20:40:00 3.1 C 87 % 1.15 C
250 21-11-2018 20:45:00 3.1 C 87 % 1.15 C
Sensor: Nr:Datum:Temp:Feuchte:Taupunkt:
Aussen-T/F 251 21-11-2018 20:50:00 3.1 C 87 % 1.15 C
252 21-11-2018 20:55:00 3.1 C 87 % 1.15 C
253 21-11-2018 21:00:00 3.1 C 87 % 1.15 C
254 21-11-2018 21:05:00 3.1 C 87 % 1.15 C
255 21-11-2018 21:10:00 3.1 C 87 % 1.15 C
256 21-11-2018 21:15:00 3.1 C 87 % 1.15 C
257 21-11-2018 21:20:00 3.1 C 88 % 1.31 C
258 21-11-2018 21:25:00 3.1 C 88 % 1.31 C
259 21-11-2018 21:30:00 3.1 C 88 % 1.31 C
260 21-11-2018 21:35:00 3 C 88 % 1.21 C
261 21-11-2018 21:40:00 3 C 88 % 1.21 C
262 21-11-2018 21:45:00 3 C 88 % 1.21 C
263 21-11-2018 21:50:00 3 C 88 % 1.21 C
264 21-11-2018 21:55:00 3 C 88 % 1.21 C
265 21-11-2018 22:00:00 3 C 88 % 1.21 C
266 21-11-2018 22:05:00 3 C 88 % 1.21 C
267 21-11-2018 22:10:00 3 C 88 % 1.21 C
268 21-11-2018 22:15:00 2.9 C 88 % 1.11 C
269 21-11-2018 22:20:00 2.9 C 88 % 1.11 C
270 21-11-2018 22:25:00 2.9 C 88 % 1.11 C
271 21-11-2018 22:30:00 3 C 88 % 1.21 C
272 21-11-2018 22:35:00 3 C 88 % 1.21 C
273 21-11-2018 22:40:00 3 C 88 % 1.21 C
274 21-11-2018 22:45:00 3 C 88 % 1.21 C
275 21-11-2018 22:50:00 3 C 88 % 1.21 C
Sensor: Nr:Datum:Temp:Feuchte:Taupunkt:
Aussen-T/F 276 21-11-2018 22:55:00 3 C 88 % 1.21 C
277 21-11-2018 23:00:00 3 C 88 % 1.21 C
278 21-11-2018 23:05:00 3 C 89 % 1.37 C
279 21-11-2018 23:10:00 3 C 89 % 1.37 C
280 21-11-2018 23:15:00 3 C 89 % 1.37 C
281 21-11-2018 23:20:00 3 C 89 % 1.37 C
282 21-11-2018 23:25:00 3 C 89 % 1.37 C
283 21-11-2018 23:30:00 3 C 89 % 1.37 C
284 21-11-2018 23:35:00 3 C 89 % 1.37 C
285 21-11-2018 23:40:00 3 C 89 % 1.37 C
286 21-11-2018 23:45:00 3 C 89 % 1.37 C
287 21-11-2018 23:50:00 3 C 89 % 1.37 C
288 21-11-2018 23:55:00 3 C 89 % 1.37 C
289 22-11-2018 00:00:00 3 C 89 % 1.37 C
290 22-11-2018 00:05:00 3 C 89 % 1.37 C
291 22-11-2018 00:10:00 3 C 89 % 1.37 C
292 22-11-2018 00:15:00 3.1 C 89 % 1.47 C
293 22-11-2018 00:20:00 3 C 89 % 1.37 C
294 22-11-2018 00:25:00 3 C 89 % 1.37 C
295 22-11-2018 00:30:00 3.1 C 89 % 1.47 C
296 22-11-2018 00:35:00 3.1 C 89 % 1.47 C
297 22-11-2018 00:40:00 3.1 C 89 % 1.47 C
298 22-11-2018 00:45:00 3.1 C 89 % 1.47 C
299 22-11-2018 00:50:00 3.1 C 89 % 1.47 C
300 22-11-2018 00:55:00 3.1 C 89 % 1.47 C
Sensor: Nr:Datum:Temp:Feuchte:Taupunkt:
Aussen-T/F 301 22-11-2018 01:00:00 3.1 C 89 % 1.47 C
302 22-11-2018 01:05:00 3.1 C 89 % 1.47 C
303 22-11-2018 01:10:00 3.1 C 89 % 1.47 C
304 22-11-2018 01:15:00 3.1 C 89 % 1.47 C
305 22-11-2018 01:20:00 3.1 C 89 % 1.47 C
306 22-11-2018 01:25:00 3.1 C 89 % 1.47 C
307 22-11-2018 01:30:00 3.1 C 89 % 1.47 C
308 22-11-2018 01:35:00 3.1 C 89 % 1.47 C
309 22-11-2018 01:40:00 3.1 C 89 % 1.47 C
310 22-11-2018 01:45:00 3.1 C 89 % 1.47 C
311 22-11-2018 01:50:00 3.1 C 89 % 1.47 C
312 22-11-2018 01:55:00 3.1 C 89 % 1.47 C
313 22-11-2018 02:00:00 3.1 C 89 % 1.47 C
314 22-11-2018 02:05:00 3.1 C 89 % 1.47 C
315 22-11-2018 02:10:00 3.1 C 89 % 1.47 C
316 22-11-2018 02:15:00 3.1 C 89 % 1.47 C
317 22-11-2018 02:20:00 3.1 C 89 % 1.47 C
318 22-11-2018 02:25:00 3.1 C 89 % 1.47 C
319 22-11-2018 02:30:00 3.1 C 90 % 1.62 C
320 22-11-2018 02:35:00 3.1 C 89 % 1.47 C
321 22-11-2018 02:40:00 3.1 C 90 % 1.62 C
322 22-11-2018 02:45:00 3.1 C 90 % 1.62 C
323 22-11-2018 02:50:00 3.1 C 90 % 1.62 C
324 22-11-2018 02:55:00 3.1 C 90 % 1.62 C
325 22-11-2018 03:00:00 3.1 C 90 % 1.62 C
Sensor: Nr:Datum:Temp:Feuchte:Taupunkt:
Aussen-T/F 326 22-11-2018 03:05:00 3.1 C 90 % 1.62 C
327 22-11-2018 03:10:00 3.1 C 90 % 1.62 C
328 22-11-2018 03:15:00 3.1 C 90 % 1.62 C
329 22-11-2018 03:20:00 3.1 C 90 % 1.62 C
330 22-11-2018 03:25:00 3.1 C 90 % 1.62 C
331 22-11-2018 03:30:00 3.1 C 90 % 1.62 C
332 22-11-2018 03:35:00 3.1 C 90 % 1.62 C
333 22-11-2018 03:40:00 3.1 C 90 % 1.62 C
334 22-11-2018 03:45:00 3.1 C 90 % 1.62 C
335 22-11-2018 03:50:00 3.1 C 90 % 1.62 C
336 22-11-2018 03:55:00 3.1 C 90 % 1.62 C
337 22-11-2018 04:00:00 3.1 C 90 % 1.62 C
338 22-11-2018 04:05:00 3.1 C 90 % 1.62 C
339 22-11-2018 04:10:00 3.1 C 90 % 1.62 C
340 22-11-2018 04:15:00 3.1 C 90 % 1.62 C
341 22-11-2018 04:20:00 3.1 C 90 % 1.62 C
342 22-11-2018 04:25:00 3.1 C 90 % 1.62 C
343 22-11-2018 04:30:00 3.1 C 90 % 1.62 C
344 22-11-2018 04:35:00 3 C 90 % 1.52 C
345 22-11-2018 04:40:00 3 C 90 % 1.52 C
346 22-11-2018 04:45:00 3 C 90 % 1.52 C
347 22-11-2018 04:50:00 2.9 C 90 % 1.43 C
348 22-11-2018 04:55:00 2.9 C 90 % 1.43 C
349 22-11-2018 05:00:00 2.9 C 90 % 1.43 C
350 22-11-2018 05:05:00 2.9 C 90 % 1.43 C
Sensor: Nr:Datum:Temp:Feuchte:Taupunkt:
Aussen-T/F 351 22-11-2018 05:10:00 2.9 C 90 % 1.43 C
352 22-11-2018 05:15:00 2.9 C 90 % 1.43 C
353 22-11-2018 05:20:00 2.9 C 90 % 1.43 C
354 22-11-2018 05:25:00 2.9 C 90 % 1.43 C
355 22-11-2018 05:30:00 2.9 C 90 % 1.43 C
356 22-11-2018 05:35:00 2.9 C 90 % 1.43 C
357 22-11-2018 05:40:00 2.9 C 90 % 1.43 C
358 22-11-2018 05:45:00 2.9 C 90 % 1.43 C
359 22-11-2018 05:50:00 2.9 C 90 % 1.43 C
360 22-11-2018 05:55:00 2.9 C 90 % 1.43 C
361 22-11-2018 06:00:00 2.9 C 90 % 1.43 C
362 22-11-2018 06:05:00 2.9 C 90 % 1.43 C
363 22-11-2018 06:10:00 2.9 C 90 % 1.43 C
364 22-11-2018 06:15:00 2.8 C 90 % 1.33 C
365 22-11-2018 06:20:00 2.8 C 90 % 1.33 C
366 22-11-2018 06:25:00 2.8 C 90 % 1.33 C
367 22-11-2018 06:30:00 2.8 C 90 % 1.33 C
368 22-11-2018 06:35:00 2.8 C 90 % 1.33 C
369 22-11-2018 06:40:00 2.7 C 90 % 1.23 C
370 22-11-2018 06:45:00 2.7 C 90 % 1.23 C
371 22-11-2018 06:50:00 2.7 C 90 % 1.23 C
372 22-11-2018 06:55:00 2.6 C 91 % 1.28 C
373 22-11-2018 07:00:00 2.6 C 91 % 1.28 C
374 22-11-2018 07:05:00 2.6 C 91 % 1.28 C
375 22-11-2018 07:10:00 2.6 C 91 % 1.28 C
Sensor: Nr:Datum:Temp:Feuchte:Taupunkt:
Aussen-T/F 376 22-11-2018 07:15:00 2.6 C 91 % 1.28 C
377 22-11-2018 07:20:00 2.5 C 91 % 1.18 C
378 22-11-2018 07:25:00 2.5 C 91 % 1.18 C
379 22-11-2018 07:30:00 2.5 C 91 % 1.18 C
380 22-11-2018 07:35:00 2.5 C 91 % 1.18 C
381 22-11-2018 07:40:00 2.5 C 91 % 1.18 C
382 22-11-2018 07:45:00 2.5 C 91 % 1.18 C
383 22-11-2018 07:50:00 2.5 C 91 % 1.18 C
384 22-11-2018 07:55:00 2.5 C 92 % 1.34 C
385 22-11-2018 08:00:00 2.5 C 92 % 1.34 C
386 22-11-2018 08:05:00 2.6 C 92 % 1.43 C
387 22-11-2018 08:10:00 2.6 C 92 % 1.43 C
388 22-11-2018 08:15:00 2.6 C 92 % 1.43 C
389 22-11-2018 08:20:00 2.7 C 92 % 1.53 C
390 22-11-2018 08:25:00 2.7 C 92 % 1.53 C
391 22-11-2018 08:30:00 2.7 C 92 % 1.53 C
392 22-11-2018 08:35:00 2.7 C 92 % 1.53 C
393 22-11-2018 08:40:00 2.8 C 92 % 1.63 C
394 22-11-2018 08:45:00 2.8 C 92 % 1.63 C
395 22-11-2018 08:50:00 2.9 C 92 % 1.73 C
396 22-11-2018 08:55:00 3 C 92 % 1.83 C
397 22-11-2018 09:00:00 3.1 C 92 % 1.93 C
398 22-11-2018 09:05:00 3.1 C 92 % 1.93 C
399 22-11-2018 09:10:00 3.2 C 92 % 2.03 C
400 22-11-2018 09:15:00 3.3 C 92 % 2.13 C
Sensor: Nr:Datum:Temp:Feuchte:Taupunkt:
Aussen-T/F 401 22-11-2018 09:20:00 3.3 C 91 % 1.98 C
402 22-11-2018 09:25:00 3.4 C 91 % 2.07 C
403 22-11-2018 09:30:00 3.4 C 91 % 2.07 C
404 22-11-2018 09:35:00 3.6 C 91 % 2.27 C
405 22-11-2018 09:40:00 3.7 C 91 % 2.37 C
406 22-11-2018 09:45:00 3.7 C 90 % 2.22 C
407 22-11-2018 09:50:00 3.8 C 90 % 2.31 C
408 22-11-2018 09:55:00 3.9 C 89 % 2.26 C
409 22-11-2018 10:00:00 4 C 88 % 2.2 C
410 22-11-2018 10:05:00 4.2 C 87 % 2.23 C
411 22-11-2018 10:10:00 4.2 C 86 % 2.07 C
412 22-11-2018 10:15:00 4.3 C 85 % 2.01 C
413 22-11-2018 10:20:00 4.3 C 85 % 2.01 C
414 22-11-2018 10:25:00 4.4 C 85 % 2.11 C
415 22-11-2018 10:30:00 4.4 C 84 % 1.94 C
416 22-11-2018 10:35:00 4.4 C 84 % 1.94 C
417 22-11-2018 10:40:00 4.5 C 83 % 1.87 C
418 22-11-2018 10:45:00 4.6 C 83 % 1.97 C
419 22-11-2018 10:50:00 4.7 C 83 % 2.07 C
420 22-11-2018 10:55:00 4.8 C 82 % 1.99 C
421 22-11-2018 11:00:00 4.9 C 82 % 2.09 C
422 22-11-2018 11:05:00 5 C 82 % 2.19 C
423 22-11-2018 11:10:00 5.1 C 81 % 2.12 C
424 22-11-2018 11:15:00 5.2 C 81 % 2.21 C
425 22-11-2018 11:20:00 5.3 C 80 % 2.14 C
Sensor: Nr:Datum:Temp:Feuchte:Taupunkt:
Aussen-T/F 426 22-11-2018 11:25:00 5.3 C 80 % 2.14 C
427 22-11-2018 11:30:00 5.3 C 80 % 2.14 C
428 22-11-2018 11:35:00 5.3 C 79 % 1.96 C
429 22-11-2018 11:40:00 5.3 C 80 % 2.14 C
430 22-11-2018 11:45:00 5.3 C 79 % 1.96 C
431 22-11-2018 11:50:00 5.3 C 80 % 2.14 C
432 22-11-2018 11:55:00 5.4 C 79 % 2.06 C
433 22-11-2018 12:00:00 5.4 C 80 % 2.23 C
434 22-11-2018 12:05:00 5.4 C 79 % 2.06 C
435 22-11-2018 12:10:00 5.5 C 79 % 2.16 C
436 22-11-2018 12:15:00 5.5 C 79 % 2.16 C
437 22-11-2018 12:20:00 5.4 C 79 % 2.06 C
438 22-11-2018 12:25:00 5.4 C 79 % 2.06 C
439 22-11-2018 12:30:00 5.4 C 79 % 2.06 C
440 22-11-2018 12:35:00 5.5 C 79 % 2.16 C
441 22-11-2018 12:40:00 5.6 C 79 % 2.25 C
442 22-11-2018 12:45:00 5.6 C 79 % 2.25 C
443 22-11-2018 12:50:00 5.7 C 79 % 2.35 C
444 22-11-2018 12:55:00 5.7 C 78 % 2.17 C
445 22-11-2018 13:00:00 5.8 C 78 % 2.27 C
446 22-11-2018 13:05:00 5.8 C 78 % 2.27 C
447 22-11-2018 13:10:00 5.8 C 78 % 2.27 C
448 22-11-2018 13:15:00 5.8 C 77 % 2.09 C
449 22-11-2018 13:20:00 5.8 C 78 % 2.27 C
450 22-11-2018 13:25:00 5.8 C 78 % 2.27 C
Sensor: Nr:Datum:Temp:Feuchte:Taupunkt:
Aussen-T/F 451 22-11-2018 13:30:00 5.8 C 78 % 2.27 C
452 22-11-2018 13:35:00 5.8 C 78 % 2.27 C
453 22-11-2018 13:40:00 5.8 C 78 % 2.27 C
454 22-11-2018 13:45:00 5.8 C 79 % 2.45 C
455 22-11-2018 13:50:00 5.9 C 78 % 2.37 C
456 22-11-2018 13:55:00 5.9 C 78 % 2.37 C
457 22-11-2018 14:00:00 5.8 C 78 % 2.27 C
458 22-11-2018 14:05:00 5.7 C 78 % 2.17 C
459 22-11-2018 14:10:00 5.6 C 79 % 2.25 C
460 22-11-2018 14:15:00 5.4 C 79 % 2.06 C
461 22-11-2018 14:20:00 5.4 C 79 % 2.06 C
462 22-11-2018 14:25:00 5.3 C 80 % 2.14 C
463 22-11-2018 14:30:00 5.3 C 79 % 1.96 C
464 22-11-2018 14:35:00 5.3 C 80 % 2.14 C
465 22-11-2018 14:40:00 5.3 C 80 % 2.14 C
466 22-11-2018 14:45:00 5.3 C 80 % 2.14 C
467 22-11-2018 14:50:00 5.2 C 80 % 2.04 C
468 22-11-2018 14:55:00 5.2 C 81 % 2.21 C
469 22-11-2018 15:00:00 5.1 C 81 % 2.12 C
470 22-11-2018 15:05:00 4.9 C 81 % 1.92 C
471 22-11-2018 15:10:00 4.8 C 82 % 1.99 C
472 22-11-2018 15:15:00 4.8 C 82 % 1.99 C
473 22-11-2018 15:20:00 4.7 C 82 % 1.9 C
474 22-11-2018 15:25:00 4.7 C 83 % 2.07 C
475 22-11-2018 15:30:00 4.6 C 83 % 1.97 C
Sensor: Nr:Datum:Temp:Feuchte:Taupunkt:
Aussen-T/F 476 22-11-2018 15:35:00 4.6 C 83 % 1.97 C
477 22-11-2018 15:40:00 4.4 C 83 % 1.77 C
478 22-11-2018 15:45:00 4.3 C 83 % 1.67 C
479 22-11-2018 15:50:00 4.2 C 83 % 1.58 C
480 22-11-2018 15:55:00 4.1 C 84 % 1.65 C
481 22-11-2018 16:00:00 3.9 C 84 % 1.45 C
482 22-11-2018 16:05:00 3.8 C 84 % 1.35 C
483 22-11-2018 16:10:00 3.7 C 85 % 1.42 C
484 22-11-2018 16:15:00 3.5 C 86 % 1.38 C
485 22-11-2018 16:20:00 3.4 C 86 % 1.29 C
486 22-11-2018 16:25:00 3.2 C 86 % 1.09 C
487 22-11-2018 16:30:00 3.1 C 86 % 0.99 C
488 22-11-2018 16:35:00 2.9 C 87 % 0.96 C
489 22-11-2018 16:40:00 2.8 C 87 % 0.86 C
490 22-11-2018 16:45:00 2.7 C 87 % 0.76 C
491 22-11-2018 16:50:00 2.6 C 88 % 0.82 C
492 22-11-2018 16:55:00 2.5 C 88 % 0.72 C
493 22-11-2018 17:00:00 2.4 C 88 % 0.62 C
494 22-11-2018 17:05:00 2.3 C 88 % 0.52 C
495 22-11-2018 17:10:00 2.2 C 89 % 0.58 C
496 22-11-2018 17:15:00 2.2 C 89 % 0.58 C
497 22-11-2018 17:20:00 2.1 C 89 % 0.48 C
498 22-11-2018 17:25:00 2.1 C 90 % 0.64 C
499 22-11-2018 17:30:00 2.1 C 90 % 0.64 C
500 22-11-2018 17:35:00 2.2 C 90 % 0.73 C
Sensor: Nr:Datum:Temp:Feuchte:Taupunkt:
Aussen-T/F 501 22-11-2018 17:40:00 2.2 C 91 % 0.89 C
502 22-11-2018 17:45:00 2.3 C 91 % 0.99 C
503 22-11-2018 17:50:00 2.3 C 91 % 0.99 C
504 22-11-2018 17:55:00 2.3 C 91 % 0.99 C
505 22-11-2018 18:00:00 2.4 C 91 % 1.08 C
506 22-11-2018 18:05:00 2.5 C 91 % 1.18 C
507 22-11-2018 18:10:00 2.6 C 91 % 1.28 C
508 22-11-2018 18:15:00 2.6 C 91 % 1.28 C
509 22-11-2018 18:20:00 2.6 C 91 % 1.28 C
510 22-11-2018 18:25:00 2.6 C 91 % 1.28 C
511 22-11-2018 18:30:00 2.6 C 91 % 1.28 C
512 22-11-2018 18:35:00 2.6 C 91 % 1.28 C
513 22-11-2018 18:40:00 2.6 C 90 % 1.13 C
514 22-11-2018 18:45:00 2.4 C 90 % 0.93 C
515 22-11-2018 18:50:00 2.3 C 90 % 0.83 C
516 22-11-2018 18:55:00 2.2 C 89 % 0.58 C
517 22-11-2018 19:00:00 2 C 89 % 0.38 C
518 22-11-2018 19:05:00 1.9 C 89 % 0.28 C
519 22-11-2018 19:10:00 1.8 C 90 % 0.34 C
520 22-11-2018 19:15:00 1.7 C 90 % 0.24 C
521 22-11-2018 19:20:00 1.6 C 90 % 0.14 C
522 22-11-2018 19:25:00 1.5 C 90 % 0.04 C
523 22-11-2018 19:30:00 1.4 C 91 % 0.1 C
524 22-11-2018 19:35:00 1.4 C 91 % 0.1 C
525 22-11-2018 19:40:00 1.4 C 91 % 0.1 C
Sensor: Nr:Datum:Temp:Feuchte:Taupunkt:
Aussen-T/F 526 22-11-2018 19:45:00 1.3 C 91 % 0 C
527 22-11-2018 19:50:00 1.3 C 91 % 0 C
528 22-11-2018 19:55:00 1.3 C 92 % 0.15 C
529 22-11-2018 20:00:00 1.2 C 91 % -0.1 C
530 22-11-2018 20:05:00 1.2 C 92 % 0.05 C
531 22-11-2018 20:10:00 1.2 C 92 % 0.05 C
532 22-11-2018 20:15:00 1.1 C 92 % -0.05 C
533 22-11-2018 20:20:00 1.1 C 92 % -0.05 C
534 22-11-2018 20:25:00 1 C 92 % -0.15 C
535 22-11-2018 20:30:00 0.9 C 92 % -0.25 C
536 22-11-2018 20:35:00 0.9 C 92 % -0.25 C
537 22-11-2018 20:40:00 0.8 C 92 % -0.35 C
538 22-11-2018 20:45:00 0.8 C 92 % -0.35 C
539 22-11-2018 20:50:00 0.8 C 92 % -0.35 C
540 22-11-2018 20:55:00 0.7 C 92 % -0.45 C
541 22-11-2018 21:00:00 0.6 C 92 % -0.55 C
542 22-11-2018 21:05:00 0.5 C 92 % -0.65 C
543 22-11-2018 21:10:00 0.4 C 92 % -0.74 C
544 22-11-2018 21:15:00 0.3 C 92 % -0.84 C
545 22-11-2018 21:20:00 0.3 C 93 % -0.7 C
546 22-11-2018 21:25:00 0.2 C 92 % -0.94 C
547 22-11-2018 21:30:00 0.2 C 93 % -0.79 C
548 22-11-2018 21:35:00 0.1 C 93 % -0.89 C
549 22-11-2018 21:40:00 0 C 93 % -0.99 C
550 22-11-2018 21:45:00 -0.1 C 93 % -1.09 C
Sensor: Nr:Datum:Temp:Feuchte:Taupunkt:
Aussen-T/F 551 22-11-2018 21:50:00 -0.1 C 93 % -1.09 C
552 22-11-2018 21:55:00 -0.2 C 93 % -1.19 C
553 22-11-2018 22:00:00 -0.3 C 93 % -1.29 C
554 22-11-2018 22:05:00 -0.3 C 93 % -1.29 C
555 22-11-2018 22:10:00 -0.3 C 93 % -1.29 C
556 22-11-2018 22:15:00 -0.4 C 93 % -1.39 C
557 22-11-2018 22:20:00 -0.4 C 93 % -1.39 C
558 22-11-2018 22:25:00 -0.4 C 93 % -1.39 C
559 22-11-2018 22:30:00 -0.4 C 94 % -1.25 C
560 22-11-2018 22:35:00 -0.4 C 94 % -1.25 C
561 22-11-2018 22:40:00 -0.4 C 94 % -1.25 C
562 22-11-2018 22:45:00 -0.5 C 94 % -1.34 C
563 22-11-2018 22:50:00 -0.6 C 94 % -1.44 C
564 22-11-2018 22:55:00 -0.6 C 94 % -1.44 C
565 22-11-2018 23:00:00 -0.7 C 94 % -1.54 C
566 22-11-2018 23:05:00 -0.8 C 93 % -1.79 C
567 22-11-2018 23:10:00 -0.9 C 94 % -1.74 C
568 22-11-2018 23:15:00 -0.9 C 94 % -1.74 C
569 22-11-2018 23:20:00 -1 C 94 % -1.84 C
570 22-11-2018 23:25:00 -1.1 C 94 % -1.94 C
571 22-11-2018 23:30:00 -1 C 94 % -1.84 C
572 22-11-2018 23:35:00 -1 C 94 % -1.84 C
573 22-11-2018 23:40:00 -1.1 C 94 % -1.94 C
574 22-11-2018 23:45:00 -1.1 C 94 % -1.94 C
575 22-11-2018 23:50:00 -1.1 C 94 % -1.94 C
Sensor: Nr:Datum:Temp:Feuchte:Taupunkt:
Aussen-T/F 576 22-11-2018 23:55:00 -1.1 C 94 % -1.94 C
577 23-11-2018 00:00:00 -1.1 C 94 % -1.94 C
578 23-11-2018 00:05:00 -1.2 C 94 % -2.04 C
579 23-11-2018 00:10:00 -1.2 C 94 % -2.04 C
580 23-11-2018 00:15:00 -1.2 C 94 % -2.04 C
581 23-11-2018 00:20:00 -1.2 C 94 % -2.04 C
582 23-11-2018 00:25:00 -1.3 C 94 % -2.14 C
583 23-11-2018 00:30:00 -1.3 C 94 % -2.14 C
584 23-11-2018 00:35:00 -1.4 C 94 % -2.24 C
585 23-11-2018 00:40:00 -1.4 C 94 % -2.24 C
586 23-11-2018 00:45:00 -1.4 C 95 % -2.1 C
587 23-11-2018 00:50:00 -1.4 C 95 % -2.1 C
588 23-11-2018 00:55:00 -1.4 C 94 % -2.24 C
589 23-11-2018 01:00:00 -1.5 C 94 % -2.34 C
590 23-11-2018 01:05:00 -1.5 C 94 % -2.34 C
591 23-11-2018 01:10:00 -1.6 C 95 % -2.29 C
592 23-11-2018 01:15:00 -1.6 C 95 % -2.29 C
593 23-11-2018 01:20:00 -1.7 C 95 % -2.39 C
594 23-11-2018 01:25:00 -1.7 C 94 % -2.54 C
595 23-11-2018 01:30:00 -1.7 C 94 % -2.54 C
596 23-11-2018 01:35:00 -1.8 C 94 % -2.64 C
597 23-11-2018 01:40:00 -1.8 C 94 % -2.64 C
598 23-11-2018 01:45:00 -1.8 C 94 % -2.64 C
599 23-11-2018 01:50:00 -1.8 C 95 % -2.49 C
600 23-11-2018 01:55:00 -1.8 C 95 % -2.49 C
Sensor: Nr:Datum:Temp:Feuchte:Taupunkt:
Aussen-T/F 601 23-11-2018 02:00:00 -1.7 C 95 % -2.39 C
602 23-11-2018 02:05:00 -1.7 C 95 % -2.39 C
603 23-11-2018 02:10:00 -1.7 C 95 % -2.39 C
604 23-11-2018 02:15:00 -1.8 C 95 % -2.49 C
605 23-11-2018 02:20:00 -1.8 C 95 % -2.49 C
606 23-11-2018 02:25:00 -1.9 C 95 % -2.59 C
607 23-11-2018 02:30:00 -1.9 C 95 % -2.59 C
608 23-11-2018 02:35:00 -1.8 C 95 % -2.49 C
609 23-11-2018 02:40:00 -1.8 C 95 % -2.49 C
610 23-11-2018 02:45:00 -1.9 C 95 % -2.59 C
611 23-11-2018 02:50:00 -2 C 95 % -2.69 C
612 23-11-2018 02:55:00 -2.1 C 95 % -2.79 C
613 23-11-2018 03:00:00 -2.1 C 95 % -2.79 C
614 23-11-2018 03:05:00 -2.1 C 95 % -2.79 C
615 23-11-2018 03:10:00 -2.1 C 95 % -2.79 C
616 23-11-2018 03:15:00 -2.2 C 95 % -2.89 C
617 23-11-2018 03:20:00 -2.2 C 95 % -2.89 C
618 23-11-2018 03:25:00 -2.2 C 95 % -2.89 C
619 23-11-2018 03:30:00 -2.2 C 95 % -2.89 C
620 23-11-2018 03:35:00 -2.1 C 95 % -2.79 C
621 23-11-2018 03:40:00 -1.9 C 95 % -2.59 C
622 23-11-2018 03:45:00 -1.9 C 95 % -2.59 C
623 23-11-2018 03:50:00 -2 C 95 % -2.69 C
624 23-11-2018 03:55:00 -2.1 C 95 % -2.79 C
625 23-11-2018 04:00:00 -1.9 C 95 % -2.59 C
Sensor: Nr:Datum:Temp:Feuchte:Taupunkt:
Aussen-T/F 626 23-11-2018 04:05:00 -1.9 C 95 % -2.59 C
627 23-11-2018 04:10:00 -1.9 C 95 % -2.59 C
628 23-11-2018 04:15:00 -1.9 C 95 % -2.59 C
629 23-11-2018 04:20:00 -2 C 95 % -2.69 C
630 23-11-2018 04:25:00 -2.1 C 95 % -2.79 C
631 23-11-2018 04:30:00 -2.1 C 95 % -2.79 C
632 23-11-2018 04:35:00 -2.2 C 95 % -2.89 C
633 23-11-2018 04:40:00 -2.3 C 95 % -2.99 C
634 23-11-2018 04:45:00 -2.3 C 95 % -2.99 C
635 23-11-2018 04:50:00 -2.3 C 95 % -2.99 C
636 23-11-2018 04:55:00 -2.4 C 95 % -3.09 C
637 23-11-2018 05:00:00 -2.4 C 95 % -3.09 C
638 23-11-2018 05:05:00 -2.4 C 95 % -3.09 C
639 23-11-2018 05:10:00 -2.3 C 95 % -2.99 C
640 23-11-2018 05:15:00 -2.2 C 95 % -2.89 C
641 23-11-2018 05:20:00 -2.2 C 95 % -2.89 C
642 23-11-2018 05:25:00 -2.1 C 95 % -2.79 C
643 23-11-2018 05:30:00 -2.2 C 95 % -2.89 C
644 23-11-2018 05:35:00 -2.3 C 95 % -2.99 C
645 23-11-2018 05:40:00 -2.3 C 95 % -2.99 C
646 23-11-2018 05:45:00 -2.4 C 95 % -3.09 C
647 23-11-2018 05:50:00 -2.6 C 95 % -3.29 C
648 23-11-2018 05:55:00 -2.6 C 95 % -3.29 C
649 23-11-2018 06:00:00 -2.5 C 95 % -3.19 C
650 23-11-2018 06:05:00 -2.4 C 95 % -3.09 C
Sensor: Nr:Datum:Temp:Feuchte:Taupunkt:
Aussen-T/F 651 23-11-2018 06:10:00 -2.3 C 95 % -2.99 C
652 23-11-2018 06:15:00 -2.2 C 96 % -2.75 C
653 23-11-2018 06:20:00 -2.1 C 96 % -2.65 C
654 23-11-2018 06:25:00 -2 C 96 % -2.55 C
655 23-11-2018 06:30:00 -2 C 95 % -2.69 C
656 23-11-2018 06:35:00 -2 C 95 % -2.69 C
657 23-11-2018 06:40:00 -2.1 C 95 % -2.79 C
658 23-11-2018 06:45:00 -2.1 C 95 % -2.79 C
659 23-11-2018 06:50:00 -2.2 C 95 % -2.89 C
660 23-11-2018 06:55:00 -2.2 C 95 % -2.89 C
661 23-11-2018 07:00:00 -2.2 C 95 % -2.89 C
662 23-11-2018 07:05:00 -2.1 C 95 % -2.79 C
663 23-11-2018 07:10:00 -2.1 C 95 % -2.79 C
664 23-11-2018 07:15:00 -2 C 96 % -2.55 C
665 23-11-2018 07:20:00 -2 C 96 % -2.55 C
666 23-11-2018 07:25:00 -2 C 95 % -2.69 C
667 23-11-2018 07:30:00 -2.1 C 95 % -2.79 C
668 23-11-2018 07:35:00 -2.2 C 95 % -2.89 C
669 23-11-2018 07:40:00 -2.3 C 95 % -2.99 C
670 23-11-2018 07:45:00 -2.4 C 95 % -3.09 C
671 23-11-2018 07:50:00 -2.5 C 95 % -3.19 C
672 23-11-2018 07:55:00 -2.6 C 95 % -3.29 C
673 23-11-2018 08:00:00 -2.7 C 95 % -3.39 C
674 23-11-2018 08:05:00 -2.8 C 95 % -3.49 C
675 23-11-2018 08:10:00 -2.8 C 95 % -3.49 C
Sensor: Nr:Datum:Temp:Feuchte:Taupunkt:
Aussen-T/F 676 23-11-2018 08:15:00 -2.7 C 95 % -3.39 C
677 23-11-2018 08:20:00 -2.8 C 95 % -3.49 C
678 23-11-2018 08:25:00 -2.8 C 95 % -3.49 C
679 23-11-2018 08:30:00 -2.8 C 95 % -3.49 C
680 23-11-2018 08:35:00 -2.9 C 95 % -3.59 C
681 23-11-2018 08:40:00 -2.9 C 95 % -3.59 C
682 23-11-2018 08:45:00 -2.9 C 95 % -3.59 C
683 23-11-2018 08:50:00 -2.8 C 95 % -3.49 C
684 23-11-2018 08:55:00 -2.7 C 95 % -3.39 C
685 23-11-2018 09:00:00 -2.6 C 95 % -3.29 C
686 23-11-2018 09:05:00 -2.5 C 96 % -3.05 C
687 23-11-2018 09:10:00 -2.5 C 96 % -3.05 C
688 23-11-2018 09:15:00 -2.4 C 96 % -2.95 C
689 23-11-2018 09:20:00 -2.3 C 96 % -2.85 C
690 23-11-2018 09:25:00 -2.3 C 96 % -2.85 C
691 23-11-2018 09:30:00 -2.2 C 96 % -2.75 C
692 23-11-2018 09:35:00 -2.2 C 96 % -2.75 C
693 23-11-2018 09:40:00 -2.2 C 96 % -2.75 C
694 23-11-2018 09:45:00 -2.2 C 96 % -2.75 C
695 23-11-2018 09:50:00 -2.2 C 96 % -2.75 C
696 23-11-2018 09:55:00 -2.2 C 96 % -2.75 C
697 23-11-2018 10:00:00 -2.2 C 96 % -2.75 C
698 23-11-2018 10:05:00 -2.2 C 96 % -2.75 C
699 23-11-2018 10:10:00 -2.2 C 96 % -2.75 C
700 23-11-2018 10:15:00 -2.2 C 96 % -2.75 C
Sensor: Nr:Datum:Temp:Feuchte:Taupunkt:
Aussen-T/F 701 23-11-2018 10:20:00 -2.1 C 96 % -2.65 C
702 23-11-2018 10:25:00 -2.1 C 96 % -2.65 C
703 23-11-2018 10:30:00 -2 C 96 % -2.55 C
704 23-11-2018 10:35:00 -1.9 C 96 % -2.45 C
705 23-11-2018 10:40:00 -1.8 C 96 % -2.35 C
706 23-11-2018 10:45:00 -1.8 C 96 % -2.35 C
707 23-11-2018 10:50:00 -1.7 C 96 % -2.25 C
708 23-11-2018 10:55:00 -1.6 C 96 % -2.15 C
709 23-11-2018 11:00:00 -1.6 C 96 % -2.15 C
710 23-11-2018 11:05:00 -1.4 C 96 % -1.95 C
711 23-11-2018 11:10:00 -1.4 C 96 % -1.95 C
712 23-11-2018 11:15:00 -1.3 C 96 % -1.85 C
713 23-11-2018 11:20:00 -1.2 C 96 % -1.75 C
714 23-11-2018 11:25:00 -1.1 C 96 % -1.66 C
715 23-11-2018 11:30:00 -1 C 96 % -1.56 C
716 23-11-2018 11:35:00 -0.9 C 96 % -1.46 C
717 23-11-2018 11:40:00 -0.8 C 96 % -1.36 C
718 23-11-2018 11:45:00 -0.7 C 96 % -1.26 C
719 23-11-2018 11:50:00 -0.6 C 96 % -1.16 C
720 23-11-2018 11:55:00 -0.5 C 96 % -1.06 C
721 23-11-2018 12:00:00 -0.3 C 96 % -0.86 C
722 23-11-2018 12:05:00 -0.2 C 96 % -0.76 C
723 23-11-2018 12:10:00 -0.1 C 97 % -0.52 C
724 23-11-2018 12:15:00 0.1 C 97 % -0.32 C
725 23-11-2018 12:20:00 0.2 C 96 % -0.36 C
Sensor: Nr:Datum:Temp:Feuchte:Taupunkt:
Aussen-T/F 726 23-11-2018 12:25:00 0.4 C 97 % -0.02 C
727 23-11-2018 12:30:00 0.6 C 97 % 0.18 C
728 23-11-2018 12:35:00 0.8 C 97 % 0.38 C
729 23-11-2018 12:40:00 1.1 C 97 % 0.68 C
730 23-11-2018 12:45:00 1.3 C 97 % 0.88 C
731 23-11-2018 12:50:00 1.4 C 97 % 0.98 C
732 23-11-2018 12:55:00 1.6 C 97 % 1.18 C
733 23-11-2018 13:00:00 1.7 C 97 % 1.28 C
734 23-11-2018 13:05:00 1.8 C 97 % 1.38 C
735 23-11-2018 13:10:00 1.9 C 97 % 1.48 C
736 23-11-2018 13:15:00 2 C 97 % 1.58 C
737 23-11-2018 13:20:00 2.1 C 97 % 1.67 C
738 23-11-2018 13:25:00 2.1 C 97 % 1.67 C
739 23-11-2018 13:30:00 2.3 C 97 % 1.87 C
740 23-11-2018 13:35:00 2.3 C 97 % 1.87 C
741 23-11-2018 13:40:00 2.4 C 97 % 1.97 C
742 23-11-2018 13:45:00 2.6 C 97 % 2.17 C
743 23-11-2018 13:50:00 2.6 C 97 % 2.17 C
744 23-11-2018 13:55:00 2.7 C 97 % 2.27 C
745 23-11-2018 14:00:00 2.8 C 97 % 2.37 C
746 23-11-2018 14:05:00 2.8 C 97 % 2.37 C
747 23-11-2018 14:10:00 2.9 C 97 % 2.47 C
748 23-11-2018 14:15:00 2.9 C 96 % 2.33 C
749 23-11-2018 14:20:00 3 C 96 % 2.43 C
750 23-11-2018 14:25:00 3.1 C 97 % 2.67 C
Sensor: Nr:Datum:Temp:Feuchte:Taupunkt:
Aussen-T/F 751 23-11-2018 14:30:00 3.2 C 96 % 2.63 C
752 23-11-2018 14:35:00 3.2 C 96 % 2.63 C
753 23-11-2018 14:40:00 3.3 C 96 % 2.72 C
754 23-11-2018 14:45:00 3.4 C 96 % 2.82 C
755 23-11-2018 14:50:00 3.4 C 96 % 2.82 C
756 23-11-2018 14:55:00 3.5 C 96 % 2.92 C
757 23-11-2018 15:00:00 3.5 C 96 % 2.92 C
758 23-11-2018 15:05:00 3.4 C 96 % 2.82 C
759 23-11-2018 15:10:00 3.4 C 96 % 2.82 C
760 23-11-2018 15:15:00 3.4 C 96 % 2.82 C
761 23-11-2018 15:20:00 3.4 C 95 % 2.68 C
762 23-11-2018 15:25:00 3.4 C 96 % 2.82 C
763 23-11-2018 15:30:00 3.4 C 96 % 2.82 C
764 23-11-2018 15:35:00 3.4 C 96 % 2.82 C
765 23-11-2018 15:40:00 3.4 C 96 % 2.82 C
766 23-11-2018 15:45:00 3.4 C 95 % 2.68 C
767 23-11-2018 15:50:00 3.4 C 95 % 2.68 C
768 23-11-2018 15:55:00 3.4 C 95 % 2.68 C
769 23-11-2018 16:00:00 3.4 C 95 % 2.68 C
770 23-11-2018 16:05:00 3.3 C 95 % 2.58 C
771 23-11-2018 16:10:00 3.3 C 95 % 2.58 C
772 23-11-2018 16:15:00 3.2 C 95 % 2.48 C
773 23-11-2018 16:20:00 3.2 C 95 % 2.48 C
774 23-11-2018 16:25:00 3.1 C 95 % 2.38 C
775 23-11-2018 16:30:00 3.1 C 95 % 2.38 C
Sensor: Nr:Datum:Temp:Feuchte:Taupunkt:
Aussen-T/F 776 23-11-2018 16:35:00 3 C 95 % 2.28 C
777 23-11-2018 16:40:00 2.9 C 95 % 2.18 C
778 23-11-2018 16:45:00 2.9 C 95 % 2.18 C
779 23-11-2018 16:50:00 2.9 C 95 % 2.18 C
780 23-11-2018 16:55:00 2.8 C 95 % 2.08 C
781 23-11-2018 17:00:00 2.8 C 95 % 2.08 C
782 23-11-2018 17:05:00 2.8 C 95 % 2.08 C
783 23-11-2018 17:10:00 2.8 C 95 % 2.08 C
784 23-11-2018 17:15:00 2.8 C 95 % 2.08 C
785 23-11-2018 17:20:00 2.8 C 95 % 2.08 C
786 23-11-2018 17:25:00 2.8 C 95 % 2.08 C
787 23-11-2018 17:30:00 2.8 C 95 % 2.08 C
788 23-11-2018 17:35:00 2.8 C 95 % 2.08 C
789 23-11-2018 17:40:00 2.7 C 95 % 1.98 C
790 23-11-2018 17:45:00 2.7 C 95 % 1.98 C
791 23-11-2018 17:50:00 2.6 C 95 % 1.88 C
792 23-11-2018 17:55:00 2.6 C 95 % 1.88 C
793 23-11-2018 18:00:00 2.6 C 95 % 1.88 C
794 23-11-2018 18:05:00 2.5 C 95 % 1.78 C
795 23-11-2018 18:10:00 2.6 C 95 % 1.88 C
796 23-11-2018 18:15:00 2.5 C 95 % 1.78 C
797 23-11-2018 18:20:00 2.4 C 95 % 1.68 C
798 23-11-2018 18:25:00 2.4 C 95 % 1.68 C
799 23-11-2018 18:30:00 2.4 C 95 % 1.68 C
800 23-11-2018 18:35:00 2.4 C 95 % 1.68 C
Sensor: Nr:Datum:Temp:Feuchte:Taupunkt:
Aussen-T/F 801 23-11-2018 18:40:00 2.4 C 95 % 1.68 C
802 23-11-2018 18:45:00 2.4 C 95 % 1.68 C
803 23-11-2018 18:50:00 2.4 C 95 % 1.68 C
804 23-11-2018 18:55:00 2.4 C 95 % 1.68 C
805 23-11-2018 19:00:00 2.4 C 95 % 1.68 C
806 23-11-2018 19:05:00 2.3 C 95 % 1.58 C
807 23-11-2018 19:10:00 2.3 C 95 % 1.58 C
808 23-11-2018 19:15:00 2.3 C 95 % 1.58 C
809 23-11-2018 19:20:00 2.3 C 95 % 1.58 C
810 23-11-2018 19:25:00 2.3 C 95 % 1.58 C
811 23-11-2018 19:30:00 2.3 C 95 % 1.58 C
812 23-11-2018 19:35:00 2.3 C 95 % 1.58 C
813 23-11-2018 19:40:00 2.2 C 95 % 1.48 C
814 23-11-2018 19:45:00 2.2 C 95 % 1.48 C
815 23-11-2018 19:50:00 2.1 C 95 % 1.38 C
816 23-11-2018 19:55:00 2.1 C 95 % 1.38 C
817 23-11-2018 20:00:00 2 C 95 % 1.29 C
818 23-11-2018 20:05:00 1.9 C 95 % 1.19 C
819 23-11-2018 20:10:00 1.9 C 95 % 1.19 C
820 23-11-2018 20:15:00 1.9 C 95 % 1.19 C
821 23-11-2018 20:20:00 1.8 C 95 % 1.09 C
822 23-11-2018 20:25:00 1.8 C 95 % 1.09 C
823 23-11-2018 20:30:00 1.8 C 95 % 1.09 C
824 23-11-2018 20:35:00 1.8 C 95 % 1.09 C
825 23-11-2018 20:40:00 1.8 C 95 % 1.09 C
Sensor: Nr:Datum:Temp:Feuchte:Taupunkt:
Aussen-T/F 826 23-11-2018 20:45:00 1.8 C 95 % 1.09 C
827 23-11-2018 20:50:00 1.7 C 95 % 0.99 C
828 23-11-2018 20:55:00 1.7 C 95 % 0.99 C
829 23-11-2018 21:00:00 1.7 C 95 % 0.99 C
830 23-11-2018 21:05:00 1.6 C 95 % 0.89 C
831 23-11-2018 21:10:00 1.6 C 95 % 0.89 C
832 23-11-2018 21:15:00 1.6 C 95 % 0.89 C
833 23-11-2018 21:20:00 1.6 C 95 % 0.89 C
834 23-11-2018 21:25:00 1.5 C 95 % 0.79 C
835 23-11-2018 21:30:00 1.5 C 95 % 0.79 C
836 23-11-2018 21:35:00 1.4 C 95 % 0.69 C
837 23-11-2018 21:40:00 1.4 C 95 % 0.69 C
838 23-11-2018 21:45:00 1.4 C 95 % 0.69 C
839 23-11-2018 21:50:00 1.3 C 95 % 0.59 C
840 23-11-2018 21:55:00 1.3 C 95 % 0.59 C
841 23-11-2018 22:00:00 1.3 C 95 % 0.59 C
842 23-11-2018 22:05:00 1.3 C 95 % 0.59 C
843 23-11-2018 22:10:00 1.3 C 95 % 0.59 C
844 23-11-2018 22:15:00 1.2 C 95 % 0.49 C
845 23-11-2018 22:20:00 1.2 C 95 % 0.49 C
846 23-11-2018 22:25:00 1.3 C 95 % 0.59 C
847 23-11-2018 22:30:00 1.3 C 95 % 0.59 C
848 23-11-2018 22:35:00 1.4 C 96 % 0.83 C
849 23-11-2018 22:40:00 1.4 C 96 % 0.83 C
850 23-11-2018 22:45:00 1.5 C 96 % 0.93 C
Sensor: Nr:Datum:Temp:Feuchte:Taupunkt:
Aussen-T/F 851 23-11-2018 22:50:00 1.6 C 96 % 1.03 C
852 23-11-2018 22:55:00 1.6 C 96 % 1.03 C
853 23-11-2018 23:00:00 1.6 C 96 % 1.03 C
854 23-11-2018 23:05:00 1.7 C 96 % 1.13 C
855 23-11-2018 23:10:00 1.7 C 96 % 1.13 C
856 23-11-2018 23:15:00 1.8 C 96 % 1.23 C
857 23-11-2018 23:20:00 1.8 C 96 % 1.23 C
858 23-11-2018 23:25:00 1.9 C 96 % 1.33 C
859 23-11-2018 23:30:00 2 C 96 % 1.43 C
860 23-11-2018 23:35:00 2.1 C 96 % 1.53 C
861 23-11-2018 23:40:00 2.1 C 96 % 1.53 C
862 23-11-2018 23:45:00 2.2 C 96 % 1.63 C
863 23-11-2018 23:50:00 2.2 C 96 % 1.63 C
864 23-11-2018 23:55:00 2.2 C 96 % 1.63 C
865 24-11-2018 00:00:00 2.2 C 96 % 1.63 C
866 24-11-2018 00:05:00 2.2 C 96 % 1.63 C
867 24-11-2018 00:10:00 2.2 C 96 % 1.63 C
868 24-11-2018 00:15:00 2.2 C 96 % 1.63 C
869 24-11-2018 00:20:00 2.2 C 96 % 1.63 C
870 24-11-2018 00:25:00 2.2 C 96 % 1.63 C
871 24-11-2018 00:30:00 2.2 C 96 % 1.63 C
872 24-11-2018 00:35:00 2.3 C 96 % 1.73 C
873 24-11-2018 00:40:00 2.3 C 96 % 1.73 C
874 24-11-2018 00:45:00 2.3 C 96 % 1.73 C
875 24-11-2018 00:50:00 2.3 C 96 % 1.73 C
Sensor: Nr:Datum:Temp:Feuchte:Taupunkt:
Aussen-T/F 876 24-11-2018 00:55:00 2.3 C 96 % 1.73 C
877 24-11-2018 01:00:00 2.3 C 96 % 1.73 C
878 24-11-2018 01:05:00 2.3 C 96 % 1.73 C
879 24-11-2018 01:10:00 2.3 C 96 % 1.73 C
880 24-11-2018 01:15:00 2.4 C 96 % 1.83 C
881 24-11-2018 01:20:00 2.4 C 96 % 1.83 C
882 24-11-2018 01:25:00 2.4 C 96 % 1.83 C
883 24-11-2018 01:30:00 2.4 C 96 % 1.83 C
884 24-11-2018 01:35:00 2.4 C 96 % 1.83 C
885 24-11-2018 01:40:00 2.4 C 96 % 1.83 C
886 24-11-2018 01:45:00 2.4 C 96 % 1.83 C
887 24-11-2018 01:50:00 2.4 C 96 % 1.83 C
888 24-11-2018 01:55:00 2.4 C 96 % 1.83 C
889 24-11-2018 02:00:00 2.4 C 96 % 1.83 C
890 24-11-2018 02:05:00 2.4 C 96 % 1.83 C
891 24-11-2018 02:10:00 2.4 C 96 % 1.83 C
892 24-11-2018 02:15:00 2.5 C 96 % 1.93 C
893 24-11-2018 02:20:00 2.4 C 96 % 1.83 C
894 24-11-2018 02:25:00 2.5 C 96 % 1.93 C
895 24-11-2018 02:30:00 2.5 C 96 % 1.93 C
896 24-11-2018 02:35:00 2.5 C 96 % 1.93 C
897 24-11-2018 02:40:00 2.5 C 96 % 1.93 C
898 24-11-2018 02:45:00 2.5 C 96 % 1.93 C
899 24-11-2018 02:50:00 2.5 C 96 % 1.93 C
900 24-11-2018 02:55:00 2.5 C 96 % 1.93 C
Sensor: Nr:Datum:Temp:Feuchte:Taupunkt:
Aussen-T/F 901 24-11-2018 03:00:00 2.5 C 96 % 1.93 C
902 24-11-2018 03:05:00 2.5 C 96 % 1.93 C
903 24-11-2018 03:10:00 2.5 C 96 % 1.93 C
904 24-11-2018 03:15:00 2.5 C 96 % 1.93 C
905 24-11-2018 03:20:00 2.5 C 96 % 1.93 C
906 24-11-2018 03:25:00 2.5 C 96 % 1.93 C
907 24-11-2018 03:30:00 2.5 C 96 % 1.93 C
908 24-11-2018 03:35:00 2.6 C 96 % 2.03 C
909 24-11-2018 03:40:00 2.6 C 96 % 2.03 C
910 24-11-2018 03:45:00 2.6 C 96 % 2.03 C
911 24-11-2018 03:50:00 2.6 C 96 % 2.03 C
912 24-11-2018 03:55:00 2.6 C 96 % 2.03 C
913 24-11-2018 04:00:00 2.6 C 96 % 2.03 C
914 24-11-2018 04:05:00 2.6 C 96 % 2.03 C
915 24-11-2018 04:10:00 2.6 C 96 % 2.03 C
916 24-11-2018 04:15:00 2.6 C 96 % 2.03 C
917 24-11-2018 04:20:00 2.6 C 96 % 2.03 C
918 24-11-2018 04:25:00 2.7 C 96 % 2.13 C
919 24-11-2018 04:30:00 2.7 C 96 % 2.13 C
920 24-11-2018 04:35:00 2.7 C 96 % 2.13 C
921 24-11-2018 04:40:00 2.7 C 96 % 2.13 C
922 24-11-2018 04:45:00 2.7 C 96 % 2.13 C
923 24-11-2018 04:50:00 2.7 C 96 % 2.13 C
924 24-11-2018 04:55:00 2.7 C 96 % 2.13 C
925 24-11-2018 05:00:00 2.7 C 96 % 2.13 C
Sensor: Nr:Datum:Temp:Feuchte:Taupunkt:
Aussen-T/F 926 24-11-2018 05:05:00 2.7 C 96 % 2.13 C
927 24-11-2018 05:10:00 2.7 C 96 % 2.13 C
928 24-11-2018 05:15:00 2.7 C 96 % 2.13 C
929 24-11-2018 05:20:00 2.7 C 96 % 2.13 C
930 24-11-2018 05:25:00 2.7 C 96 % 2.13 C
931 24-11-2018 05:30:00 2.8 C 96 % 2.23 C
932 24-11-2018 05:35:00 2.8 C 96 % 2.23 C
933 24-11-2018 05:40:00 2.8 C 96 % 2.23 C
934 24-11-2018 05:45:00 2.8 C 96 % 2.23 C
935 24-11-2018 05:50:00 2.8 C 96 % 2.23 C
936 24-11-2018 05:55:00 2.9 C 96 % 2.33 C
937 24-11-2018 06:00:00 2.9 C 96 % 2.33 C
938 24-11-2018 06:05:00 2.9 C 96 % 2.33 C
939 24-11-2018 06:10:00 2.9 C 96 % 2.33 C
940 24-11-2018 06:15:00 2.9 C 96 % 2.33 C
941 24-11-2018 06:20:00 2.9 C 96 % 2.33 C
942 24-11-2018 06:25:00 3 C 96 % 2.43 C
943 24-11-2018 06:30:00 3 C 96 % 2.43 C
944 24-11-2018 06:35:00 3 C 96 % 2.43 C
945 24-11-2018 06:40:00 3.1 C 96 % 2.53 C
946 24-11-2018 06:45:00 3.1 C 96 % 2.53 C
947 24-11-2018 06:50:00 3.1 C 96 % 2.53 C
948 24-11-2018 06:55:00 3.1 C 96 % 2.53 C
949 24-11-2018 07:00:00 3.1 C 96 % 2.53 C
950 24-11-2018 07:05:00 3.1 C 96 % 2.53 C
Sensor: Nr:Datum:Temp:Feuchte:Taupunkt:
Aussen-T/F 951 24-11-2018 07:10:00 3.1 C 96 % 2.53 C
952 24-11-2018 07:15:00 3.1 C 96 % 2.53 C
953 24-11-2018 07:20:00 3.1 C 96 % 2.53 C
954 24-11-2018 07:25:00 3.1 C 96 % 2.53 C
955 24-11-2018 07:30:00 3.1 C 96 % 2.53 C
956 24-11-2018 07:35:00 3.1 C 96 % 2.53 C
957 24-11-2018 07:40:00 3.1 C 96 % 2.53 C
958 24-11-2018 07:45:00 3.1 C 96 % 2.53 C
959 24-11-2018 07:50:00 3.1 C 96 % 2.53 C
960 24-11-2018 07:55:00 3.1 C 96 % 2.53 C
961 24-11-2018 08:00:00 3.1 C 96 % 2.53 C
962 24-11-2018 08:05:00 3.1 C 96 % 2.53 C
963 24-11-2018 08:10:00 3.1 C 96 % 2.53 C
964 24-11-2018 08:15:00 3.1 C 96 % 2.53 C
965 24-11-2018 08:20:00 3.1 C 96 % 2.53 C
966 24-11-2018 08:25:00 3.1 C 96 % 2.53 C
967 24-11-2018 08:30:00 3.1 C 96 % 2.53 C
968 24-11-2018 08:35:00 3.1 C 96 % 2.53 C
969 24-11-2018 08:40:00 3.1 C 96 % 2.53 C
970 24-11-2018 08:45:00 3.2 C 96 % 2.63 C
971 24-11-2018 08:50:00 3.2 C 96 % 2.63 C
972 24-11-2018 08:55:00 3.2 C 96 % 2.63 C
973 24-11-2018 09:00:00 3.3 C 96 % 2.72 C
974 24-11-2018 09:05:00 3.3 C 96 % 2.72 C
975 24-11-2018 09:10:00 3.4 C 96 % 2.82 C
Sensor: Nr:Datum:Temp:Feuchte:Taupunkt:
Aussen-T/F 976 24-11-2018 09:15:00 3.4 C 96 % 2.82 C
977 24-11-2018 09:20:00 3.4 C 96 % 2.82 C
978 24-11-2018 09:25:00 3.5 C 96 % 2.92 C
979 24-11-2018 09:30:00 3.6 C 96 % 3.02 C
980 24-11-2018 09:35:00 3.6 C 96 % 3.02 C
981 24-11-2018 09:40:00 3.6 C 96 % 3.02 C
982 24-11-2018 09:45:00 3.7 C 96 % 3.12 C
983 24-11-2018 09:50:00 3.7 C 96 % 3.12 C
984 24-11-2018 09:55:00 3.7 C 96 % 3.12 C
985 24-11-2018 10:00:00 3.8 C 96 % 3.22 C
986 24-11-2018 10:05:00 3.8 C 97 % 3.37 C
987 24-11-2018 10:10:00 4 C 96 % 3.42 C
988 24-11-2018 10:15:00 4.1 C 97 % 3.67 C
989 24-11-2018 10:20:00 4.1 C 97 % 3.67 C
990 24-11-2018 10:25:00 4.2 C 97 % 3.77 C
991 24-11-2018 10:30:00 4.3 C 97 % 3.87 C
992 24-11-2018 10:35:00 4.3 C 97 % 3.87 C
993 24-11-2018 10:40:00 4.4 C 97 % 3.97 C
994 24-11-2018 10:45:00 4.4 C 97 % 3.97 C
995 24-11-2018 10:50:00 4.5 C 97 % 4.07 C
996 24-11-2018 10:55:00 4.6 C 97 % 4.17 C
997 24-11-2018 11:00:00 4.7 C 97 % 4.27 C
998 24-11-2018 11:05:00 4.7 C 97 % 4.27 C
999 24-11-2018 11:10:00 4.7 C 97 % 4.27 C
1000 24-11-2018 11:15:00 4.8 C 97 % 4.37 C
Sensor: Nr:Datum:Temp:Feuchte:Taupunkt:
Aussen-T/F 1001 24-11-2018 11:20:00 4.9 C 97 % 4.46 C
1002 24-11-2018 11:25:00 5 C 97 % 4.56 C
1003 24-11-2018 11:30:00 5.1 C 97 % 4.66 C
1004 24-11-2018 11:35:00 5.1 C 97 % 4.66 C
1005 24-11-2018 11:40:00 5.2 C 97 % 4.76 C
1006 24-11-2018 11:45:00 5.3 C 97 % 4.86 C
1007 24-11-2018 11:50:00 5.3 C 97 % 4.86 C
1008 24-11-2018 11:55:00 5.3 C 97 % 4.86 C
1009 24-11-2018 12:00:00 5.4 C 97 % 4.96 C
1010 24-11-2018 12:05:00 5.4 C 97 % 4.96 C
1011 24-11-2018 12:10:00 5.6 C 97 % 5.16 C
1012 24-11-2018 12:15:00 5.7 C 97 % 5.26 C
1013 24-11-2018 12:20:00 5.7 C 97 % 5.26 C
1014 24-11-2018 12:25:00 5.8 C 97 % 5.36 C
1015 24-11-2018 12:30:00 5.9 C 97 % 5.46 C
1016 24-11-2018 12:35:00 5.9 C 97 % 5.46 C
1017 24-11-2018 12:40:00 6 C 97 % 5.56 C
1018 24-11-2018 12:45:00 6 C 97 % 5.56 C
1019 24-11-2018 12:50:00 6 C 97 % 5.56 C
1020 24-11-2018 12:55:00 6 C 97 % 5.56 C
1021 24-11-2018 13:00:00 6 C 97 % 5.56 C
1022 24-11-2018 13:05:00 6.1 C 97 % 5.66 C
1023 24-11-2018 13:10:00 6.1 C 97 % 5.66 C
1024 24-11-2018 13:15:00 6.1 C 97 % 5.66 C
1025 24-11-2018 13:20:00 6.2 C 97 % 5.76 C
Sensor: Nr:Datum:Temp:Feuchte:Taupunkt:
Aussen-T/F 1026 24-11-2018 13:25:00 6.3 C 97 % 5.86 C
1027 24-11-2018 13:30:00 6.4 C 97 % 5.96 C
1028 24-11-2018 13:35:00 6.6 C 97 % 6.16 C
1029 24-11-2018 13:40:00 6.6 C 97 % 6.16 C
1030 24-11-2018 13:45:00 6.7 C 97 % 6.26 C
1031 24-11-2018 13:50:00 6.7 C 97 % 6.26 C
1032 24-11-2018 13:55:00 6.8 C 97 % 6.36 C
1033 24-11-2018 14:00:00 6.8 C 96 % 6.21 C
1034 24-11-2018 14:05:00 6.8 C 96 % 6.21 C
1035 24-11-2018 14:10:00 6.9 C 96 % 6.31 C
1036 24-11-2018 14:15:00 6.9 C 97 % 6.46 C
1037 24-11-2018 14:20:00 7 C 97 % 6.56 C
1038 24-11-2018 14:25:00 7.1 C 97 % 6.66 C
1039 24-11-2018 14:30:00 7.1 C 97 % 6.66 C
1040 24-11-2018 14:35:00 7.1 C 97 % 6.66 C
1041 24-11-2018 14:40:00 7.2 C 96 % 6.61 C
1042 24-11-2018 14:45:00 7.2 C 96 % 6.61 C
1043 24-11-2018 14:50:00 7.2 C 96 % 6.61 C
1044 24-11-2018 14:55:00 7.3 C 96 % 6.71 C
1045 24-11-2018 15:00:00 7.3 C 96 % 6.71 C
1046 24-11-2018 15:05:00 7.3 C 97 % 6.86 C
1047 24-11-2018 15:10:00 7.3 C 97 % 6.86 C
1048 24-11-2018 15:15:00 7.4 C 97 % 6.96 C
1049 24-11-2018 15:20:00 7.4 C 97 % 6.96 C
1050 24-11-2018 15:25:00 7.4 C 97 % 6.96 C
Sensor: Nr:Datum:Temp:Feuchte:Taupunkt:
Aussen-T/F 1051 24-11-2018 15:30:00 7.4 C 97 % 6.96 C
1052 24-11-2018 15:35:00 7.4 C 97 % 6.96 C
1053 24-11-2018 15:40:00 7.5 C 97 % 7.06 C
1054 24-11-2018 15:45:00 7.4 C 97 % 6.96 C
1055 24-11-2018 15:50:00 7.4 C 96 % 6.8 C
1056 24-11-2018 15:55:00 7.4 C 96 % 6.8 C
1057 24-11-2018 16:00:00 7.4 C 96 % 6.8 C
1058 24-11-2018 16:05:00 7.4 C 96 % 6.8 C
1059 24-11-2018 16:10:00 7.3 C 96 % 6.71 C
1060 24-11-2018 16:15:00 7.3 C 96 % 6.71 C
1061 24-11-2018 16:20:00 7.3 C 96 % 6.71 C
1062 24-11-2018 16:25:00 7.2 C 96 % 6.61 C
1063 24-11-2018 16:30:00 7.2 C 96 % 6.61 C
1064 24-11-2018 16:35:00 7.2 C 96 % 6.61 C
1065 24-11-2018 16:40:00 7.2 C 96 % 6.61 C
1066 24-11-2018 16:45:00 7.3 C 96 % 6.71 C
1067 24-11-2018 16:50:00 7.2 C 96 % 6.61 C
1068 24-11-2018 16:55:00 7.2 C 96 % 6.61 C
1069 24-11-2018 17:00:00 7.2 C 96 % 6.61 C
1070 24-11-2018 17:05:00 7.2 C 96 % 6.61 C
1071 24-11-2018 17:10:00 7.2 C 96 % 6.61 C
1072 24-11-2018 17:15:00 7.2 C 96 % 6.61 C
1073 24-11-2018 17:20:00 7.2 C 96 % 6.61 C
1074 24-11-2018 17:25:00 7.2 C 96 % 6.61 C
1075 24-11-2018 17:30:00 7.2 C 96 % 6.61 C
Sensor: Nr:Datum:Temp:Feuchte:Taupunkt:
Aussen-T/F 1076 24-11-2018 17:35:00 7.2 C 96 % 6.61 C
1077 24-11-2018 17:40:00 7.2 C 96 % 6.61 C
1078 24-11-2018 17:45:00 7.2 C 96 % 6.61 C
1079 24-11-2018 17:50:00 7.2 C 96 % 6.61 C
1080 24-11-2018 17:55:00 7.2 C 96 % 6.61 C
1081 24-11-2018 18:00:00 7.2 C 96 % 6.61 C
1082 24-11-2018 18:05:00 7.2 C 96 % 6.61 C
1083 24-11-2018 18:10:00 7.1 C 96 % 6.51 C
1084 24-11-2018 18:15:00 7.2 C 96 % 6.61 C
1085 24-11-2018 18:20:00 7.2 C 96 % 6.61 C
1086 24-11-2018 18:25:00 7.1 C 96 % 6.51 C
1087 24-11-2018 18:30:00 7.1 C 96 % 6.51 C
1088 24-11-2018 18:35:00 6.9 C 96 % 6.31 C
1089 24-11-2018 18:40:00 6.8 C 96 % 6.21 C
1090 24-11-2018 18:45:00 6.7 C 96 % 6.11 C
1091 24-11-2018 18:50:00 6.5 C 96 % 5.91 C
1092 24-11-2018 18:55:00 6.4 C 95 % 5.66 C
1093 24-11-2018 19:00:00 6.2 C 96 % 5.61 C
1094 24-11-2018 19:05:00 6.1 C 95 % 5.36 C
1095 24-11-2018 19:10:00 5.9 C 95 % 5.16 C
1096 24-11-2018 19:15:00 5.8 C 96 % 5.21 C
1097 24-11-2018 19:20:00 5.8 C 96 % 5.21 C
1098 24-11-2018 19:25:00 5.9 C 96 % 5.31 C
1099 24-11-2018 19:30:00 5.9 C 96 % 5.31 C
1100 24-11-2018 19:35:00 5.9 C 96 % 5.31 C
Sensor: Nr:Datum:Temp:Feuchte:Taupunkt:
Aussen-T/F 1101 24-11-2018 19:40:00 5.8 C 96 % 5.21 C
1102 24-11-2018 19:45:00 5.8 C 96 % 5.21 C
1103 24-11-2018 19:50:00 5.9 C 96 % 5.31 C
1104 24-11-2018 19:55:00 5.9 C 96 % 5.31 C
1105 24-11-2018 20:00:00 6 C 96 % 5.41 C
1106 24-11-2018 20:05:00 6.1 C 97 % 5.66 C
1107 24-11-2018 20:10:00 6.1 C 97 % 5.66 C
1108 24-11-2018 20:15:00 6.1 C 97 % 5.66 C
1109 24-11-2018 20:20:00 6.2 C 96 % 5.61 C
1110 24-11-2018 20:25:00 6.2 C 96 % 5.61 C
1111 24-11-2018 20:30:00 6.2 C 97 % 5.76 C
1112 24-11-2018 20:35:00 6.1 C 96 % 5.51 C
1113 24-11-2018 20:40:00 6.1 C 96 % 5.51 C
1114 24-11-2018 20:45:00 6.1 C 96 % 5.51 C
1115 24-11-2018 20:50:00 6.1 C 96 % 5.51 C
1116 24-11-2018 20:55:00 6 C 96 % 5.41 C
1117 24-11-2018 21:00:00 6.1 C 97 % 5.66 C
1118 24-11-2018 21:05:00 6.1 C 97 % 5.66 C
1119 24-11-2018 21:10:00 6.1 C 97 % 5.66 C
1120 24-11-2018 21:15:00 6.1 C 97 % 5.66 C
1121 24-11-2018 21:20:00 6.1 C 97 % 5.66 C
1122 24-11-2018 21:25:00 6.1 C 97 % 5.66 C
1123 24-11-2018 21:30:00 6.2 C 97 % 5.76 C
1124 24-11-2018 21:35:00 6.2 C 97 % 5.76 C
1125 24-11-2018 21:40:00 6.1 C 97 % 5.66 C
Sensor: Nr:Datum:Temp:Feuchte:Taupunkt:
Aussen-T/F 1126 24-11-2018 21:45:00 6 C 96 % 5.41 C
1127 24-11-2018 21:50:00 5.8 C 96 % 5.21 C
1128 24-11-2018 21:55:00 5.7 C 96 % 5.11 C
1129 24-11-2018 22:00:00 5.7 C 96 % 5.11 C
1130 24-11-2018 22:05:00 5.6 C 96 % 5.01 C
1131 24-11-2018 22:10:00 5.5 C 96 % 4.91 C
1132 24-11-2018 22:15:00 5.5 C 96 % 4.91 C
1133 24-11-2018 22:20:00 5.5 C 96 % 4.91 C
1134 24-11-2018 22:25:00 5.6 C 96 % 5.01 C
1135 24-11-2018 22:30:00 5.6 C 96 % 5.01 C
1136 24-11-2018 22:35:00 5.4 C 96 % 4.81 C
1137 24-11-2018 22:40:00 5.3 C 96 % 4.72 C
1138 24-11-2018 22:45:00 5.2 C 96 % 4.62 C
1139 24-11-2018 22:50:00 5.2 C 96 % 4.62 C
1140 24-11-2018 22:55:00 5.3 C 96 % 4.72 C
1141 24-11-2018 23:00:00 5.3 C 96 % 4.72 C
1142 24-11-2018 23:05:00 5.2 C 96 % 4.62 C
1143 24-11-2018 23:10:00 5.2 C 96 % 4.62 C
1144 24-11-2018 23:15:00 5.2 C 96 % 4.62 C
1145 24-11-2018 23:20:00 5.2 C 96 % 4.62 C
1146 24-11-2018 23:25:00 5.3 C 97 % 4.86 C
1147 24-11-2018 23:30:00 5.4 C 97 % 4.96 C
1148 24-11-2018 23:35:00 5.6 C 97 % 5.16 C
1149 24-11-2018 23:40:00 5.6 C 97 % 5.16 C
1150 24-11-2018 23:45:00 5.7 C 97 % 5.26 C
Sensor: Nr:Datum:Temp:Feuchte:Taupunkt:
Aussen-T/F 1151 24-11-2018 23:50:00 5.7 C 97 % 5.26 C
1152 24-11-2018 23:55:00 5.7 C 97 % 5.26 C
1153 25-11-2018 00:00:00 5.8 C 97 % 5.36 C
1154 25-11-2018 00:05:00 5.8 C 97 % 5.36 C
1155 25-11-2018 00:10:00 5.8 C 97 % 5.36 C
1156 25-11-2018 00:15:00 5.8 C 97 % 5.36 C
1157 25-11-2018 00:20:00 5.8 C 97 % 5.36 C
1158 25-11-2018 00:25:00 5.8 C 97 % 5.36 C
1159 25-11-2018 00:30:00 5.8 C 97 % 5.36 C
1160 25-11-2018 00:35:00 5.8 C 97 % 5.36 C
1161 25-11-2018 00:40:00 5.8 C 97 % 5.36 C
1162 25-11-2018 00:45:00 5.8 C 97 % 5.36 C
1163 25-11-2018 00:50:00 5.9 C 97 % 5.46 C
1164 25-11-2018 00:55:00 5.9 C 97 % 5.46 C
1165 25-11-2018 01:00:00 5.8 C 97 % 5.36 C
1166 25-11-2018 01:05:00 5.8 C 97 % 5.36 C
1167 25-11-2018 01:10:00 5.8 C 97 % 5.36 C
1168 25-11-2018 01:15:00 5.7 C 97 % 5.26 C
1169 25-11-2018 01:20:00 5.7 C 97 % 5.26 C
1170 25-11-2018 01:25:00 5.7 C 97 % 5.26 C
1171 25-11-2018 01:30:00 5.7 C 97 % 5.26 C
1172 25-11-2018 01:35:00 5.7 C 97 % 5.26 C
1173 25-11-2018 01:40:00 5.7 C 97 % 5.26 C
1174 25-11-2018 01:45:00 5.8 C 97 % 5.36 C
1175 25-11-2018 01:50:00 5.8 C 97 % 5.36 C
Sensor: Nr:Datum:Temp:Feuchte:Taupunkt:
Aussen-T/F 1176 25-11-2018 01:55:00 5.9 C 97 % 5.46 C
1177 25-11-2018 02:00:00 6 C 97 % 5.56 C
1178 25-11-2018 02:05:00 6 C 97 % 5.56 C
1179 25-11-2018 02:10:00 6 C 97 % 5.56 C
1180 25-11-2018 02:15:00 5.9 C 97 % 5.46 C
1181 25-11-2018 02:20:00 5.9 C 97 % 5.46 C
1182 25-11-2018 02:25:00 5.8 C 97 % 5.36 C
1183 25-11-2018 02:30:00 5.8 C 97 % 5.36 C
1184 25-11-2018 02:35:00 5.7 C 97 % 5.26 C
1185 25-11-2018 02:40:00 5.7 C 97 % 5.26 C
1186 25-11-2018 02:45:00 5.6 C 97 % 5.16 C
1187 25-11-2018 02:50:00 5.6 C 97 % 5.16 C
1188 25-11-2018 02:55:00 5.6 C 97 % 5.16 C
1189 25-11-2018 03:00:00 5.6 C 97 % 5.16 C
1190 25-11-2018 03:05:00 5.7 C 97 % 5.26 C
1191 25-11-2018 03:10:00 5.7 C 97 % 5.26 C
1192 25-11-2018 03:15:00 5.7 C 97 % 5.26 C
1193 25-11-2018 03:20:00 5.8 C 97 % 5.36 C
1194 25-11-2018 03:25:00 5.8 C 97 % 5.36 C
1195 25-11-2018 03:30:00 5.8 C 97 % 5.36 C
1196 25-11-2018 03:35:00 5.8 C 97 % 5.36 C
1197 25-11-2018 03:40:00 5.8 C 97 % 5.36 C
1198 25-11-2018 03:45:00 5.8 C 97 % 5.36 C
1199 25-11-2018 03:50:00 5.8 C 97 % 5.36 C
1200 25-11-2018 03:55:00 5.8 C 97 % 5.36 C
Sensor: Nr:Datum:Temp:Feuchte:Taupunkt:
Aussen-T/F 1201 25-11-2018 04:00:00 5.8 C 97 % 5.36 C
1202 25-11-2018 04:05:00 5.8 C 97 % 5.36 C
1203 25-11-2018 04:10:00 5.6 C 97 % 5.16 C
1204 25-11-2018 04:15:00 5.5 C 97 % 5.06 C
1205 25-11-2018 04:20:00 5.3 C 97 % 4.86 C
1206 25-11-2018 04:25:00 5.2 C 96 % 4.62 C
1207 25-11-2018 04:30:00 5.1 C 97 % 4.66 C
1208 25-11-2018 04:35:00 5.1 C 97 % 4.66 C
1209 25-11-2018 04:40:00 5.1 C 97 % 4.66 C
1210 25-11-2018 04:45:00 5 C 97 % 4.56 C
1211 25-11-2018 04:50:00 4.9 C 97 % 4.46 C
1212 25-11-2018 04:55:00 4.8 C 97 % 4.37 C
1213 25-11-2018 05:00:00 4.7 C 97 % 4.27 C
1214 25-11-2018 05:05:00 4.6 C 96 % 4.02 C
1215 25-11-2018 05:10:00 4.5 C 97 % 4.07 C
1216 25-11-2018 05:15:00 4.6 C 97 % 4.17 C
1217 25-11-2018 05:20:00 4.7 C 97 % 4.27 C
1218 25-11-2018 05:25:00 4.6 C 97 % 4.17 C
1219 25-11-2018 05:30:00 4.5 C 97 % 4.07 C
1220 25-11-2018 05:35:00 4.4 C 97 % 3.97 C
1221 25-11-2018 05:40:00 4.3 C 96 % 3.72 C
1222 25-11-2018 05:45:00 4.2 C 97 % 3.77 C
1223 25-11-2018 05:50:00 4.3 C 97 % 3.87 C
1224 25-11-2018 05:55:00 4.4 C 97 % 3.97 C
1225 25-11-2018 06:00:00 4.6 C 97 % 4.17 C
Sensor: Nr:Datum:Temp:Feuchte:Taupunkt:
Aussen-T/F 1226 25-11-2018 06:05:00 4.6 C 97 % 4.17 C
1227 25-11-2018 06:10:00 4.7 C 97 % 4.27 C
1228 25-11-2018 06:15:00 4.7 C 97 % 4.27 C
1229 25-11-2018 06:20:00 4.7 C 97 % 4.27 C
1230 25-11-2018 06:25:00 4.7 C 97 % 4.27 C
1231 25-11-2018 06:30:00 4.7 C 97 % 4.27 C
1232 25-11-2018 06:35:00 4.7 C 97 % 4.27 C
1233 25-11-2018 06:40:00 4.7 C 97 % 4.27 C
1234 25-11-2018 06:45:00 4.7 C 97 % 4.27 C
1235 25-11-2018 06:50:00 4.5 C 97 % 4.07 C
1236 25-11-2018 06:55:00 4.3 C 97 % 3.87 C
1237 25-11-2018 07:00:00 4.2 C 97 % 3.77 C
1238 25-11-2018 07:05:00 3.9 C 96 % 3.32 C
1239 25-11-2018 07:10:00 3.8 C 96 % 3.22 C
1240 25-11-2018 07:15:00 3.7 C 96 % 3.12 C
1241 25-11-2018 07:20:00 3.4 C 96 % 2.82 C
1242 25-11-2018 07:25:00 3.3 C 96 % 2.72 C
1243 25-11-2018 07:30:00 3.3 C 96 % 2.72 C
1244 25-11-2018 07:35:00 3.3 C 96 % 2.72 C
1245 25-11-2018 07:40:00 3.3 C 97 % 2.87 C
1246 25-11-2018 07:45:00 3.2 C 97 % 2.77 C
1247 25-11-2018 07:50:00 3.2 C 97 % 2.77 C
1248 25-11-2018 07:55:00 3.2 C 97 % 2.77 C
1249 25-11-2018 08:00:00 3.2 C 97 % 2.77 C
1250 25-11-2018 08:05:00 3.3 C 97 % 2.87 C
Sensor: Nr:Datum:Temp:Feuchte:Taupunkt:
Aussen-T/F 1251 25-11-2018 08:10:00 3.3 C 97 % 2.87 C
1252 25-11-2018 08:15:00 3.4 C 97 % 2.97 C
1253 25-11-2018 08:20:00 3.4 C 97 % 2.97 C
1254 25-11-2018 08:25:00 3.4 C 97 % 2.97 C
1255 25-11-2018 08:30:00 3.6 C 97 % 3.17 C
1256 25-11-2018 08:35:00 3.7 C 97 % 3.27 C
1257 25-11-2018 08:40:00 3.9 C 97 % 3.47 C
1258 25-11-2018 08:45:00 4 C 97 % 3.57 C
1259 25-11-2018 08:50:00 4 C 97 % 3.57 C
1260 25-11-2018 08:55:00 4.1 C 97 % 3.67 C
1261 25-11-2018 09:00:00 4.1 C 97 % 3.67 C
1262 25-11-2018 09:05:00 4.1 C 97 % 3.67 C
1263 25-11-2018 09:10:00 4.2 C 97 % 3.77 C
1264 25-11-2018 09:15:00 4.3 C 97 % 3.87 C
1265 25-11-2018 09:20:00 4.3 C 97 % 3.87 C
1266 25-11-2018 09:25:00 4.4 C 97 % 3.97 C
1267 25-11-2018 09:30:00 4.5 C 97 % 4.07 C
1268 25-11-2018 09:35:00 4.6 C 97 % 4.17 C
1269 25-11-2018 09:40:00 4.7 C 97 % 4.27 C
1270 25-11-2018 09:45:00 4.8 C 97 % 4.37 C
1271 25-11-2018 09:50:00 4.8 C 97 % 4.37 C
1272 25-11-2018 09:55:00 4.9 C 97 % 4.46 C
1273 25-11-2018 10:00:00 4.9 C 98 % 4.61 C
1274 25-11-2018 10:05:00 4.9 C 97 % 4.46 C
1275 25-11-2018 10:10:00 4.9 C 97 % 4.46 C
Sensor: Nr:Datum:Temp:Feuchte:Taupunkt:
Aussen-T/F 1276 25-11-2018 10:15:00 4.9 C 97 % 4.46 C
1277 25-11-2018 10:20:00 5 C 97 % 4.56 C
1278 25-11-2018 10:25:00 5.1 C 97 % 4.66 C
1279 25-11-2018 10:30:00 5.2 C 97 % 4.76 C
1280 25-11-2018 10:35:00 5.3 C 98 % 5.01 C
1281 25-11-2018 10:40:00 5.4 C 97 % 4.96 C
1282 25-11-2018 10:45:00 5.5 C 97 % 5.06 C
1283 25-11-2018 10:50:00 5.6 C 97 % 5.16 C
1284 25-11-2018 10:55:00 5.7 C 98 % 5.41 C
1285 25-11-2018 11:00:00 5.8 C 98 % 5.51 C
1286 25-11-2018 11:05:00 5.9 C 97 % 5.46 C
1287 25-11-2018 11:10:00 6 C 98 % 5.71 C
1288 25-11-2018 11:15:00 6.1 C 98 % 5.81 C
1289 25-11-2018 11:20:00 6.2 C 97 % 5.76 C
1290 25-11-2018 11:25:00 6.3 C 98 % 6.01 C
1291 25-11-2018 11:30:00 6.3 C 98 % 6.01 C
1292 25-11-2018 11:35:00 6.3 C 98 % 6.01 C
1293 25-11-2018 11:40:00 6.4 C 97 % 5.96 C
1294 25-11-2018 11:45:00 6.4 C 97 % 5.96 C
1295 25-11-2018 11:50:00 6.4 C 97 % 5.96 C
1296 25-11-2018 11:55:00 6.4 C 97 % 5.96 C
1297 25-11-2018 12:00:00 6.4 C 97 % 5.96 C
1298 25-11-2018 12:05:00 6.4 C 97 % 5.96 C
1299 25-11-2018 12:10:00 6.4 C 97 % 5.96 C
1300 25-11-2018 12:15:00 6.4 C 97 % 5.96 C
Sensor: Nr:Datum:Temp:Feuchte:Taupunkt:
Aussen-T/F 1301 25-11-2018 12:20:00 6.4 C 97 % 5.96 C
1302 25-11-2018 12:25:00 6.5 C 97 % 6.06 C
1303 25-11-2018 12:30:00 6.5 C 97 % 6.06 C
1304 25-11-2018 12:35:00 6.5 C 97 % 6.06 C
1305 25-11-2018 12:40:00 6.5 C 97 % 6.06 C
1306 25-11-2018 12:45:00 6.6 C 97 % 6.16 C
1307 25-11-2018 12:50:00 6.6 C 97 % 6.16 C
1308 25-11-2018 12:55:00 6.7 C 97 % 6.26 C
1309 25-11-2018 13:00:00 6.8 C 97 % 6.36 C
1310 25-11-2018 13:05:00 6.8 C 97 % 6.36 C
1311 25-11-2018 13:10:00 6.9 C 97 % 6.46 C
1312 25-11-2018 13:15:00 7 C 96 % 6.41 C
1313 25-11-2018 13:20:00 7.1 C 97 % 6.66 C
1314 25-11-2018 13:25:00 7.1 C 97 % 6.66 C
1315 25-11-2018 13:30:00 7.2 C 96 % 6.61 C
1316 25-11-2018 13:35:00 7.3 C 96 % 6.71 C
1317 25-11-2018 13:40:00 7.3 C 96 % 6.71 C
1318 25-11-2018 13:45:00 7.4 C 96 % 6.8 C
1319 25-11-2018 13:50:00 7.4 C 96 % 6.8 C
1320 25-11-2018 13:55:00 7.4 C 95 % 6.65 C
1321 25-11-2018 14:00:00 7.5 C 95 % 6.75 C
1322 25-11-2018 14:05:00 7.6 C 95 % 6.85 C
1323 25-11-2018 14:10:00 7.6 C 94 % 6.7 C
1324 25-11-2018 14:15:00 7.6 C 94 % 6.7 C
1325 25-11-2018 14:20:00 7.7 C 94 % 6.8 C
Sensor: Nr:Datum:Temp:Feuchte:Taupunkt:
Aussen-T/F 1326 25-11-2018 14:25:00 7.7 C 94 % 6.8 C
1327 25-11-2018 14:30:00 7.7 C 93 % 6.64 C
1328 25-11-2018 14:35:00 7.8 C 93 % 6.74 C
1329 25-11-2018 14:40:00 7.8 C 93 % 6.74 C
1330 25-11-2018 14:45:00 7.8 C 92 % 6.58 C
1331 25-11-2018 14:50:00 7.8 C 92 % 6.58 C
1332 25-11-2018 14:55:00 7.9 C 92 % 6.68 C
1333 25-11-2018 15:00:00 7.9 C 92 % 6.68 C
1334 25-11-2018 15:05:00 7.9 C 92 % 6.68 C
1335 25-11-2018 15:10:00 7.9 C 92 % 6.68 C
1336 25-11-2018 15:15:00 7.9 C 92 % 6.68 C
1337 25-11-2018 15:20:00 7.9 C 92 % 6.68 C
1338 25-11-2018 15:25:00 7.9 C 92 % 6.68 C
1339 25-11-2018 15:30:00 7.9 C 92 % 6.68 C
1340 25-11-2018 15:35:00 7.9 C 92 % 6.68 C
1341 25-11-2018 15:40:00 7.9 C 93 % 6.84 C
1342 25-11-2018 15:45:00 7.8 C 93 % 6.74 C
1343 25-11-2018 15:50:00 7.8 C 93 % 6.74 C
1344 25-11-2018 15:55:00 7.8 C 93 % 6.74 C
1345 25-11-2018 16:00:00 7.8 C 93 % 6.74 C
1346 25-11-2018 16:05:00 7.8 C 93 % 6.74 C
1347 25-11-2018 16:10:00 7.8 C 93 % 6.74 C
1348 25-11-2018 16:15:00 7.7 C 93 % 6.64 C
1349 25-11-2018 16:20:00 7.7 C 93 % 6.64 C
1350 25-11-2018 16:25:00 7.7 C 93 % 6.64 C
Sensor: Nr:Datum:Temp:Feuchte:Taupunkt:
Aussen-T/F 1351 25-11-2018 16:30:00 7.6 C 93 % 6.54 C
1352 25-11-2018 16:35:00 7.6 C 93 % 6.54 C
1353 25-11-2018 16:40:00 7.6 C 93 % 6.54 C
1354 25-11-2018 16:45:00 7.5 C 93 % 6.44 C
1355 25-11-2018 16:50:00 7.4 C 94 % 6.5 C
1356 25-11-2018 16:55:00 7.4 C 94 % 6.5 C
1357 25-11-2018 17:00:00 7.4 C 94 % 6.5 C
1358 25-11-2018 17:05:00 7.4 C 94 % 6.5 C
1359 25-11-2018 17:10:00 7.4 C 94 % 6.5 C
1360 25-11-2018 17:15:00 7.3 C 94 % 6.4 C
1361 25-11-2018 17:20:00 7.3 C 94 % 6.4 C
1362 25-11-2018 17:25:00 7.3 C 94 % 6.4 C
1363 25-11-2018 17:30:00 7.3 C 94 % 6.4 C
1364 25-11-2018 17:35:00 7.2 C 94 % 6.3 C
1365 25-11-2018 17:40:00 7.2 C 94 % 6.3 C
1366 25-11-2018 17:45:00 7.2 C 94 % 6.3 C
1367 25-11-2018 17:50:00 7.2 C 94 % 6.3 C
1368 25-11-2018 17:55:00 7.2 C 94 % 6.3 C
1369 25-11-2018 18:00:00 7.2 C 94 % 6.3 C
1370 25-11-2018 18:05:00 7.1 C 94 % 6.2 C
1371 25-11-2018 18:10:00 7 C 94 % 6.1 C
1372 25-11-2018 18:15:00 6.9 C 94 % 6 C
1373 25-11-2018 18:20:00 6.8 C 94 % 5.9 C
1374 25-11-2018 18:25:00 6.8 C 94 % 5.9 C
1375 25-11-2018 18:30:00 6.8 C 94 % 5.9 C
Sensor: Nr:Datum:Temp:Feuchte:Taupunkt:
Aussen-T/F 1376 25-11-2018 18:35:00 6.8 C 94 % 5.9 C
1377 25-11-2018 18:40:00 6.8 C 94 % 5.9 C
1378 25-11-2018 18:45:00 6.8 C 94 % 5.9 C
1379 25-11-2018 18:50:00 6.7 C 94 % 5.8 C
1380 25-11-2018 18:55:00 6.7 C 94 % 5.8 C
1381 25-11-2018 19:00:00 6.7 C 94 % 5.8 C
1382 25-11-2018 19:05:00 6.7 C 95 % 5.96 C
1383 25-11-2018 19:10:00 6.7 C 95 % 5.96 C
1384 25-11-2018 19:15:00 6.7 C 95 % 5.96 C
1385 25-11-2018 19:20:00 6.7 C 95 % 5.96 C
1386 25-11-2018 19:25:00 6.7 C 95 % 5.96 C
1387 25-11-2018 19:30:00 6.7 C 95 % 5.96 C
1388 25-11-2018 19:35:00 6.7 C 95 % 5.96 C
1389 25-11-2018 19:40:00 6.7 C 95 % 5.96 C
1390 25-11-2018 19:45:00 6.7 C 95 % 5.96 C
1391 25-11-2018 19:50:00 6.7 C 95 % 5.96 C
1392 25-11-2018 19:55:00 6.7 C 95 % 5.96 C
1393 25-11-2018 20:00:00 6.6 C 95 % 5.86 C
1394 25-11-2018 20:05:00 6.6 C 95 % 5.86 C
1395 25-11-2018 20:10:00 6.6 C 95 % 5.86 C
1396 25-11-2018 20:15:00 6.6 C 95 % 5.86 C
1397 25-11-2018 20:20:00 6.5 C 95 % 5.76 C
1398 25-11-2018 20:25:00 6.5 C 95 % 5.76 C
1399 25-11-2018 20:30:00 6.5 C 95 % 5.76 C
1400 25-11-2018 20:35:00 6.5 C 95 % 5.76 C
Sensor: Nr:Datum:Temp:Feuchte:Taupunkt:
Aussen-T/F 1401 25-11-2018 20:40:00 6.5 C 95 % 5.76 C
1402 25-11-2018 20:45:00 6.5 C 95 % 5.76 C
1403 25-11-2018 20:50:00 6.5 C 95 % 5.76 C
1404 25-11-2018 20:55:00 6.5 C 95 % 5.76 C
1405 25-11-2018 21:00:00 6.4 C 95 % 5.66 C
1406 25-11-2018 21:05:00 6.4 C 95 % 5.66 C
1407 25-11-2018 21:10:00 6.4 C 95 % 5.66 C
1408 25-11-2018 21:15:00 6.4 C 95 % 5.66 C
1409 25-11-2018 21:20:00 6.4 C 95 % 5.66 C
1410 25-11-2018 21:25:00 6.4 C 95 % 5.66 C
1411 25-11-2018 21:30:00 6.4 C 95 % 5.66 C
1412 25-11-2018 21:35:00 6.4 C 95 % 5.66 C
1413 25-11-2018 21:40:00 6.4 C 95 % 5.66 C
1414 25-11-2018 21:45:00 6.4 C 96 % 5.81 C
1415 25-11-2018 21:50:00 6.5 C 96 % 5.91 C
1416 25-11-2018 21:55:00 6.4 C 96 % 5.81 C
1417 25-11-2018 22:00:00 6.4 C 96 % 5.81 C
1418 25-11-2018 22:05:00 6.4 C 96 % 5.81 C
1419 25-11-2018 22:10:00 6.4 C 96 % 5.81 C
1420 25-11-2018 22:15:00 6.3 C 96 % 5.71 C
1421 25-11-2018 22:20:00 6.3 C 95 % 5.56 C
1422 25-11-2018 22:25:00 6.3 C 95 % 5.56 C
1423 25-11-2018 22:30:00 6.3 C 95 % 5.56 C
1424 25-11-2018 22:35:00 6.2 C 96 % 5.61 C
1425 25-11-2018 22:40:00 6.2 C 96 % 5.61 C
Sensor: Nr:Datum:Temp:Feuchte:Taupunkt:
Aussen-T/F 1426 25-11-2018 22:45:00 6.2 C 96 % 5.61 C
1427 25-11-2018 22:50:00 6.2 C 96 % 5.61 C
1428 25-11-2018 22:55:00 6.2 C 96 % 5.61 C
1429 25-11-2018 23:00:00 6.2 C 96 % 5.61 C
1430 25-11-2018 23:05:00 6.2 C 96 % 5.61 C
1431 25-11-2018 23:10:00 6.2 C 96 % 5.61 C
1432 25-11-2018 23:15:00 6.2 C 96 % 5.61 C
1433 25-11-2018 23:20:00 6.2 C 96 % 5.61 C
1434 25-11-2018 23:25:00 6.3 C 96 % 5.71 C
1435 25-11-2018 23:30:00 6.3 C 96 % 5.71 C
1436 25-11-2018 23:35:00 6.3 C 96 % 5.71 C
1437 25-11-2018 23:40:00 6.4 C 96 % 5.81 C
1438 25-11-2018 23:45:00 6.4 C 96 % 5.81 C
1439 25-11-2018 23:50:00 6.4 C 96 % 5.81 C
1440 25-11-2018 23:55:00 6.4 C 96 % 5.81 C
1441 26-11-2018 00:00:00 6.4 C 96 % 5.81 C
1442 26-11-2018 00:05:00 6.4 C 96 % 5.81 C
1443 26-11-2018 00:10:00 6.4 C 96 % 5.81 C
1444 26-11-2018 00:15:00 6.3 C 96 % 5.71 C
1445 26-11-2018 00:20:00 6.3 C 96 % 5.71 C
1446 26-11-2018 00:25:00 6.3 C 96 % 5.71 C
1447 26-11-2018 00:30:00 6.3 C 96 % 5.71 C
1448 26-11-2018 00:35:00 6.3 C 96 % 5.71 C
1449 26-11-2018 00:40:00 6.3 C 96 % 5.71 C
1450 26-11-2018 00:45:00 6.4 C 96 % 5.81 C
Sensor: Nr:Datum:Temp:Feuchte:Taupunkt:
Aussen-T/F 1451 26-11-2018 00:50:00 6.4 C 96 % 5.81 C
1452 26-11-2018 00:55:00 6.4 C 96 % 5.81 C
1453 26-11-2018 01:00:00 6.4 C 96 % 5.81 C
1454 26-11-2018 01:05:00 6.4 C 96 % 5.81 C
1455 26-11-2018 01:10:00 6.4 C 96 % 5.81 C
1456 26-11-2018 01:15:00 6.4 C 96 % 5.81 C
1457 26-11-2018 01:20:00 6.5 C 96 % 5.91 C
1458 26-11-2018 01:25:00 6.5 C 96 % 5.91 C
1459 26-11-2018 01:30:00 6.5 C 96 % 5.91 C
1460 26-11-2018 01:35:00 6.4 C 96 % 5.81 C
1461 26-11-2018 01:40:00 6.4 C 96 % 5.81 C
1462 26-11-2018 01:45:00 6.4 C 96 % 5.81 C
1463 26-11-2018 01:50:00 6.4 C 96 % 5.81 C
1464 26-11-2018 01:55:00 6.4 C 96 % 5.81 C
1465 26-11-2018 02:00:00 6.4 C 96 % 5.81 C
1466 26-11-2018 02:05:00 6.4 C 96 % 5.81 C
1467 26-11-2018 02:10:00 6.4 C 96 % 5.81 C
1468 26-11-2018 02:15:00 6.4 C 96 % 5.81 C
1469 26-11-2018 02:20:00 6.4 C 96 % 5.81 C
1470 26-11-2018 02:25:00 6.4 C 96 % 5.81 C
1471 26-11-2018 02:30:00 6.4 C 96 % 5.81 C
1472 26-11-2018 02:35:00 6.4 C 96 % 5.81 C
1473 26-11-2018 02:40:00 6.4 C 96 % 5.81 C
1474 26-11-2018 02:45:00 6.4 C 95 % 5.66 C
1475 26-11-2018 02:50:00 6.4 C 95 % 5.66 C
Sensor: Nr:Datum:Temp:Feuchte:Taupunkt:
Aussen-T/F 1476 26-11-2018 02:55:00 6.4 C 95 % 5.66 C
1477 26-11-2018 03:00:00 6.4 C 96 % 5.81 C
1478 26-11-2018 03:05:00 6.4 C 95 % 5.66 C
1479 26-11-2018 03:10:00 6.4 C 95 % 5.66 C
1480 26-11-2018 03:15:00 6.4 C 95 % 5.66 C
1481 26-11-2018 03:20:00 6.4 C 95 % 5.66 C
1482 26-11-2018 03:25:00 6.4 C 95 % 5.66 C
1483 26-11-2018 03:30:00 6.4 C 95 % 5.66 C
1484 26-11-2018 03:35:00 6.4 C 95 % 5.66 C
1485 26-11-2018 03:40:00 6.4 C 94 % 5.51 C
1486 26-11-2018 03:45:00 6.4 C 94 % 5.51 C
1487 26-11-2018 03:50:00 6.4 C 94 % 5.51 C
1488 26-11-2018 03:55:00 6.4 C 94 % 5.51 C
1489 26-11-2018 04:00:00 6.4 C 94 % 5.51 C
1490 26-11-2018 04:05:00 6.4 C 94 % 5.51 C
1491 26-11-2018 04:10:00 6.4 C 94 % 5.51 C
1492 26-11-2018 04:15:00 6.4 C 94 % 5.51 C
1493 26-11-2018 04:20:00 6.4 C 94 % 5.51 C
1494 26-11-2018 04:25:00 6.4 C 94 % 5.51 C
1495 26-11-2018 04:30:00 6.4 C 93 % 5.35 C
1496 26-11-2018 04:35:00 6.4 C 93 % 5.35 C
1497 26-11-2018 04:40:00 6.4 C 93 % 5.35 C
1498 26-11-2018 04:45:00 6.5 C 93 % 5.45 C
1499 26-11-2018 04:50:00 6.4 C 93 % 5.35 C
1500 26-11-2018 04:55:00 6.4 C 93 % 5.35 C
Sensor: Nr:Datum:Temp:Feuchte:Taupunkt:
Aussen-T/F 1501 26-11-2018 05:00:00 6.5 C 93 % 5.45 C
1502 26-11-2018 05:05:00 6.4 C 93 % 5.35 C
1503 26-11-2018 05:10:00 6.4 C 93 % 5.35 C
1504 26-11-2018 05:15:00 6.4 C 93 % 5.35 C
1505 26-11-2018 05:20:00 6.4 C 93 % 5.35 C
1506 26-11-2018 05:25:00 6.4 C 93 % 5.35 C
1507 26-11-2018 05:30:00 6.4 C 93 % 5.35 C
1508 26-11-2018 05:35:00 6.4 C 93 % 5.35 C
1509 26-11-2018 05:40:00 6.4 C 93 % 5.35 C
1510 26-11-2018 05:45:00 6.3 C 92 % 5.1 C
1511 26-11-2018 05:50:00 6.3 C 93 % 5.25 C
1512 26-11-2018 05:55:00 6.3 C 93 % 5.25 C
1513 26-11-2018 06:00:00 6.3 C 93 % 5.25 C
1514 26-11-2018 06:05:00 6.3 C 92 % 5.1 C
1515 26-11-2018 06:10:00 6.3 C 92 % 5.1 C
1516 26-11-2018 06:15:00 6.3 C 92 % 5.1 C
1517 26-11-2018 06:20:00 6.3 C 92 % 5.1 C
1518 26-11-2018 06:25:00 6.3 C 92 % 5.1 C
1519 26-11-2018 06:30:00 6.3 C 92 % 5.1 C
1520 26-11-2018 06:35:00 6.2 C 92 % 5 C
1521 26-11-2018 06:40:00 6.2 C 92 % 5 C
1522 26-11-2018 06:45:00 6.2 C 92 % 5 C
1523 26-11-2018 06:50:00 6.1 C 92 % 4.9 C
1524 26-11-2018 06:55:00 6.1 C 92 % 4.9 C
1525 26-11-2018 07:00:00 6.1 C 92 % 4.9 C
Sensor: Nr:Datum:Temp:Feuchte:Taupunkt:
Aussen-T/F 1526 26-11-2018 07:05:00 6 C 92 % 4.8 C
1527 26-11-2018 07:10:00 6 C 92 % 4.8 C
1528 26-11-2018 07:15:00 6 C 92 % 4.8 C
1529 26-11-2018 07:20:00 5.9 C 92 % 4.7 C
1530 26-11-2018 07:25:00 5.9 C 92 % 4.7 C
1531 26-11-2018 07:30:00 5.9 C 92 % 4.7 C
1532 26-11-2018 07:35:00 5.9 C 93 % 4.86 C
1533 26-11-2018 07:40:00 5.8 C 92 % 4.6 C
1534 26-11-2018 07:45:00 5.8 C 93 % 4.76 C
1535 26-11-2018 07:50:00 5.8 C 93 % 4.76 C
1536 26-11-2018 07:55:00 5.8 C 93 % 4.76 C
1537 26-11-2018 08:00:00 5.8 C 93 % 4.76 C
1538 26-11-2018 08:05:00 5.8 C 93 % 4.76 C
1539 26-11-2018 08:10:00 5.9 C 93 % 4.86 C
1540 26-11-2018 08:15:00 5.9 C 93 % 4.86 C
1541 26-11-2018 08:20:00 5.9 C 93 % 4.86 C
1542 26-11-2018 08:25:00 5.9 C 93 % 4.86 C
1543 26-11-2018 08:30:00 5.9 C 93 % 4.86 C
1544 26-11-2018 08:35:00 5.8 C 93 % 4.76 C
1545 26-11-2018 08:40:00 5.8 C 93 % 4.76 C
1546 26-11-2018 08:45:00 5.9 C 93 % 4.86 C
1547 26-11-2018 08:50:00 5.9 C 94 % 5.01 C
1548 26-11-2018 08:55:00 5.9 C 94 % 5.01 C
1549 26-11-2018 09:00:00 5.9 C 94 % 5.01 C
1550 26-11-2018 09:05:00 6 C 94 % 5.11 C
Sensor: Nr:Datum:Temp:Feuchte:Taupunkt:
Aussen-T/F 1551 26-11-2018 09:10:00 6.1 C 93 % 5.06 C
1552 26-11-2018 09:15:00 6.1 C 93 % 5.06 C
1553 26-11-2018 09:20:00 6.2 C 93 % 5.15 C
1554 26-11-2018 09:25:00 6.2 C 93 % 5.15 C
1555 26-11-2018 09:30:00 6.3 C 92 % 5.1 C
1556 26-11-2018 09:35:00 6.4 C 92 % 5.2 C
1557 26-11-2018 09:40:00 6.4 C 92 % 5.2 C
1558 26-11-2018 09:45:00 6.5 C 92 % 5.3 C
1559 26-11-2018 09:50:00 6.6 C 92 % 5.4 C
1560 26-11-2018 09:55:00 6.6 C 92 % 5.4 C
1561 26-11-2018 10:00:00 6.7 C 92 % 5.49 C
1562 26-11-2018 10:05:00 6.7 C 91 % 5.34 C
1563 26-11-2018 10:10:00 6.7 C 91 % 5.34 C
1564 26-11-2018 10:15:00 6.7 C 91 % 5.34 C
1565 26-11-2018 10:20:00 6.7 C 91 % 5.34 C
1566 26-11-2018 10:25:00 6.8 C 91 % 5.44 C
1567 26-11-2018 10:30:00 6.8 C 90 % 5.28 C
1568 26-11-2018 10:35:00 6.9 C 89 % 5.22 C
1569 26-11-2018 10:40:00 7 C 89 % 5.31 C
1570 26-11-2018 10:45:00 7.1 C 89 % 5.41 C
1571 26-11-2018 10:50:00 7.2 C 88 % 5.35 C
1572 26-11-2018 10:55:00 7.3 C 88 % 5.45 C
1573 26-11-2018 11:00:00 7.3 C 87 % 5.28 C
1574 26-11-2018 11:05:00 7.4 C 86 % 5.22 C
1575 26-11-2018 11:10:00 7.4 C 86 % 5.22 C
Sensor: Nr:Datum:Temp:Feuchte:Taupunkt:
Aussen-T/F 1576 26-11-2018 11:15:00 7.5 C 85 % 5.15 C
1577 26-11-2018 11:20:00 7.6 C 85 % 5.24 C
1578 26-11-2018 11:25:00 7.6 C 85 % 5.24 C
1579 26-11-2018 11:30:00 7.6 C 84 % 5.07 C
1580 26-11-2018 11:35:00 7.6 C 85 % 5.24 C
1581 26-11-2018 11:40:00 7.7 C 84 % 5.17 C
1582 26-11-2018 11:45:00 7.7 C 84 % 5.17 C
1583 26-11-2018 11:50:00 7.7 C 83 % 5 C
1584 26-11-2018 11:55:00 7.7 C 83 % 5 C
1585 26-11-2018 12:00:00 7.8 C 82 % 4.92 C
1586 26-11-2018 12:05:00 7.8 C 83 % 5.1 C
1587 26-11-2018 12:10:00 7.9 C 82 % 5.02 C
1588 26-11-2018 12:15:00 7.9 C 82 % 5.02 C
1589 26-11-2018 12:20:00 7.9 C 81 % 4.85 C
1590 26-11-2018 12:25:00 7.9 C 81 % 4.85 C
1591 26-11-2018 12:30:00 8 C 80 % 4.77 C
1592 26-11-2018 12:35:00 8 C 80 % 4.77 C
1593 26-11-2018 12:40:00 8.1 C 80 % 4.86 C
1594 26-11-2018 12:45:00 8.1 C 80 % 4.86 C
1595 26-11-2018 12:50:00 8.1 C 80 % 4.86 C
1596 26-11-2018 12:55:00 8.1 C 79 % 4.68 C
1597 26-11-2018 13:00:00 8.1 C 79 % 4.68 C
1598 26-11-2018 13:05:00 8.1 C 79 % 4.68 C
1599 26-11-2018 13:10:00 8.1 C 79 % 4.68 C
1600 26-11-2018 13:15:00 8.1 C 79 % 4.68 C
Sensor: Nr:Datum:Temp:Feuchte:Taupunkt:
Aussen-T/F 1601 26-11-2018 13:20:00 8.1 C 79 % 4.68 C
1602 26-11-2018 13:25:00 8.1 C 79 % 4.68 C
1603 26-11-2018 13:30:00 8.1 C 79 % 4.68 C
1604 26-11-2018 13:35:00 8 C 79 % 4.59 C
1605 26-11-2018 13:40:00 8 C 79 % 4.59 C
1606 26-11-2018 13:45:00 7.9 C 80 % 4.67 C
1607 26-11-2018 13:50:00 7.9 C 79 % 4.49 C
1608 26-11-2018 13:55:00 7.9 C 80 % 4.67 C
1609 26-11-2018 14:00:00 7.9 C 79 % 4.49 C
1610 26-11-2018 14:05:00 7.9 C 82 % 5.02 C
1611 26-11-2018 14:10:00 7.9 C 81 % 4.85 C
1612 26-11-2018 14:15:00 7.9 C 81 % 4.85 C
1613 26-11-2018 14:20:00 7.9 C 82 % 5.02 C
1614 26-11-2018 14:25:00 7.9 C 81 % 4.85 C
1615 26-11-2018 14:30:00 7.9 C 82 % 5.02 C
1616 26-11-2018 14:35:00 7.9 C 83 % 5.2 C
1617 26-11-2018 14:40:00 7.8 C 82 % 4.92 C
1618 26-11-2018 14:45:00 7.8 C 81 % 4.75 C
1619 26-11-2018 14:50:00 7.8 C 80 % 4.57 C
1620 26-11-2018 14:55:00 7.8 C 79 % 4.39 C
1621 26-11-2018 15:00:00 7.8 C 79 % 4.39 C
1622 26-11-2018 15:05:00 7.9 C 78 % 4.31 C
1623 26-11-2018 15:10:00 7.9 C 79 % 4.49 C
1624 26-11-2018 15:15:00 7.9 C 79 % 4.49 C
1625 26-11-2018 15:20:00 7.9 C 78 % 4.31 C
Sensor: Nr:Datum:Temp:Feuchte:Taupunkt:
Aussen-T/F 1626 26-11-2018 15:25:00 7.9 C 78 % 4.31 C
1627 26-11-2018 15:30:00 7.9 C 78 % 4.31 C
1628 26-11-2018 15:35:00 7.9 C 78 % 4.31 C
1629 26-11-2018 15:40:00 7.9 C 78 % 4.31 C
1630 26-11-2018 15:45:00 7.8 C 78 % 4.21 C
1631 26-11-2018 15:50:00 7.8 C 78 % 4.21 C
1632 26-11-2018 15:55:00 7.8 C 79 % 4.39 C
1633 26-11-2018 16:00:00 7.7 C 79 % 4.3 C
1634 26-11-2018 16:05:00 7.7 C 79 % 4.3 C
1635 26-11-2018 16:10:00 7.7 C 80 % 4.47 C
1636 26-11-2018 16:15:00 7.6 C 81 % 4.55 C
1637 26-11-2018 16:20:00 7.5 C 80 % 4.28 C
1638 26-11-2018 16:25:00 7.4 C 81 % 4.36 C
1639 26-11-2018 16:30:00 7.3 C 82 % 4.44 C
1640 26-11-2018 16:35:00 7.3 C 82 % 4.44 C
1641 26-11-2018 16:40:00 7.3 C 82 % 4.44 C
1642 26-11-2018 16:45:00 7.2 C 82 % 4.34 C
1643 26-11-2018 16:50:00 7.1 C 81 % 4.07 C
1644 26-11-2018 16:55:00 7.1 C 82 % 4.24 C
1645 26-11-2018 17:00:00 7.1 C 81 % 4.07 C
1646 26-11-2018 17:05:00 7.1 C 81 % 4.07 C
1647 26-11-2018 17:10:00 7.1 C 82 % 4.24 C
1648 26-11-2018 17:15:00 7 C 82 % 4.14 C
1649 26-11-2018 17:20:00 6.9 C 83 % 4.22 C
1650 26-11-2018 17:25:00 6.9 C 82 % 4.05 C
Sensor: Nr:Datum:Temp:Feuchte:Taupunkt:
Aussen-T/F 1651 26-11-2018 17:30:00 6.9 C 82 % 4.05 C
1652 26-11-2018 17:35:00 6.8 C 82 % 3.95 C
1653 26-11-2018 17:40:00 6.8 C 83 % 4.12 C
1654 26-11-2018 17:45:00 6.8 C 84 % 4.29 C
1655 26-11-2018 17:50:00 6.7 C 84 % 4.19 C
1656 26-11-2018 17:55:00 6.7 C 85 % 4.36 C
1657 26-11-2018 18:00:00 6.6 C 85 % 4.26 C
1658 26-11-2018 18:05:00 6.5 C 85 % 4.17 C
1659 26-11-2018 18:10:00 6.4 C 86 % 4.23 C
1660 26-11-2018 18:15:00 6.3 C 86 % 4.14 C
1661 26-11-2018 18:20:00 6.3 C 86 % 4.14 C
1662 26-11-2018 18:25:00 6.3 C 86 % 4.14 C
1663 26-11-2018 18:30:00 6.2 C 86 % 4.04 C
1664 26-11-2018 18:35:00 6.2 C 87 % 4.2 C
1665 26-11-2018 18:40:00 6.2 C 87 % 4.2 C
1666 26-11-2018 18:45:00 6.2 C 88 % 4.36 C
1667 26-11-2018 18:50:00 6.2 C 87 % 4.2 C
1668 26-11-2018 18:55:00 6.2 C 87 % 4.2 C
1669 26-11-2018 19:00:00 6.1 C 87 % 4.1 C
1670 26-11-2018 19:05:00 6.1 C 87 % 4.1 C
1671 26-11-2018 19:10:00 6.2 C 87 % 4.2 C
1672 26-11-2018 19:15:00 6.2 C 87 % 4.2 C
1673 26-11-2018 19:20:00 6.2 C 87 % 4.2 C
1674 26-11-2018 19:25:00 6.2 C 87 % 4.2 C
1675 26-11-2018 19:30:00 6.2 C 86 % 4.04 C
Sensor: Nr:Datum:Temp:Feuchte:Taupunkt:
Aussen-T/F 1676 26-11-2018 19:35:00 6.2 C 86 % 4.04 C
1677 26-11-2018 19:40:00 6.3 C 86 % 4.14 C
1678 26-11-2018 19:45:00 6.3 C 86 % 4.14 C
1679 26-11-2018 19:50:00 6.3 C 86 % 4.14 C
1680 26-11-2018 19:55:00 6.3 C 86 % 4.14 C
1681 26-11-2018 20:00:00 6.2 C 86 % 4.04 C
1682 26-11-2018 20:05:00 6.2 C 86 % 4.04 C
1683 26-11-2018 20:10:00 6.2 C 86 % 4.04 C
1684 26-11-2018 20:15:00 6.2 C 86 % 4.04 C
1685 26-11-2018 20:20:00 6.1 C 86 % 3.94 C
1686 26-11-2018 20:25:00 6.1 C 86 % 3.94 C
1687 26-11-2018 20:30:00 6.1 C 87 % 4.1 C
1688 26-11-2018 20:35:00 6.1 C 87 % 4.1 C
1689 26-11-2018 20:40:00 6.1 C 87 % 4.1 C
1690 26-11-2018 20:45:00 6.1 C 87 % 4.1 C
1691 26-11-2018 20:50:00 6.1 C 87 % 4.1 C
1692 26-11-2018 20:55:00 6.1 C 87 % 4.1 C
1693 26-11-2018 21:00:00 6.1 C 87 % 4.1 C
1694 26-11-2018 21:05:00 6.1 C 87 % 4.1 C
1695 26-11-2018 21:10:00 6.1 C 87 % 4.1 C
1696 26-11-2018 21:15:00 6 C 86 % 3.84 C
1697 26-11-2018 21:20:00 6 C 86 % 3.84 C
1698 26-11-2018 21:25:00 6 C 86 % 3.84 C
1699 26-11-2018 21:30:00 6 C 85 % 3.67 C
1700 26-11-2018 21:35:00 6 C 86 % 3.84 C
Sensor: Nr:Datum:Temp:Feuchte:Taupunkt:
Aussen-T/F 1701 26-11-2018 21:40:00 6.1 C 86 % 3.94 C
1702 26-11-2018 21:45:00 6 C 86 % 3.84 C
1703 26-11-2018 21:50:00 6 C 86 % 3.84 C
1704 26-11-2018 21:55:00 6 C 86 % 3.84 C
1705 26-11-2018 22:00:00 5.9 C 85 % 3.58 C
1706 26-11-2018 22:05:00 6 C 85 % 3.67 C
1707 26-11-2018 22:10:00 6 C 84 % 3.51 C
1708 26-11-2018 22:15:00 6.1 C 84 % 3.61 C
1709 26-11-2018 22:20:00 6.1 C 83 % 3.44 C
1710 26-11-2018 22:25:00 6.2 C 83 % 3.53 C
1711 26-11-2018 22:30:00 6.2 C 83 % 3.53 C
1712 26-11-2018 22:35:00 6.1 C 83 % 3.44 C
1713 26-11-2018 22:40:00 6.2 C 83 % 3.53 C
1714 26-11-2018 22:45:00 6.1 C 83 % 3.44 C
1715 26-11-2018 22:50:00 6.1 C 84 % 3.61 C
1716 26-11-2018 22:55:00 6.1 C 83 % 3.44 C
1717 26-11-2018 23:00:00 6 C 84 % 3.51 C
1718 26-11-2018 23:05:00 6 C 84 % 3.51 C
1719 26-11-2018 23:10:00 5.9 C 84 % 3.41 C
1720 26-11-2018 23:15:00 5.9 C 84 % 3.41 C
1721 26-11-2018 23:20:00 5.8 C 84 % 3.31 C
1722 26-11-2018 23:25:00 5.8 C 84 % 3.31 C
1723 26-11-2018 23:30:00 5.8 C 84 % 3.31 C
1724 26-11-2018 23:35:00 5.8 C 83 % 3.14 C
1725 26-11-2018 23:40:00 5.8 C 83 % 3.14 C
Sensor: Nr:Datum:Temp:Feuchte:Taupunkt:
Aussen-T/F 1726 26-11-2018 23:45:00 5.7 C 83 % 3.04 C
1727 26-11-2018 23:50:00 5.7 C 83 % 3.04 C
1728 26-11-2018 23:55:00 5.7 C 83 % 3.04 C
1729 27-11-2018 00:00:00 5.7 C 84 % 3.21 C
1730 27-11-2018 00:05:00 5.6 C 82 % 2.78 C
1731 27-11-2018 00:10:00 5.6 C 83 % 2.95 C
1732 27-11-2018 00:15:00 5.6 C 83 % 2.95 C
1733 27-11-2018 00:20:00 5.6 C 83 % 2.95 C
1734 27-11-2018 00:25:00 5.6 C 82 % 2.78 C
1735 27-11-2018 00:30:00 5.6 C 82 % 2.78 C
1736 27-11-2018 00:35:00 5.5 C 83 % 2.85 C
1737 27-11-2018 00:40:00 5.5 C 83 % 2.85 C
1738 27-11-2018 00:45:00 5.5 C 84 % 3.02 C
1739 27-11-2018 00:50:00 5.5 C 83 % 2.85 C
1740 27-11-2018 00:55:00 5.4 C 83 % 2.75 C
1741 27-11-2018 01:00:00 5.4 C 84 % 2.92 C
1742 27-11-2018 01:05:00 5.4 C 84 % 2.92 C
1743 27-11-2018 01:10:00 5.4 C 84 % 2.92 C
1744 27-11-2018 01:15:00 5.4 C 84 % 2.92 C
1745 27-11-2018 01:20:00 5.4 C 84 % 2.92 C
1746 27-11-2018 01:25:00 5.3 C 84 % 2.82 C
1747 27-11-2018 01:30:00 5.3 C 84 % 2.82 C
1748 27-11-2018 01:35:00 5.3 C 84 % 2.82 C
1749 27-11-2018 01:40:00 5.3 C 84 % 2.82 C
1750 27-11-2018 01:45:00 5.2 C 84 % 2.72 C
Sensor: Nr:Datum:Temp:Feuchte:Taupunkt:
Aussen-T/F 1751 27-11-2018 01:50:00 5.2 C 85 % 2.89 C
1752 27-11-2018 01:55:00 5.2 C 85 % 2.89 C
1753 27-11-2018 02:00:00 5.2 C 85 % 2.89 C
1754 27-11-2018 02:05:00 5.1 C 85 % 2.79 C
1755 27-11-2018 02:10:00 5.1 C 85 % 2.79 C
1756 27-11-2018 02:15:00 5 C 85 % 2.69 C
1757 27-11-2018 02:20:00 4.9 C 85 % 2.6 C
1758 27-11-2018 02:25:00 4.9 C 85 % 2.6 C
1759 27-11-2018 02:30:00 4.9 C 85 % 2.6 C
1760 27-11-2018 02:35:00 4.8 C 85 % 2.5 C
1761 27-11-2018 02:40:00 4.8 C 85 % 2.5 C
1762 27-11-2018 02:45:00 4.7 C 86 % 2.56 C
1763 27-11-2018 02:50:00 4.7 C 86 % 2.56 C
1764 27-11-2018 02:55:00 4.7 C 86 % 2.56 C
1765 27-11-2018 03:00:00 4.6 C 86 % 2.47 C
1766 27-11-2018 03:05:00 4.6 C 87 % 2.63 C
1767 27-11-2018 03:10:00 4.6 C 87 % 2.63 C
1768 27-11-2018 03:15:00 4.6 C 87 % 2.63 C
1769 27-11-2018 03:20:00 4.5 C 87 % 2.53 C
1770 27-11-2018 03:25:00 4.5 C 87 % 2.53 C
1771 27-11-2018 03:30:00 4.5 C 87 % 2.53 C
1772 27-11-2018 03:35:00 4.4 C 87 % 2.43 C
1773 27-11-2018 03:40:00 4.4 C 87 % 2.43 C
1774 27-11-2018 03:45:00 4.4 C 87 % 2.43 C
1775 27-11-2018 03:50:00 4.4 C 87 % 2.43 C
Sensor: Nr:Datum:Temp:Feuchte:Taupunkt:
Aussen-T/F 1776 27-11-2018 03:55:00 4.4 C 87 % 2.43 C
1777 27-11-2018 04:00:00 4.4 C 87 % 2.43 C
1778 27-11-2018 04:05:00 4.4 C 87 % 2.43 C
1779 27-11-2018 04:10:00 4.4 C 87 % 2.43 C
1780 27-11-2018 04:15:00 4.4 C 87 % 2.43 C
1781 27-11-2018 04:20:00 4.4 C 87 % 2.43 C
1782 27-11-2018 04:25:00 4.3 C 87 % 2.33 C
1783 27-11-2018 04:30:00 4.3 C 87 % 2.33 C
1784 27-11-2018 04:35:00 4.3 C 87 % 2.33 C
1785 27-11-2018 04:40:00 4.3 C 87 % 2.33 C
1786 27-11-2018 04:45:00 4.3 C 87 % 2.33 C
1787 27-11-2018 04:50:00 4.3 C 87 % 2.33 C
1788 27-11-2018 04:55:00 4.3 C 87 % 2.33 C
1789 27-11-2018 05:00:00 4.2 C 87 % 2.23 C
1790 27-11-2018 05:05:00 4.2 C 87 % 2.23 C
1791 27-11-2018 05:10:00 4.2 C 87 % 2.23 C
1792 27-11-2018 05:15:00 4.2 C 87 % 2.23 C
1793 27-11-2018 05:20:00 4.2 C 87 % 2.23 C
1794 27-11-2018 05:25:00 4.1 C 87 % 2.14 C
1795 27-11-2018 05:30:00 4.1 C 87 % 2.14 C
1796 27-11-2018 05:35:00 3.9 C 87 % 1.94 C
1797 27-11-2018 05:40:00 3.8 C 87 % 1.84 C
1798 27-11-2018 05:45:00 3.8 C 87 % 1.84 C
1799 27-11-2018 05:50:00 3.7 C 87 % 1.74 C
1800 27-11-2018 05:55:00 3.6 C 87 % 1.64 C
Sensor: Nr:Datum:Temp:Feuchte:Taupunkt:
Aussen-T/F 1801 27-11-2018 06:00:00 3.5 C 87 % 1.55 C
1802 27-11-2018 06:05:00 3.4 C 87 % 1.45 C
1803 27-11-2018 06:10:00 3.4 C 88 % 1.61 C
1804 27-11-2018 06:15:00 3.4 C 88 % 1.61 C
1805 27-11-2018 06:20:00 3.4 C 88 % 1.61 C
1806 27-11-2018 06:25:00 3.3 C 88 % 1.51 C
1807 27-11-2018 06:30:00 3.3 C 88 % 1.51 C
1808 27-11-2018 06:35:00 3.3 C 88 % 1.51 C
1809 27-11-2018 06:40:00 3.3 C 88 % 1.51 C
1810 27-11-2018 06:45:00 3.3 C 88 % 1.51 C
1811 27-11-2018 06:50:00 3.2 C 88 % 1.41 C
1812 27-11-2018 06:55:00 3.2 C 89 % 1.57 C
1813 27-11-2018 07:00:00 3.2 C 89 % 1.57 C
1814 27-11-2018 07:05:00 3.2 C 89 % 1.57 C
1815 27-11-2018 07:10:00 3.2 C 89 % 1.57 C
1816 27-11-2018 07:15:00 3.2 C 89 % 1.57 C
1817 27-11-2018 07:20:00 3.2 C 89 % 1.57 C
1818 27-11-2018 07:25:00 3.3 C 89 % 1.67 C
1819 27-11-2018 07:30:00 3.3 C 90 % 1.82 C
1820 27-11-2018 07:35:00 3.3 C 90 % 1.82 C
1821 27-11-2018 07:40:00 3.3 C 90 % 1.82 C
1822 27-11-2018 07:45:00 3.3 C 90 % 1.82 C
1823 27-11-2018 07:50:00 3.3 C 90 % 1.82 C
1824 27-11-2018 07:55:00 3.4 C 90 % 1.92 C
1825 27-11-2018 08:00:00 3.4 C 90 % 1.92 C
Sensor: Nr:Datum:Temp:Feuchte:Taupunkt:
Aussen-T/F 1826 27-11-2018 08:05:00 3.4 C 90 % 1.92 C
1827 27-11-2018 08:10:00 3.4 C 90 % 1.92 C
1828 27-11-2018 08:15:00 3.4 C 90 % 1.92 C
1829 27-11-2018 08:20:00 3.4 C 90 % 1.92 C
1830 27-11-2018 08:25:00 3.4 C 90 % 1.92 C
1831 27-11-2018 08:30:00 3.5 C 90 % 2.02 C
1832 27-11-2018 08:35:00 3.5 C 90 % 2.02 C
1833 27-11-2018 08:40:00 3.5 C 90 % 2.02 C
1834 27-11-2018 08:45:00 3.5 C 90 % 2.02 C
1835 27-11-2018 08:50:00 3.6 C 90 % 2.12 C
1836 27-11-2018 08:55:00 3.6 C 90 % 2.12 C
1837 27-11-2018 09:00:00 3.6 C 90 % 2.12 C
1838 27-11-2018 09:05:00 3.6 C 90 % 2.12 C
1839 27-11-2018 09:10:00 3.6 C 90 % 2.12 C
1840 27-11-2018 09:15:00 3.7 C 90 % 2.22 C
1841 27-11-2018 09:20:00 3.7 C 90 % 2.22 C
1842 27-11-2018 09:25:00 3.7 C 90 % 2.22 C
1843 27-11-2018 09:30:00 3.7 C 90 % 2.22 C
1844 27-11-2018 09:35:00 3.8 C 90 % 2.31 C
1845 27-11-2018 09:40:00 3.8 C 90 % 2.31 C
1846 27-11-2018 09:45:00 3.8 C 90 % 2.31 C
1847 27-11-2018 09:50:00 3.9 C 90 % 2.41 C
1848 27-11-2018 09:55:00 3.9 C 90 % 2.41 C
1849 27-11-2018 10:00:00 4 C 89 % 2.36 C
1850 27-11-2018 10:05:00 4.1 C 89 % 2.45 C
Sensor: Nr:Datum:Temp:Feuchte:Taupunkt:
Aussen-T/F 1851 27-11-2018 10:10:00 4.2 C 89 % 2.55 C
1852 27-11-2018 10:15:00 4.3 C 89 % 2.65 C
1853 27-11-2018 10:20:00 4.4 C 89 % 2.75 C
1854 27-11-2018 10:25:00 4.6 C 88 % 2.79 C
1855 27-11-2018 10:30:00 4.7 C 88 % 2.89 C
1856 27-11-2018 10:35:00 4.7 C 87 % 2.73 C
1857 27-11-2018 10:40:00 4.8 C 87 % 2.82 C
1858 27-11-2018 10:45:00 4.8 C 86 % 2.66 C
1859 27-11-2018 10:50:00 4.9 C 86 % 2.76 C
1860 27-11-2018 10:55:00 5.1 C 85 % 2.79 C
1861 27-11-2018 11:00:00 5.2 C 84 % 2.72 C
1862 27-11-2018 11:05:00 5.2 C 84 % 2.72 C
1863 27-11-2018 11:10:00 5.3 C 83 % 2.65 C
1864 27-11-2018 11:15:00 5.3 C 82 % 2.48 C
1865 27-11-2018 11:20:00 5.4 C 81 % 2.41 C
1866 27-11-2018 11:25:00 5.5 C 81 % 2.51 C
1867 27-11-2018 11:30:00 5.6 C 82 % 2.78 C
1868 27-11-2018 11:35:00 5.6 C 82 % 2.78 C
1869 27-11-2018 11:40:00 5.7 C 81 % 2.7 C
1870 27-11-2018 11:45:00 5.7 C 81 % 2.7 C
1871 27-11-2018 11:50:00 5.7 C 80 % 2.53 C
1872 27-11-2018 11:55:00 5.7 C 79 % 2.35 C
1873 27-11-2018 12:00:00 5.7 C 80 % 2.53 C
1874 27-11-2018 12:05:00 5.7 C 79 % 2.35 C
1875 27-11-2018 12:10:00 5.7 C 79 % 2.35 C
Sensor: Nr:Datum:Temp:Feuchte:Taupunkt:
Aussen-T/F 1876 27-11-2018 12:15:00 5.7 C 79 % 2.35 C
1877 27-11-2018 12:20:00 5.7 C 79 % 2.35 C
1878 27-11-2018 12:25:00 5.7 C 78 % 2.17 C
1879 27-11-2018 12:30:00 5.8 C 79 % 2.45 C
1880 27-11-2018 12:35:00 5.8 C 78 % 2.27 C
1881 27-11-2018 12:40:00 5.8 C 77 % 2.09 C
1882 27-11-2018 12:45:00 5.8 C 77 % 2.09 C
1883 27-11-2018 12:50:00 5.8 C 76 % 1.91 C
1884 27-11-2018 12:55:00 5.8 C 76 % 1.91 C
1885 27-11-2018 13:00:00 5.8 C 75 % 1.72 C
1886 27-11-2018 13:05:00 5.8 C 76 % 1.91 C
1887 27-11-2018 13:10:00 5.8 C 76 % 1.91 C
1888 27-11-2018 13:15:00 5.8 C 75 % 1.72 C
1889 27-11-2018 13:20:00 5.8 C 75 % 1.72 C
1890 27-11-2018 13:25:00 5.8 C 75 % 1.72 C
1891 27-11-2018 13:30:00 5.8 C 75 % 1.72 C
1892 27-11-2018 13:35:00 5.8 C 76 % 1.91 C
1893 27-11-2018 13:40:00 5.8 C 75 % 1.72 C
1894 27-11-2018 13:45:00 5.7 C 76 % 1.81 C
1895 27-11-2018 13:50:00 5.6 C 77 % 1.89 C
1896 27-11-2018 13:55:00 5.5 C 78 % 1.98 C
1897 27-11-2018 14:00:00 5.4 C 77 % 1.7 C
1898 27-11-2018 14:05:00 5.4 C 78 % 1.88 C
1899 27-11-2018 14:10:00 5.3 C 78 % 1.78 C
1900 27-11-2018 14:15:00 5.3 C 78 % 1.78 C
Sensor: Nr:Datum:Temp:Feuchte:Taupunkt:
Aussen-T/F 1901 27-11-2018 14:20:00 5.3 C 78 % 1.78 C
1902 27-11-2018 14:25:00 5.3 C 78 % 1.78 C
1903 27-11-2018 14:30:00 5.3 C 78 % 1.78 C
1904 27-11-2018 14:35:00 5.2 C 78 % 1.69 C
1905 27-11-2018 14:40:00 5.2 C 78 % 1.69 C
1906 27-11-2018 14:45:00 5.2 C 78 % 1.69 C
1907 27-11-2018 14:50:00 5.2 C 78 % 1.69 C
1908 27-11-2018 14:55:00 5.2 C 78 % 1.69 C
1909 27-11-2018 15:00:00 5.2 C 78 % 1.69 C
1910 27-11-2018 15:05:00 5.2 C 78 % 1.69 C
1911 27-11-2018 15:10:00 5.2 C 78 % 1.69 C
1912 27-11-2018 15:15:00 5.2 C 78 % 1.69 C
1913 27-11-2018 15:20:00 5.1 C 78 % 1.59 C
1914 27-11-2018 15:25:00 5.1 C 78 % 1.59 C
1915 27-11-2018 15:30:00 5.1 C 79 % 1.77 C
1916 27-11-2018 15:35:00 5.1 C 78 % 1.59 C
1917 27-11-2018 15:40:00 5.1 C 77 % 1.41 C
1918 27-11-2018 15:45:00 5.1 C 78 % 1.59 C
1919 27-11-2018 15:50:00 5.2 C 78 % 1.69 C
1920 27-11-2018 15:55:00 5.2 C 78 % 1.69 C
1921 27-11-2018 16:00:00 5.1 C 77 % 1.41 C
1922 27-11-2018 16:05:00 5.1 C 78 % 1.59 C
1923 27-11-2018 16:10:00 5.1 C 78 % 1.59 C
1924 27-11-2018 16:15:00 5.1 C 77 % 1.41 C
1925 27-11-2018 16:20:00 5 C 78 % 1.49 C
Sensor: Nr:Datum:Temp:Feuchte:Taupunkt:
Aussen-T/F 1926 27-11-2018 16:25:00 5 C 78 % 1.49 C
1927 27-11-2018 16:30:00 4.9 C 78 % 1.39 C
1928 27-11-2018 16:35:00 4.9 C 78 % 1.39 C
1929 27-11-2018 16:40:00 4.9 C 78 % 1.39 C
1930 27-11-2018 16:45:00 4.8 C 78 % 1.3 C
1931 27-11-2018 16:50:00 4.8 C 78 % 1.3 C
1932 27-11-2018 16:55:00 4.8 C 78 % 1.3 C
1933 27-11-2018 17:00:00 4.8 C 78 % 1.3 C
1934 27-11-2018 17:05:00 4.7 C 78 % 1.2 C
1935 27-11-2018 17:10:00 4.7 C 78 % 1.2 C
1936 27-11-2018 17:15:00 4.6 C 78 % 1.1 C
1937 27-11-2018 17:20:00 4.6 C 78 % 1.1 C
1938 27-11-2018 17:25:00 4.5 C 78 % 1.01 C
1939 27-11-2018 17:30:00 4.4 C 78 % 0.91 C
1940 27-11-2018 17:35:00 4.4 C 78 % 0.91 C
1941 27-11-2018 17:40:00 4.3 C 78 % 0.81 C
1942 27-11-2018 17:45:00 4.1 C 78 % 0.62 C
1943 27-11-2018 17:50:00 3.8 C 79 % 0.5 C
1944 27-11-2018 17:55:00 3.7 C 79 % 0.4 C
1945 27-11-2018 18:00:00 3.4 C 80 % 0.29 C
1946 27-11-2018 18:05:00 3.3 C 80 % 0.19 C
1947 27-11-2018 18:10:00 3.2 C 81 % 0.26 C
1948 27-11-2018 18:15:00 3.2 C 82 % 0.43 C
1949 27-11-2018 18:20:00 3.2 C 82 % 0.43 C
1950 27-11-2018 18:25:00 3.2 C 82 % 0.43 C
Sensor: Nr:Datum:Temp:Feuchte:Taupunkt:
Aussen-T/F 1951 27-11-2018 18:30:00 3.2 C 82 % 0.43 C
1952 27-11-2018 18:35:00 3.3 C 81 % 0.36 C
1953 27-11-2018 18:40:00 3.4 C 81 % 0.46 C
1954 27-11-2018 18:45:00 3.5 C 81 % 0.55 C
1955 27-11-2018 18:50:00 3.6 C 80 % 0.48 C
1956 27-11-2018 18:55:00 3.7 C 80 % 0.58 C
1957 27-11-2018 19:00:00 3.7 C 79 % 0.4 C
1958 27-11-2018 19:05:00 3.8 C 79 % 0.5 C
1959 27-11-2018 19:10:00 3.8 C 79 % 0.5 C
1960 27-11-2018 19:15:00 3.8 C 79 % 0.5 C
1961 27-11-2018 19:20:00 3.8 C 79 % 0.5 C
1962 27-11-2018 19:25:00 3.8 C 79 % 0.5 C
1963 27-11-2018 19:30:00 3.8 C 79 % 0.5 C
1964 27-11-2018 19:35:00 3.7 C 78 % 0.23 C
1965 27-11-2018 19:40:00 3.7 C 78 % 0.23 C
1966 27-11-2018 19:45:00 3.7 C 78 % 0.23 C
1967 27-11-2018 19:50:00 3.6 C 78 % 0.13 C
1968 27-11-2018 19:55:00 3.4 C 79 % 0.11 C
1969 27-11-2018 20:00:00 3.3 C 79 % 0.02 C
1970 27-11-2018 20:05:00 3.2 C 80 % 0.09 C
1971 27-11-2018 20:10:00 3.1 C 80 % -0.01 C
1972 27-11-2018 20:15:00 3 C 80 % -0.1 C
1973 27-11-2018 20:20:00 2.9 C 80 % -0.2 C
1974 27-11-2018 20:25:00 2.7 C 81 % -0.23 C
1975 27-11-2018 20:30:00 2.6 C 81 % -0.32 C
Sensor: Nr:Datum:Temp:Feuchte:Taupunkt:
Aussen-T/F 1976 27-11-2018 20:35:00 2.5 C 82 % -0.25 C
1977 27-11-2018 20:40:00 2.4 C 82 % -0.35 C
1978 27-11-2018 20:45:00 2.3 C 83 % -0.28 C
1979 27-11-2018 20:50:00 2.1 C 83 % -0.48 C
1980 27-11-2018 20:55:00 1.9 C 83 % -0.67 C
1981 27-11-2018 21:00:00 1.7 C 84 % -0.71 C
1982 27-11-2018 21:05:00 1.6 C 84 % -0.8 C
1983 27-11-2018 21:10:00 1.4 C 85 % -0.84 C
1984 27-11-2018 21:15:00 1.3 C 86 % -0.78 C
1985 27-11-2018 21:20:00 1.2 C 87 % -0.72 C
1986 27-11-2018 21:25:00 1.2 C 87 % -0.72 C
1987 27-11-2018 21:30:00 1.2 C 88 % -0.56 C
1988 27-11-2018 21:35:00 1.1 C 88 % -0.66 C
1989 27-11-2018 21:40:00 1.1 C 89 % -0.51 C
1990 27-11-2018 21:45:00 1.2 C 89 % -0.41 C
1991 27-11-2018 21:50:00 1.2 C 89 % -0.41 C
1992 27-11-2018 21:55:00 1.3 C 90 % -0.15 C
1993 27-11-2018 22:00:00 1.4 C 90 % -0.06 C
1994 27-11-2018 22:05:00 1.5 C 90 % 0.04 C
1995 27-11-2018 22:10:00 1.6 C 90 % 0.14 C
1996 27-11-2018 22:15:00 1.7 C 90 % 0.24 C
1997 27-11-2018 22:20:00 1.7 C 90 % 0.24 C
1998 27-11-2018 22:25:00 1.9 C 90 % 0.44 C
1999 27-11-2018 22:30:00 1.9 C 89 % 0.28 C
2000 27-11-2018 22:35:00 2 C 89 % 0.38 C
Sensor: Nr:Datum:Temp:Feuchte:Taupunkt:
Aussen-T/F 2001 27-11-2018 22:40:00 2.1 C 89 % 0.48 C
2002 27-11-2018 22:45:00 2.1 C 89 % 0.48 C
2003 27-11-2018 22:50:00 2.1 C 89 % 0.48 C
2004 27-11-2018 22:55:00 2.2 C 89 % 0.58 C
2005 27-11-2018 23:00:00 2.2 C 89 % 0.58 C
2006 27-11-2018 23:05:00 2.2 C 89 % 0.58 C
2007 27-11-2018 23:10:00 2.3 C 89 % 0.68 C
2008 27-11-2018 23:15:00 2.3 C 89 % 0.68 C
2009 27-11-2018 23:20:00 2.4 C 89 % 0.78 C
2010 27-11-2018 23:25:00 2.4 C 88 % 0.62 C
2011 27-11-2018 23:30:00 2.4 C 89 % 0.78 C
2012 27-11-2018 23:35:00 2.4 C 88 % 0.62 C
2013 27-11-2018 23:40:00 2.5 C 89 % 0.88 C
2014 27-11-2018 23:45:00 2.5 C 89 % 0.88 C
2015 27-11-2018 23:50:00 2.6 C 89 % 0.97 C
2016 27-11-2018 23:55:00 2.6 C 89 % 0.97 C
2017 28-11-2018 00:00:00 2.6 C 89 % 0.97 C
2018 28-11-2018 00:05:00 2.6 C 89 % 0.97 C
2019 28-11-2018 00:10:00 2.6 C 89 % 0.97 C
2020 28-11-2018 00:15:00 2.6 C 89 % 0.97 C
2021 28-11-2018 00:20:00 2.6 C 89 % 0.97 C
2022 28-11-2018 00:25:00 2.6 C 89 % 0.97 C
2023 28-11-2018 00:30:00 2.7 C 89 % 1.07 C
2024 28-11-2018 00:35:00 2.6 C 89 % 0.97 C
2025 28-11-2018 00:40:00 2.6 C 89 % 0.97 C
Sensor: Nr:Datum:Temp:Feuchte:Taupunkt:
Aussen-T/F 2026 28-11-2018 00:45:00 2.6 C 89 % 0.97 C
2027 28-11-2018 00:50:00 2.6 C 89 % 0.97 C
2028 28-11-2018 00:55:00 2.5 C 89 % 0.88 C
2029 28-11-2018 01:00:00 2.4 C 89 % 0.78 C
2030 28-11-2018 01:05:00 2.4 C 89 % 0.78 C
2031 28-11-2018 01:10:00 2.4 C 89 % 0.78 C
2032 28-11-2018 01:15:00 2.5 C 90 % 1.03 C
2033 28-11-2018 01:20:00 2.5 C 90 % 1.03 C
2034 28-11-2018 01:25:00 2.6 C 90 % 1.13 C
2035 28-11-2018 01:30:00 2.6 C 90 % 1.13 C
2036 28-11-2018 01:35:00 2.7 C 90 % 1.23 C
2037 28-11-2018 01:40:00 2.7 C 90 % 1.23 C
2038 28-11-2018 01:45:00 2.7 C 89 % 1.07 C
2039 28-11-2018 01:50:00 2.7 C 89 % 1.07 C
2040 28-11-2018 01:55:00 2.6 C 89 % 0.97 C
2041 28-11-2018 02:00:00 2.5 C 89 % 0.88 C
2042 28-11-2018 02:05:00 2.4 C 89 % 0.78 C
2043 28-11-2018 02:10:00 2.3 C 89 % 0.68 C
2044 28-11-2018 02:15:00 2.2 C 89 % 0.58 C
2045 28-11-2018 02:20:00 2 C 89 % 0.38 C
2046 28-11-2018 02:25:00 1.8 C 89 % 0.19 C
2047 28-11-2018 02:30:00 1.8 C 90 % 0.34 C
2048 28-11-2018 02:35:00 1.6 C 89 % -0.01 C
2049 28-11-2018 02:40:00 1.5 C 90 % 0.04 C
2050 28-11-2018 02:45:00 1.3 C 90 % -0.15 C
Sensor: Nr:Datum:Temp:Feuchte:Taupunkt:
Aussen-T/F 2051 28-11-2018 02:50:00 1.3 C 90 % -0.15 C
2052 28-11-2018 02:55:00 1.2 C 91 % -0.1 C
2053 28-11-2018 03:00:00 1.2 C 91 % -0.1 C
2054 28-11-2018 03:05:00 1.1 C 91 % -0.2 C
2055 28-11-2018 03:10:00 1 C 91 % -0.3 C
2056 28-11-2018 03:15:00 0.9 C 91 % -0.4 C
2057 28-11-2018 03:20:00 0.9 C 91 % -0.4 C
2058 28-11-2018 03:25:00 0.8 C 91 % -0.5 C
2059 28-11-2018 03:30:00 0.7 C 91 % -0.6 C
2060 28-11-2018 03:35:00 0.6 C 92 % -0.55 C
2061 28-11-2018 03:40:00 0.6 C 92 % -0.55 C
2062 28-11-2018 03:45:00 0.5 C 92 % -0.65 C
2063 28-11-2018 03:50:00 0.4 C 92 % -0.74 C
2064 28-11-2018 03:55:00 0.3 C 92 % -0.84 C
2065 28-11-2018 04:00:00 0.3 C 92 % -0.84 C
2066 28-11-2018 04:05:00 0.3 C 93 % -0.7 C
2067 28-11-2018 04:10:00 0.3 C 93 % -0.7 C
2068 28-11-2018 04:15:00 0.3 C 93 % -0.7 C
2069 28-11-2018 04:20:00 0.2 C 93 % -0.79 C
2070 28-11-2018 04:25:00 0.2 C 93 % -0.79 C
2071 28-11-2018 04:30:00 0.2 C 93 % -0.79 C
2072 28-11-2018 04:35:00 0.2 C 93 % -0.79 C
2073 28-11-2018 04:40:00 0.2 C 93 % -0.79 C
2074 28-11-2018 04:45:00 0.2 C 94 % -0.65 C
2075 28-11-2018 04:50:00 0.3 C 94 % -0.55 C
Sensor: Nr:Datum:Temp:Feuchte:Taupunkt:
Aussen-T/F 2076 28-11-2018 04:55:00 0.3 C 94 % -0.55 C
2077 28-11-2018 05:00:00 0.3 C 94 % -0.55 C
2078 28-11-2018 05:05:00 0.4 C 94 % -0.45 C
2079 28-11-2018 05:10:00 0.4 C 94 % -0.45 C
2080 28-11-2018 05:15:00 0.5 C 94 % -0.35 C
2081 28-11-2018 05:20:00 0.5 C 94 % -0.35 C
2082 28-11-2018 05:25:00 0.5 C 94 % -0.35 C
2083 28-11-2018 05:30:00 0.4 C 94 % -0.45 C
2084 28-11-2018 05:35:00 0.4 C 94 % -0.45 C
2085 28-11-2018 05:40:00 0.4 C 94 % -0.45 C
2086 28-11-2018 05:45:00 0.3 C 94 % -0.55 C
2087 28-11-2018 05:50:00 0.3 C 94 % -0.55 C
2088 28-11-2018 05:55:00 0.3 C 94 % -0.55 C
2089 28-11-2018 06:00:00 0.4 C 94 % -0.45 C
2090 28-11-2018 06:05:00 0.4 C 94 % -0.45 C
2091 28-11-2018 06:10:00 0.4 C 94 % -0.45 C
2092 28-11-2018 06:15:00 0.4 C 94 % -0.45 C
2093 28-11-2018 06:20:00 0.3 C 94 % -0.55 C
2094 28-11-2018 06:25:00 0.3 C 94 % -0.55 C
2095 28-11-2018 06:30:00 0.3 C 95 % -0.4 C
2096 28-11-2018 06:35:00 0.4 C 95 % -0.31 C
2097 28-11-2018 06:40:00 0.3 C 95 % -0.4 C
2098 28-11-2018 06:45:00 0.3 C 95 % -0.4 C
2099 28-11-2018 06:50:00 0.3 C 95 % -0.4 C
2100 28-11-2018 06:55:00 0.3 C 95 % -0.4 C
Sensor: Nr:Datum:Temp:Feuchte:Taupunkt:
Aussen-T/F 2101 28-11-2018 07:00:00 0.3 C 95 % -0.4 C
2102 28-11-2018 07:05:00 0.3 C 95 % -0.4 C
2103 28-11-2018 07:10:00 0.3 C 95 % -0.4 C
2104 28-11-2018 07:15:00 0.4 C 95 % -0.31 C
2105 28-11-2018 07:20:00 0.4 C 95 % -0.31 C
2106 28-11-2018 07:25:00 0.6 C 95 % -0.11 C
2107 28-11-2018 07:30:00 0.6 C 95 % -0.11 C
2108 28-11-2018 07:35:00 0.7 C 95 % -0.01 C
2109 28-11-2018 07:40:00 0.6 C 95 % -0.11 C
2110 28-11-2018 07:45:00 0.6 C 95 % -0.11 C
2111 28-11-2018 07:50:00 0.6 C 95 % -0.11 C
2112 28-11-2018 07:55:00 0.7 C 95 % -0.01 C
2113 28-11-2018 08:00:00 0.7 C 95 % -0.01 C
2114 28-11-2018 08:05:00 0.7 C 95 % -0.01 C
2115 28-11-2018 08:10:00 0.7 C 95 % -0.01 C
2116 28-11-2018 08:15:00 0.8 C 95 % 0.09 C
2117 28-11-2018 08:20:00 0.8 C 95 % 0.09 C
2118 28-11-2018 08:25:00 0.8 C 95 % 0.09 C
2119 28-11-2018 08:30:00 0.8 C 95 % 0.09 C
2120 28-11-2018 08:35:00 0.8 C 95 % 0.09 C
2121 28-11-2018 08:40:00 0.9 C 96 % 0.34 C
2122 28-11-2018 08:45:00 1.1 C 96 % 0.54 C
2123 28-11-2018 08:50:00 1.2 C 96 % 0.63 C
2124 28-11-2018 08:55:00 1.3 C 96 % 0.73 C
2125 28-11-2018 09:00:00 1.5 C 96 % 0.93 C
Sensor: Nr:Datum:Temp:Feuchte:Taupunkt:
Aussen-T/F 2126 28-11-2018 09:05:00 1.7 C 96 % 1.13 C
2127 28-11-2018 09:10:00 1.9 C 96 % 1.33 C
2128 28-11-2018 09:15:00 2.1 C 96 % 1.53 C
2129 28-11-2018 09:20:00 2.3 C 96 % 1.73 C
2130 28-11-2018 09:25:00 2.6 C 96 % 2.03 C
2131 28-11-2018 09:30:00 2.8 C 97 % 2.37 C
2132 28-11-2018 09:35:00 3 C 96 % 2.43 C
2133 28-11-2018 09:40:00 3.1 C 96 % 2.53 C
2134 28-11-2018 09:45:00 3.3 C 96 % 2.72 C
2135 28-11-2018 09:50:00 3.4 C 96 % 2.82 C
2136 28-11-2018 09:55:00 3.4 C 96 % 2.82 C
2137 28-11-2018 10:00:00 3.5 C 95 % 2.78 C
2138 28-11-2018 10:05:00 3.6 C 95 % 2.88 C
2139 28-11-2018 10:10:00 3.7 C 94 % 2.83 C
2140 28-11-2018 10:15:00 3.8 C 94 % 2.93 C
2141 28-11-2018 10:20:00 3.9 C 94 % 3.02 C
2142 28-11-2018 10:25:00 3.9 C 93 % 2.87 C
2143 28-11-2018 10:30:00 4.1 C 93 % 3.07 C
2144 28-11-2018 10:35:00 4.2 C 92 % 3.02 C
2145 28-11-2018 10:40:00 4.2 C 92 % 3.02 C
2146 28-11-2018 10:45:00 4.3 C 92 % 3.12 C
2147 28-11-2018 10:50:00 4.4 C 92 % 3.22 C
2148 28-11-2018 10:55:00 4.5 C 91 % 3.16 C
2149 28-11-2018 11:00:00 4.6 C 91 % 3.26 C
2150 28-11-2018 11:05:00 4.7 C 90 % 3.2 C
Sensor: Nr:Datum:Temp:Feuchte:Taupunkt:
Aussen-T/F 2151 28-11-2018 11:10:00 4.8 C 89 % 3.14 C
2152 28-11-2018 11:15:00 4.8 C 89 % 3.14 C
2153 28-11-2018 11:20:00 4.9 C 88 % 3.08 C
2154 28-11-2018 11:25:00 4.9 C 88 % 3.08 C
2155 28-11-2018 11:30:00 5 C 88 % 3.18 C
2156 28-11-2018 11:35:00 5.1 C 88 % 3.28 C
2157 28-11-2018 11:40:00 5.2 C 87 % 3.22 C
2158 28-11-2018 11:45:00 5.2 C 87 % 3.22 C
2159 28-11-2018 11:50:00 5.3 C 87 % 3.32 C
2160 28-11-2018 11:55:00 5.3 C 86 % 3.15 C
2161 28-11-2018 12:00:00 5.4 C 86 % 3.25 C
2162 28-11-2018 12:05:00 5.4 C 86 % 3.25 C
2163 28-11-2018 12:10:00 5.4 C 86 % 3.25 C
2164 28-11-2018 12:15:00 5.4 C 86 % 3.25 C
2165 28-11-2018 12:20:00 5.4 C 86 % 3.25 C
2166 28-11-2018 12:25:00 5.5 C 86 % 3.35 C
2167 28-11-2018 12:30:00 5.6 C 86 % 3.45 C
2168 28-11-2018 12:35:00 5.6 C 85 % 3.28 C
2169 28-11-2018 12:40:00 5.6 C 85 % 3.28 C
2170 28-11-2018 12:45:00 5.7 C 86 % 3.55 C
2171 28-11-2018 12:50:00 5.7 C 86 % 3.55 C
2172 28-11-2018 12:55:00 5.8 C 86 % 3.64 C
2173 28-11-2018 13:00:00 5.8 C 85 % 3.48 C
2174 28-11-2018 13:05:00 5.9 C 85 % 3.58 C
2175 28-11-2018 13:10:00 5.9 C 85 % 3.58 C
Sensor: Nr:Datum:Temp:Feuchte:Taupunkt:
Aussen-T/F 2176 28-11-2018 13:15:00 6 C 85 % 3.67 C
2177 28-11-2018 13:20:00 6.1 C 85 % 3.77 C
2178 28-11-2018 13:25:00 6.1 C 85 % 3.77 C
2179 28-11-2018 13:30:00 6.1 C 85 % 3.77 C
2180 28-11-2018 13:35:00 6.2 C 85 % 3.87 C
2181 28-11-2018 13:40:00 6.2 C 85 % 3.87 C
2182 28-11-2018 13:45:00 6.3 C 85 % 3.97 C
2183 28-11-2018 13:50:00 6.4 C 84 % 3.9 C
2184 28-11-2018 13:55:00 6.5 C 84 % 4 C
2185 28-11-2018 14:00:00 6.6 C 84 % 4.1 C
2186 28-11-2018 14:05:00 6.6 C 83 % 3.92 C
2187 28-11-2018 14:10:00 6.7 C 84 % 4.19 C
2188 28-11-2018 14:15:00 6.7 C 83 % 4.02 C
2189 28-11-2018 14:20:00 6.7 C 83 % 4.02 C
2190 28-11-2018 14:25:00 6.7 C 83 % 4.02 C
2191 28-11-2018 14:30:00 6.7 C 83 % 4.02 C
2192 28-11-2018 14:35:00 6.6 C 83 % 3.92 C
2193 28-11-2018 14:40:00 6.6 C 83 % 3.92 C
2194 28-11-2018 14:45:00 6.5 C 84 % 4 C
2195 28-11-2018 14:50:00 6.5 C 84 % 4 C
2196 28-11-2018 14:55:00 6.4 C 84 % 3.9 C
2197 28-11-2018 15:00:00 6.4 C 84 % 3.9 C
2198 28-11-2018 15:05:00 6.3 C 84 % 3.8 C
2199 28-11-2018 15:10:00 6.3 C 84 % 3.8 C
2200 28-11-2018 15:15:00 6.3 C 84 % 3.8 C
Sensor: Nr:Datum:Temp:Feuchte:Taupunkt:
Aussen-T/F 2201 28-11-2018 15:20:00 6.2 C 85 % 3.87 C
2202 28-11-2018 15:25:00 6.2 C 85 % 3.87 C
2203 28-11-2018 15:30:00 6.1 C 85 % 3.77 C
2204 28-11-2018 15:35:00 6.1 C 86 % 3.94 C
2205 28-11-2018 15:40:00 6.1 C 86 % 3.94 C
2206 28-11-2018 15:45:00 6 C 86 % 3.84 C
2207 28-11-2018 15:50:00 5.9 C 86 % 3.74 C
2208 28-11-2018 15:55:00 5.9 C 87 % 3.91 C
2209 28-11-2018 16:00:00 5.8 C 87 % 3.81 C
2210 28-11-2018 16:05:00 5.8 C 88 % 3.97 C
2211 28-11-2018 16:10:00 5.8 C 88 % 3.97 C
2212 28-11-2018 16:15:00 5.7 C 88 % 3.87 C
2213 28-11-2018 16:20:00 5.7 C 88 % 3.87 C
2214 28-11-2018 16:25:00 5.7 C 88 % 3.87 C
2215 28-11-2018 16:30:00 5.7 C 89 % 4.03 C
2216 28-11-2018 16:35:00 5.6 C 89 % 3.93 C
2217 28-11-2018 16:40:00 5.6 C 89 % 3.93 C
2218 28-11-2018 16:45:00 5.6 C 89 % 3.93 C
2219 28-11-2018 16:50:00 5.6 C 90 % 4.09 C
2220 28-11-2018 16:55:00 5.6 C 90 % 4.09 C
2221 28-11-2018 17:00:00 5.6 C 90 % 4.09 C
2222 28-11-2018 17:05:00 5.5 C 90 % 3.99 C
2223 28-11-2018 17:10:00 5.4 C 91 % 4.05 C
2224 28-11-2018 17:15:00 5.4 C 91 % 4.05 C
2225 28-11-2018 17:20:00 5.4 C 91 % 4.05 C
Sensor: Nr:Datum:Temp:Feuchte:Taupunkt:
Aussen-T/F 2226 28-11-2018 17:25:00 5.4 C 92 % 4.21 C
2227 28-11-2018 17:30:00 5.4 C 92 % 4.21 C
2228 28-11-2018 17:35:00 5.3 C 92 % 4.11 C
2229 28-11-2018 17:40:00 5.3 C 92 % 4.11 C
2230 28-11-2018 17:45:00 5.3 C 93 % 4.26 C
2231 28-11-2018 17:50:00 5.3 C 93 % 4.26 C
2232 28-11-2018 17:55:00 5.3 C 93 % 4.26 C
2233 28-11-2018 18:00:00 5.3 C 93 % 4.26 C
2234 28-11-2018 18:05:00 5.3 C 93 % 4.26 C
2235 28-11-2018 18:10:00 5.2 C 93 % 4.16 C
2236 28-11-2018 18:15:00 5.2 C 94 % 4.32 C
2237 28-11-2018 18:20:00 5.2 C 94 % 4.32 C
2238 28-11-2018 18:25:00 5.2 C 94 % 4.32 C
2239 28-11-2018 18:30:00 5.2 C 94 % 4.32 C
2240 28-11-2018 18:35:00 5.2 C 94 % 4.32 C
2241 28-11-2018 18:40:00 5.2 C 94 % 4.32 C
2242 28-11-2018 18:45:00 5.2 C 94 % 4.32 C
2243 28-11-2018 18:50:00 5.2 C 94 % 4.32 C
2244 28-11-2018 18:55:00 5.2 C 94 % 4.32 C
2245 28-11-2018 19:00:00 5.2 C 94 % 4.32 C
2246 28-11-2018 19:05:00 5.2 C 95 % 4.47 C
2247 28-11-2018 19:10:00 5.2 C 95 % 4.47 C
2248 28-11-2018 19:15:00 5.2 C 95 % 4.47 C
2249 28-11-2018 19:20:00 5.2 C 95 % 4.47 C
2250 28-11-2018 19:25:00 5.2 C 95 % 4.47 C
Sensor: Nr:Datum:Temp:Feuchte:Taupunkt:
Aussen-T/F 2251 28-11-2018 19:30:00 5.2 C 95 % 4.47 C
2252 28-11-2018 19:35:00 5.2 C 95 % 4.47 C
2253 28-11-2018 19:40:00 5.2 C 95 % 4.47 C
2254 28-11-2018 19:45:00 5.2 C 95 % 4.47 C
2255 28-11-2018 19:50:00 5.2 C 95 % 4.47 C
2256 28-11-2018 19:55:00 5.2 C 95 % 4.47 C
2257 28-11-2018 20:00:00 5.2 C 95 % 4.47 C
2258 28-11-2018 20:05:00 5.2 C 95 % 4.47 C
2259 28-11-2018 20:10:00 5.2 C 95 % 4.47 C
2260 28-11-2018 20:15:00 5.2 C 95 % 4.47 C
2261 28-11-2018 20:20:00 5.2 C 95 % 4.47 C
2262 28-11-2018 20:25:00 5.2 C 95 % 4.47 C
2263 28-11-2018 20:30:00 5.2 C 95 % 4.47 C
2264 28-11-2018 20:35:00 5.2 C 95 % 4.47 C
2265 28-11-2018 20:40:00 5.2 C 95 % 4.47 C
2266 28-11-2018 20:45:00 5.2 C 95 % 4.47 C
2267 28-11-2018 20:50:00 5.2 C 96 % 4.62 C
2268 28-11-2018 20:55:00 5.2 C 96 % 4.62 C
2269 28-11-2018 21:00:00 5.2 C 96 % 4.62 C
2270 28-11-2018 21:05:00 5.1 C 96 % 4.52 C
2271 28-11-2018 21:10:00 5.1 C 96 % 4.52 C
2272 28-11-2018 21:15:00 5.1 C 95 % 4.37 C
2273 28-11-2018 21:20:00 5.1 C 96 % 4.52 C
2274 28-11-2018 21:25:00 5.1 C 96 % 4.52 C
2275 28-11-2018 21:30:00 5.2 C 96 % 4.62 C
Sensor: Nr:Datum:Temp:Feuchte:Taupunkt:
Aussen-T/F 2276 28-11-2018 21:35:00 5.2 C 96 % 4.62 C
2277 28-11-2018 21:40:00 5.3 C 96 % 4.72 C
2278 28-11-2018 21:45:00 5.3 C 96 % 4.72 C
2279 28-11-2018 21:50:00 5.3 C 96 % 4.72 C
2280 28-11-2018 21:55:00 5.3 C 96 % 4.72 C
2281 28-11-2018 22:00:00 5.4 C 96 % 4.81 C
2282 28-11-2018 22:05:00 5.4 C 96 % 4.81 C
2283 28-11-2018 22:10:00 5.4 C 96 % 4.81 C
2284 28-11-2018 22:15:00 5.4 C 96 % 4.81 C
2285 28-11-2018 22:20:00 5.4 C 96 % 4.81 C
2286 28-11-2018 22:25:00 5.4 C 96 % 4.81 C
2287 28-11-2018 22:30:00 5.4 C 96 % 4.81 C
2288 28-11-2018 22:35:00 5.4 C 96 % 4.81 C
2289 28-11-2018 22:40:00 5.5 C 96 % 4.91 C
2290 28-11-2018 22:45:00 5.5 C 96 % 4.91 C
2291 28-11-2018 22:50:00 5.5 C 96 % 4.91 C
2292 28-11-2018 22:55:00 5.4 C 96 % 4.81 C
2293 28-11-2018 23:00:00 5.4 C 96 % 4.81 C
2294 28-11-2018 23:05:00 5.4 C 96 % 4.81 C
2295 28-11-2018 23:10:00 5.4 C 96 % 4.81 C
2296 28-11-2018 23:15:00 5.4 C 96 % 4.81 C
2297 28-11-2018 23:20:00 5.4 C 96 % 4.81 C
2298 28-11-2018 23:25:00 5.4 C 96 % 4.81 C
2299 28-11-2018 23:30:00 5.4 C 96 % 4.81 C
2300 28-11-2018 23:35:00 5.4 C 96 % 4.81 C
Sensor: Nr:Datum:Temp:Feuchte:Taupunkt:
Aussen-T/F 2301 28-11-2018 23:40:00 5.3 C 96 % 4.72 C
2302 28-11-2018 23:45:00 5.3 C 96 % 4.72 C
2303 28-11-2018 23:50:00 5.3 C 96 % 4.72 C
2304 28-11-2018 23:55:00 5.4 C 96 % 4.81 C
2305 29-11-2018 00:00:00 5.4 C 96 % 4.81 C
2306 29-11-2018 00:05:00 5.4 C 96 % 4.81 C
2307 29-11-2018 00:10:00 5.5 C 96 % 4.91 C
2308 29-11-2018 00:15:00 5.5 C 96 % 4.91 C
2309 29-11-2018 00:20:00 5.6 C 96 % 5.01 C
2310 29-11-2018 00:25:00 5.6 C 96 % 5.01 C
2311 29-11-2018 00:30:00 5.6 C 96 % 5.01 C
2312 29-11-2018 00:35:00 5.6 C 96 % 5.01 C
2313 29-11-2018 00:40:00 5.6 C 96 % 5.01 C
2314 29-11-2018 00:45:00 5.5 C 96 % 4.91 C
2315 29-11-2018 00:50:00 5.5 C 96 % 4.91 C
2316 29-11-2018 00:55:00 5.4 C 96 % 4.81 C
2317 29-11-2018 01:00:00 5.4 C 96 % 4.81 C
2318 29-11-2018 01:05:00 5.5 C 96 % 4.91 C
2319 29-11-2018 01:10:00 5.5 C 96 % 4.91 C
2320 29-11-2018 01:15:00 5.6 C 96 % 5.01 C
2321 29-11-2018 01:20:00 5.6 C 96 % 5.01 C
2322 29-11-2018 01:25:00 5.6 C 96 % 5.01 C
2323 29-11-2018 01:30:00 5.6 C 96 % 5.01 C
2324 29-11-2018 01:35:00 5.6 C 96 % 5.01 C
2325 29-11-2018 01:40:00 5.6 C 96 % 5.01 C
Sensor: Nr:Datum:Temp:Feuchte:Taupunkt:
Aussen-T/F 2326 29-11-2018 01:45:00 5.6 C 96 % 5.01 C
2327 29-11-2018 01:50:00 5.6 C 96 % 5.01 C
2328 29-11-2018 01:55:00 5.6 C 96 % 5.01 C
2329 29-11-2018 02:00:00 5.6 C 96 % 5.01 C
2330 29-11-2018 02:05:00 5.5 C 97 % 5.06 C
2331 29-11-2018 02:10:00 5.4 C 97 % 4.96 C
2332 29-11-2018 02:15:00 5.4 C 97 % 4.96 C
2333 29-11-2018 02:20:00 5.4 C 97 % 4.96 C
2334 29-11-2018 02:25:00 5.4 C 97 % 4.96 C
2335 29-11-2018 02:30:00 5.4 C 97 % 4.96 C
2336 29-11-2018 02:35:00 5.4 C 97 % 4.96 C
2337 29-11-2018 02:40:00 5.3 C 97 % 4.86 C
2338 29-11-2018 02:45:00 5.4 C 97 % 4.96 C
2339 29-11-2018 02:50:00 5.4 C 97 % 4.96 C
2340 29-11-2018 02:55:00 5.4 C 97 % 4.96 C
2341 29-11-2018 03:00:00 5.4 C 97 % 4.96 C
2342 29-11-2018 03:05:00 5.5 C 97 % 5.06 C
2343 29-11-2018 03:10:00 5.6 C 97 % 5.16 C
2344 29-11-2018 03:15:00 5.6 C 97 % 5.16 C
2345 29-11-2018 03:20:00 5.6 C 97 % 5.16 C
2346 29-11-2018 03:25:00 5.6 C 97 % 5.16 C
2347 29-11-2018 03:30:00 5.6 C 97 % 5.16 C
2348 29-11-2018 03:35:00 5.6 C 97 % 5.16 C
2349 29-11-2018 03:40:00 5.6 C 97 % 5.16 C
2350 29-11-2018 03:45:00 5.6 C 97 % 5.16 C
Sensor: Nr:Datum:Temp:Feuchte:Taupunkt:
Aussen-T/F 2351 29-11-2018 03:50:00 5.6 C 97 % 5.16 C
2352 29-11-2018 03:55:00 5.6 C 97 % 5.16 C
2353 29-11-2018 04:00:00 5.6 C 97 % 5.16 C
2354 29-11-2018 04:05:00 5.7 C 97 % 5.26 C
2355 29-11-2018 04:10:00 5.7 C 97 % 5.26 C
2356 29-11-2018 04:15:00 5.6 C 97 % 5.16 C
2357 29-11-2018 04:20:00 5.6 C 97 % 5.16 C
2358 29-11-2018 04:25:00 5.6 C 97 % 5.16 C
2359 29-11-2018 04:30:00 5.6 C 97 % 5.16 C
2360 29-11-2018 04:35:00 5.6 C 97 % 5.16 C
2361 29-11-2018 04:40:00 5.6 C 97 % 5.16 C
2362 29-11-2018 04:45:00 5.6 C 97 % 5.16 C
2363 29-11-2018 04:50:00 5.7 C 97 % 5.26 C
2364 29-11-2018 04:55:00 5.7 C 97 % 5.26 C
2365 29-11-2018 05:00:00 5.7 C 97 % 5.26 C
2366 29-11-2018 05:05:00 5.7 C 97 % 5.26 C
2367 29-11-2018 05:10:00 5.6 C 97 % 5.16 C
2368 29-11-2018 05:15:00 5.6 C 97 % 5.16 C
2369 29-11-2018 05:20:00 5.6 C 97 % 5.16 C
2370 29-11-2018 05:25:00 5.5 C 97 % 5.06 C
2371 29-11-2018 05:30:00 5.5 C 97 % 5.06 C
2372 29-11-2018 05:35:00 5.4 C 97 % 4.96 C
2373 29-11-2018 05:40:00 5.4 C 97 % 4.96 C
2374 29-11-2018 05:45:00 5.4 C 97 % 4.96 C
2375 29-11-2018 05:50:00 5.3 C 96 % 4.72 C
Sensor: Nr:Datum:Temp:Feuchte:Taupunkt:
Aussen-T/F 2376 29-11-2018 05:55:00 5.3 C 96 % 4.72 C
2377 29-11-2018 06:00:00 5.3 C 96 % 4.72 C
2378 29-11-2018 06:05:00 5.3 C 96 % 4.72 C
2379 29-11-2018 06:10:00 5.3 C 96 % 4.72 C
2380 29-11-2018 06:15:00 5.3 C 96 % 4.72 C
2381 29-11-2018 06:20:00 5.2 C 96 % 4.62 C
2382 29-11-2018 06:25:00 5.2 C 96 % 4.62 C
2383 29-11-2018 06:30:00 5.2 C 96 % 4.62 C
2384 29-11-2018 06:35:00 5.2 C 96 % 4.62 C
2385 29-11-2018 06:40:00 5.2 C 96 % 4.62 C
2386 29-11-2018 06:45:00 5.2 C 96 % 4.62 C
2387 29-11-2018 06:50:00 5.2 C 96 % 4.62 C
2388 29-11-2018 06:55:00 5.2 C 96 % 4.62 C
2389 29-11-2018 07:00:00 5.2 C 96 % 4.62 C
2390 29-11-2018 07:05:00 5.2 C 96 % 4.62 C
2391 29-11-2018 07:10:00 5.2 C 96 % 4.62 C
2392 29-11-2018 07:15:00 5.2 C 96 % 4.62 C
2393 29-11-2018 07:20:00 5.2 C 95 % 4.47 C
2394 29-11-2018 07:25:00 5.2 C 95 % 4.47 C
2395 29-11-2018 07:30:00 5.2 C 95 % 4.47 C
2396 29-11-2018 07:35:00 5.2 C 95 % 4.47 C
2397 29-11-2018 07:40:00 5.2 C 95 % 4.47 C
2398 29-11-2018 07:45:00 5.3 C 95 % 4.57 C
2399 29-11-2018 07:50:00 5.3 C 95 % 4.57 C
2400 29-11-2018 07:55:00 5.3 C 95 % 4.57 C
Sensor: Nr:Datum:Temp:Feuchte:Taupunkt:
Aussen-T/F 2401 29-11-2018 08:00:00 5.3 C 95 % 4.57 C
2402 29-11-2018 08:05:00 5.3 C 94 % 4.41 C
2403 29-11-2018 08:10:00 5.3 C 94 % 4.41 C
2404 29-11-2018 08:15:00 5.3 C 94 % 4.41 C
2405 29-11-2018 08:20:00 5.4 C 94 % 4.51 C
2406 29-11-2018 08:25:00 5.4 C 94 % 4.51 C
2407 29-11-2018 08:30:00 5.4 C 93 % 4.36 C
2408 29-11-2018 08:35:00 5.4 C 94 % 4.51 C
2409 29-11-2018 08:40:00 5.4 C 94 % 4.51 C
2410 29-11-2018 08:45:00 5.4 C 94 % 4.51 C
2411 29-11-2018 08:50:00 5.4 C 93 % 4.36 C
2412 29-11-2018 08:55:00 5.4 C 93 % 4.36 C
2413 29-11-2018 09:00:00 5.4 C 93 % 4.36 C
2414 29-11-2018 09:05:00 5.4 C 93 % 4.36 C
2415 29-11-2018 09:10:00 5.4 C 93 % 4.36 C
2416 29-11-2018 09:15:00 5.4 C 93 % 4.36 C
2417 29-11-2018 09:20:00 5.4 C 92 % 4.21 C
2418 29-11-2018 09:25:00 5.4 C 92 % 4.21 C
2419 29-11-2018 09:30:00 5.4 C 92 % 4.21 C
2420 29-11-2018 09:35:00 5.5 C 92 % 4.31 C
2421 29-11-2018 09:40:00 5.5 C 92 % 4.31 C
2422 29-11-2018 09:45:00 5.6 C 92 % 4.41 C
2423 29-11-2018 09:50:00 5.6 C 92 % 4.41 C
2424 29-11-2018 09:55:00 5.6 C 92 % 4.41 C
2425 29-11-2018 10:00:00 5.7 C 92 % 4.5 C
Sensor: Nr:Datum:Temp:Feuchte:Taupunkt:
Aussen-T/F 2426 29-11-2018 10:05:00 5.7 C 92 % 4.5 C
2427 29-11-2018 10:10:00 5.7 C 92 % 4.5 C
2428 29-11-2018 10:15:00 5.8 C 92 % 4.6 C
2429 29-11-2018 10:20:00 5.8 C 91 % 4.45 C
2430 29-11-2018 10:25:00 5.9 C 91 % 4.55 C
2431 29-11-2018 10:30:00 6 C 91 % 4.65 C
2432 29-11-2018 10:35:00 6.1 C 91 % 4.74 C
2433 29-11-2018 10:40:00 6.1 C 91 % 4.74 C
2434 29-11-2018 10:45:00 6.2 C 91 % 4.84 C
2435 29-11-2018 10:50:00 6.2 C 91 % 4.84 C
2436 29-11-2018 10:55:00 6.2 C 90 % 4.69 C
2437 29-11-2018 11:00:00 6.3 C 90 % 4.78 C
2438 29-11-2018 11:05:00 6.3 C 90 % 4.78 C
2439 29-11-2018 11:10:00 6.4 C 90 % 4.88 C
2440 29-11-2018 11:15:00 6.4 C 90 % 4.88 C
2441 29-11-2018 11:20:00 6.4 C 90 % 4.88 C
2442 29-11-2018 11:25:00 6.5 C 89 % 4.82 C
2443 29-11-2018 11:30:00 6.6 C 89 % 4.92 C
2444 29-11-2018 11:35:00 6.6 C 89 % 4.92 C
2445 29-11-2018 11:40:00 6.6 C 89 % 4.92 C
2446 29-11-2018 11:45:00 6.6 C 88 % 4.76 C
2447 29-11-2018 11:50:00 6.7 C 89 % 5.02 C
2448 29-11-2018 11:55:00 6.7 C 88 % 4.86 C
2449 29-11-2018 12:00:00 6.7 C 89 % 5.02 C
2450 29-11-2018 12:05:00 6.7 C 88 % 4.86 C
Sensor: Nr:Datum:Temp:Feuchte:Taupunkt:
Aussen-T/F 2451 29-11-2018 12:10:00 6.8 C 89 % 5.12 C
2452 29-11-2018 12:15:00 6.8 C 88 % 4.96 C
2453 29-11-2018 12:20:00 6.8 C 88 % 4.96 C
2454 29-11-2018 12:25:00 6.8 C 88 % 4.96 C
2455 29-11-2018 12:30:00 6.8 C 88 % 4.96 C
2456 29-11-2018 12:35:00 6.8 C 88 % 4.96 C
2457 29-11-2018 12:40:00 6.8 C 88 % 4.96 C
2458 29-11-2018 12:45:00 6.8 C 87 % 4.79 C
2459 29-11-2018 12:50:00 6.8 C 87 % 4.79 C
2460 29-11-2018 12:55:00 6.8 C 88 % 4.96 C
2461 29-11-2018 13:05:00 6.7 C 89 % 5.02 C
2462 29-11-2018 13:10:00 6.6 C 89 % 4.92 C
2463 29-11-2018 13:15:00 6.6 C 89 % 4.92 C
2464 29-11-2018 13:20:00 6.5 C 89 % 4.82 C
2465 29-11-2018 13:25:00 6.5 C 89 % 4.82 C
2466 29-11-2018 13:30:00 6.5 C 89 % 4.82 C
2467 29-11-2018 13:35:00 6.4 C 89 % 4.72 C
2468 29-11-2018 13:40:00 6.4 C 89 % 4.72 C
2469 29-11-2018 13:45:00 6.4 C 90 % 4.88 C
2470 29-11-2018 13:50:00 6.4 C 90 % 4.88 C
2471 29-11-2018 13:55:00 6.4 C 89 % 4.72 C
2472 29-11-2018 14:00:00 6.4 C 89 % 4.72 C
2473 29-11-2018 14:05:00 6.4 C 89 % 4.72 C
2474 29-11-2018 14:10:00 6.4 C 89 % 4.72 C
2475 29-11-2018 14:15:00 6.6 C 89 % 4.92 C
Sensor: Nr:Datum:Temp:Feuchte:Taupunkt:
Aussen-T/F 2476 29-11-2018 14:20:00 6.7 C 90 % 5.18 C
2477 29-11-2018 14:25:00 6.8 C 89 % 5.12 C
2478 29-11-2018 14:30:00 6.9 C 89 % 5.22 C
2479 29-11-2018 14:35:00 6.9 C 89 % 5.22 C
2480 29-11-2018 14:40:00 6.9 C 89 % 5.22 C
2481 29-11-2018 14:45:00 6.9 C 89 % 5.22 C
2482 29-11-2018 14:50:00 6.9 C 89 % 5.22 C
2483 29-11-2018 14:55:00 6.9 C 89 % 5.22 C
2484 29-11-2018 15:00:00 6.8 C 89 % 5.12 C
2485 29-11-2018 15:05:00 6.8 C 89 % 5.12 C
2486 29-11-2018 15:10:00 6.8 C 88 % 4.96 C
2487 29-11-2018 15:15:00 6.8 C 88 % 4.96 C
2488 29-11-2018 15:20:00 6.8 C 88 % 4.96 C
2489 29-11-2018 15:25:00 6.8 C 88 % 4.96 C
2490 29-11-2018 15:30:00 6.7 C 88 % 4.86 C
2491 29-11-2018 15:35:00 6.7 C 88 % 4.86 C
2492 29-11-2018 15:40:00 6.7 C 88 % 4.86 C
2493 29-11-2018 15:45:00 6.6 C 88 % 4.76 C
2494 29-11-2018 15:50:00 6.6 C 88 % 4.76 C
2495 29-11-2018 15:55:00 6.6 C 88 % 4.76 C
2496 29-11-2018 16:00:00 6.6 C 88 % 4.76 C
2497 29-11-2018 16:05:00 6.6 C 88 % 4.76 C
2498 29-11-2018 16:10:00 6.5 C 88 % 4.66 C
2499 29-11-2018 16:15:00 6.4 C 88 % 4.56 C
2500 29-11-2018 16:20:00 6.4 C 87 % 4.4 C
Sensor: Nr:Datum:Temp:Feuchte:Taupunkt:
Aussen-T/F 2501 29-11-2018 16:25:00 6.4 C 88 % 4.56 C
2502 29-11-2018 16:30:00 6.4 C 88 % 4.56 C
2503 29-11-2018 16:35:00 6.3 C 88 % 4.46 C
2504 29-11-2018 16:40:00 6.2 C 87 % 4.2 C
2505 29-11-2018 16:45:00 6.2 C 87 % 4.2 C
2506 29-11-2018 16:50:00 6.1 C 88 % 4.27 C
2507 29-11-2018 16:55:00 6 C 88 % 4.17 C
2508 29-11-2018 17:00:00 5.9 C 88 % 4.07 C
2509 29-11-2018 17:05:00 5.9 C 88 % 4.07 C
2510 29-11-2018 17:10:00 5.9 C 88 % 4.07 C
2511 29-11-2018 17:15:00 5.8 C 88 % 3.97 C
2512 29-11-2018 17:20:00 5.8 C 88 % 3.97 C
2513 29-11-2018 17:25:00 5.7 C 88 % 3.87 C
2514 29-11-2018 17:30:00 5.6 C 89 % 3.93 C
2515 29-11-2018 17:35:00 5.6 C 89 % 3.93 C
2516 29-11-2018 17:40:00 5.6 C 89 % 3.93 C
2517 29-11-2018 17:45:00 5.5 C 89 % 3.84 C
2518 29-11-2018 17:50:00 5.3 C 89 % 3.64 C
2519 29-11-2018 17:55:00 5.3 C 89 % 3.64 C
2520 29-11-2018 18:00:00 5.2 C 89 % 3.54 C
2521 29-11-2018 18:05:00 5.1 C 90 % 3.6 C
2522 29-11-2018 18:10:00 5.1 C 90 % 3.6 C
2523 29-11-2018 18:15:00 5.1 C 91 % 3.76 C
2524 29-11-2018 18:20:00 5.1 C 91 % 3.76 C
2525 29-11-2018 18:25:00 5.1 C 91 % 3.76 C
Sensor: Nr:Datum:Temp:Feuchte:Taupunkt:
Aussen-T/F 2526 29-11-2018 18:30:00 5.1 C 91 % 3.76 C
2527 29-11-2018 18:35:00 5.1 C 91 % 3.76 C
2528 29-11-2018 18:40:00 5.1 C 91 % 3.76 C
2529 29-11-2018 18:45:00 5 C 91 % 3.66 C
2530 29-11-2018 18:50:00 5 C 91 % 3.66 C
2531 29-11-2018 18:55:00 4.9 C 92 % 3.71 C
2532 29-11-2018 19:00:00 4.9 C 92 % 3.71 C
2533 29-11-2018 19:05:00 4.9 C 92 % 3.71 C
2534 29-11-2018 19:10:00 4.9 C 92 % 3.71 C
2535 29-11-2018 19:15:00 4.9 C 93 % 3.87 C
2536 29-11-2018 19:20:00 4.9 C 93 % 3.87 C
2537 29-11-2018 19:25:00 5 C 93 % 3.96 C
2538 29-11-2018 19:30:00 5.1 C 93 % 4.06 C
2539 29-11-2018 19:35:00 5.1 C 93 % 4.06 C
2540 29-11-2018 19:40:00 5.1 C 93 % 4.06 C
2541 29-11-2018 19:45:00 5.1 C 93 % 4.06 C
2542 29-11-2018 19:50:00 5.2 C 93 % 4.16 C
2543 29-11-2018 19:55:00 5.2 C 93 % 4.16 C
2544 29-11-2018 20:00:00 5.2 C 93 % 4.16 C
2545 29-11-2018 20:05:00 5.2 C 93 % 4.16 C
2546 29-11-2018 20:10:00 5.2 C 93 % 4.16 C
2547 29-11-2018 20:15:00 5.2 C 93 % 4.16 C
2548 29-11-2018 20:20:00 5.2 C 93 % 4.16 C
2549 29-11-2018 20:25:00 5.2 C 93 % 4.16 C
2550 29-11-2018 20:30:00 5.2 C 93 % 4.16 C
Sensor: Nr:Datum:Temp:Feuchte:Taupunkt:
Aussen-T/F 2551 29-11-2018 20:35:00 5.2 C 94 % 4.32 C
2552 29-11-2018 20:40:00 5.3 C 94 % 4.41 C
2553 29-11-2018 20:45:00 5.3 C 94 % 4.41 C
2554 29-11-2018 20:50:00 5.3 C 94 % 4.41 C
2555 29-11-2018 20:55:00 5.3 C 94 % 4.41 C
2556 29-11-2018 21:00:00 5.3 C 93 % 4.26 C
2557 29-11-2018 21:05:00 5.3 C 93 % 4.26 C
2558 29-11-2018 21:10:00 5.2 C 93 % 4.16 C
2559 29-11-2018 21:15:00 5.2 C 93 % 4.16 C
2560 29-11-2018 21:20:00 5.1 C 93 % 4.06 C
2561 29-11-2018 21:25:00 4.9 C 93 % 3.87 C
2562 29-11-2018 21:30:00 4.9 C 93 % 3.87 C
2563 29-11-2018 21:35:00 4.8 C 93 % 3.77 C
2564 29-11-2018 21:40:00 4.7 C 93 % 3.67 C
2565 29-11-2018 21:45:00 4.7 C 93 % 3.67 C
2566 29-11-2018 21:50:00 4.6 C 93 % 3.57 C
2567 29-11-2018 21:55:00 4.6 C 94 % 3.72 C
2568 29-11-2018 22:00:00 4.7 C 94 % 3.82 C
2569 29-11-2018 22:05:00 4.7 C 94 % 3.82 C
2570 29-11-2018 22:10:00 4.8 C 94 % 3.92 C
2571 29-11-2018 22:15:00 4.8 C 95 % 4.07 C
2572 29-11-2018 22:20:00 4.9 C 95 % 4.17 C
2573 29-11-2018 22:25:00 4.9 C 94 % 4.02 C
2574 29-11-2018 22:30:00 5 C 95 % 4.27 C
2575 29-11-2018 22:35:00 5.1 C 95 % 4.37 C
Sensor: Nr:Datum:Temp:Feuchte:Taupunkt:
Aussen-T/F 2576 29-11-2018 22:40:00 5.2 C 95 % 4.47 C
2577 29-11-2018 22:45:00 5.3 C 94 % 4.41 C
2578 29-11-2018 22:50:00 5.3 C 94 % 4.41 C
2579 29-11-2018 22:55:00 5.3 C 94 % 4.41 C
2580 29-11-2018 23:00:00 5.3 C 94 % 4.41 C
2581 29-11-2018 23:05:00 5.3 C 94 % 4.41 C
2582 29-11-2018 23:10:00 5.3 C 94 % 4.41 C
2583 29-11-2018 23:15:00 5.3 C 94 % 4.41 C
2584 29-11-2018 23:20:00 5.4 C 94 % 4.51 C
2585 29-11-2018 23:25:00 5.5 C 93 % 4.46 C
2586 29-11-2018 23:30:00 5.5 C 93 % 4.46 C
2587 29-11-2018 23:35:00 5.5 C 93 % 4.46 C
2588 29-11-2018 23:40:00 5.5 C 93 % 4.46 C
2589 29-11-2018 23:45:00 5.4 C 93 % 4.36 C
2590 29-11-2018 23:50:00 5.4 C 93 % 4.36 C
2591 29-11-2018 23:55:00 5.4 C 93 % 4.36 C
2592 30-11-2018 00:00:00 5.5 C 94 % 4.61 C
2593 30-11-2018 00:05:00 5.5 C 94 % 4.61 C
2594 30-11-2018 00:10:00 5.6 C 94 % 4.71 C
2595 30-11-2018 00:15:00 5.6 C 94 % 4.71 C
2596 30-11-2018 00:20:00 5.7 C 94 % 4.81 C
2597 30-11-2018 00:25:00 5.7 C 94 % 4.81 C
2598 30-11-2018 00:30:00 5.8 C 94 % 4.91 C
2599 30-11-2018 00:35:00 5.8 C 94 % 4.91 C
2600 30-11-2018 00:40:00 5.9 C 94 % 5.01 C
Sensor: Nr:Datum:Temp:Feuchte:Taupunkt:
Aussen-T/F 2601 30-11-2018 00:45:00 5.9 C 94 % 5.01 C
2602 30-11-2018 00:50:00 6.1 C 94 % 5.21 C
2603 30-11-2018 00:55:00 6.1 C 94 % 5.21 C
2604 30-11-2018 01:00:00 6.2 C 94 % 5.31 C
2605 30-11-2018 01:05:00 6.3 C 94 % 5.41 C
2606 30-11-2018 01:10:00 6.3 C 94 % 5.41 C
2607 30-11-2018 01:15:00 6.3 C 94 % 5.41 C
2608 30-11-2018 01:20:00 6.4 C 94 % 5.51 C
2609 30-11-2018 01:25:00 6.4 C 94 % 5.51 C
2610 30-11-2018 01:30:00 6.4 C 94 % 5.51 C
2611 30-11-2018 01:35:00 6.3 C 94 % 5.41 C
2612 30-11-2018 01:40:00 6.3 C 93 % 5.25 C
2613 30-11-2018 01:45:00 6.3 C 94 % 5.41 C
2614 30-11-2018 01:50:00 6.3 C 94 % 5.41 C
2615 30-11-2018 01:55:00 6.3 C 94 % 5.41 C
2616 30-11-2018 02:00:00 6.3 C 94 % 5.41 C
2617 30-11-2018 02:05:00 6.3 C 94 % 5.41 C
2618 30-11-2018 02:10:00 6.3 C 94 % 5.41 C
2619 30-11-2018 02:15:00 6.3 C 94 % 5.41 C
2620 30-11-2018 02:20:00 6.3 C 94 % 5.41 C
2621 30-11-2018 02:25:00 6.3 C 94 % 5.41 C
2622 30-11-2018 02:30:00 6.3 C 94 % 5.41 C
2623 30-11-2018 02:35:00 6.2 C 94 % 5.31 C
2624 30-11-2018 02:40:00 6.2 C 93 % 5.15 C
2625 30-11-2018 02:45:00 6.2 C 93 % 5.15 C
Sensor: Nr:Datum:Temp:Feuchte:Taupunkt:
Aussen-T/F 2626 30-11-2018 02:50:00 6.2 C 93 % 5.15 C
2627 30-11-2018 02:55:00 6.2 C 93 % 5.15 C
2628 30-11-2018 03:00:00 6.2 C 94 % 5.31 C
2629 30-11-2018 03:05:00 6.2 C 94 % 5.31 C
2630 30-11-2018 03:10:00 6.2 C 94 % 5.31 C
2631 30-11-2018 03:15:00 6.3 C 94 % 5.41 C
2632 30-11-2018 03:20:00 6.3 C 94 % 5.41 C
2633 30-11-2018 03:25:00 6.4 C 94 % 5.51 C
2634 30-11-2018 03:30:00 6.4 C 94 % 5.51 C
2635 30-11-2018 03:35:00 6.5 C 94 % 5.61 C
2636 30-11-2018 03:40:00 6.7 C 94 % 5.8 C
2637 30-11-2018 03:45:00 6.7 C 94 % 5.8 C
2638 30-11-2018 03:50:00 6.8 C 94 % 5.9 C
2639 30-11-2018 03:55:00 6.8 C 94 % 5.9 C
2640 30-11-2018 04:00:00 6.8 C 94 % 5.9 C
2641 30-11-2018 04:05:00 6.8 C 94 % 5.9 C
2642 30-11-2018 04:10:00 6.8 C 94 % 5.9 C
2643 30-11-2018 04:15:00 6.7 C 94 % 5.8 C
2644 30-11-2018 04:20:00 6.7 C 94 % 5.8 C
2645 30-11-2018 04:25:00 6.7 C 94 % 5.8 C
2646 30-11-2018 04:30:00 6.7 C 95 % 5.96 C
2647 30-11-2018 04:35:00 6.6 C 95 % 5.86 C
2648 30-11-2018 04:40:00 6.6 C 95 % 5.86 C
2649 30-11-2018 04:45:00 6.6 C 95 % 5.86 C
2650 30-11-2018 04:50:00 6.6 C 95 % 5.86 C
Sensor: Nr:Datum:Temp:Feuchte:Taupunkt:
Aussen-T/F 2651 30-11-2018 04:55:00 6.6 C 95 % 5.86 C
2652 30-11-2018 05:00:00 6.6 C 95 % 5.86 C
2653 30-11-2018 05:05:00 6.5 C 95 % 5.76 C
2654 30-11-2018 05:10:00 6.5 C 95 % 5.76 C
2655 30-11-2018 05:15:00 6.4 C 95 % 5.66 C
2656 30-11-2018 05:20:00 6.4 C 95 % 5.66 C
2657 30-11-2018 05:25:00 6.4 C 95 % 5.66 C
2658 30-11-2018 05:30:00 6.3 C 95 % 5.56 C
2659 30-11-2018 05:35:00 6.3 C 95 % 5.56 C
2660 30-11-2018 05:40:00 6.3 C 95 % 5.56 C
2661 30-11-2018 05:45:00 6.2 C 95 % 5.46 C
2662 30-11-2018 05:50:00 6.3 C 95 % 5.56 C
2663 30-11-2018 05:55:00 6.2 C 95 % 5.46 C
2664 30-11-2018 06:00:00 6.2 C 96 % 5.61 C
2665 30-11-2018 06:05:00 6.2 C 96 % 5.61 C
2666 30-11-2018 06:10:00 6.2 C 96 % 5.61 C
2667 30-11-2018 06:15:00 6.3 C 96 % 5.71 C
2668 30-11-2018 06:20:00 6.3 C 96 % 5.71 C
2669 30-11-2018 06:25:00 6.3 C 96 % 5.71 C
2670 30-11-2018 06:30:00 6.3 C 96 % 5.71 C
2671 30-11-2018 06:35:00 6.3 C 96 % 5.71 C
2672 30-11-2018 06:40:00 6.4 C 96 % 5.81 C
2673 30-11-2018 06:45:00 6.5 C 96 % 5.91 C
2674 30-11-2018 06:50:00 6.5 C 96 % 5.91 C
2675 30-11-2018 06:55:00 6.5 C 96 % 5.91 C
Sensor: Nr:Datum:Temp:Feuchte:Taupunkt:
Aussen-T/F 2676 30-11-2018 07:00:00 6.6 C 96 % 6.01 C
2677 30-11-2018 07:05:00 6.6 C 96 % 6.01 C
2678 30-11-2018 07:10:00 6.6 C 96 % 6.01 C
2679 30-11-2018 07:15:00 6.7 C 96 % 6.11 C
2680 30-11-2018 07:20:00 6.7 C 96 % 6.11 C
2681 30-11-2018 07:25:00 6.8 C 96 % 6.21 C
2682 30-11-2018 07:30:00 6.8 C 96 % 6.21 C
2683 30-11-2018 07:35:00 6.8 C 96 % 6.21 C
2684 30-11-2018 07:40:00 6.8 C 96 % 6.21 C
2685 30-11-2018 07:45:00 6.8 C 96 % 6.21 C
2686 30-11-2018 07:50:00 6.8 C 96 % 6.21 C
2687 30-11-2018 07:55:00 6.8 C 96 % 6.21 C
2688 30-11-2018 08:00:00 6.7 C 96 % 6.11 C
2689 30-11-2018 08:05:00 6.7 C 96 % 6.11 C
2690 30-11-2018 08:10:00 6.7 C 96 % 6.11 C
2691 30-11-2018 08:15:00 6.6 C 96 % 6.01 C
2692 30-11-2018 08:20:00 6.6 C 96 % 6.01 C
2693 30-11-2018 08:25:00 6.5 C 96 % 5.91 C
2694 30-11-2018 08:30:00 6.4 C 96 % 5.81 C
2695 30-11-2018 08:35:00 6.4 C 96 % 5.81 C
2696 30-11-2018 08:40:00 6.3 C 96 % 5.71 C
2697 30-11-2018 08:45:00 6.3 C 96 % 5.71 C
2698 30-11-2018 08:50:00 6.3 C 96 % 5.71 C
2699 30-11-2018 08:55:00 6.4 C 96 % 5.81 C
2700 30-11-2018 09:00:00 6.4 C 97 % 5.96 C
Sensor: Nr:Datum:Temp:Feuchte:Taupunkt:
Aussen-T/F 2701 30-11-2018 09:05:00 6.5 C 97 % 6.06 C
2702 30-11-2018 09:10:00 6.6 C 97 % 6.16 C
2703 30-11-2018 09:15:00 6.6 C 97 % 6.16 C
2704 30-11-2018 09:20:00 6.7 C 97 % 6.26 C
2705 30-11-2018 09:25:00 6.7 C 97 % 6.26 C
2706 30-11-2018 09:30:00 6.7 C 97 % 6.26 C
2707 30-11-2018 09:35:00 6.8 C 97 % 6.36 C
2708 30-11-2018 09:40:00 6.9 C 97 % 6.46 C
2709 30-11-2018 09:45:00 7 C 97 % 6.56 C
2710 30-11-2018 09:50:00 7 C 97 % 6.56 C
2711 30-11-2018 09:55:00 7 C 97 % 6.56 C
2712 30-11-2018 10:00:00 7.1 C 97 % 6.66 C
2713 30-11-2018 10:05:00 7.1 C 97 % 6.66 C
2714 30-11-2018 10:10:00 7.1 C 97 % 6.66 C
2715 30-11-2018 10:15:00 7.2 C 97 % 6.76 C
2716 30-11-2018 10:20:00 7.3 C 97 % 6.86 C
2717 30-11-2018 10:25:00 7.3 C 97 % 6.86 C
2718 30-11-2018 10:30:00 7.3 C 97 % 6.86 C
2719 30-11-2018 10:35:00 7.4 C 97 % 6.96 C
2720 30-11-2018 10:40:00 7.4 C 97 % 6.96 C
2721 30-11-2018 10:45:00 7.4 C 97 % 6.96 C
2722 30-11-2018 10:50:00 7.4 C 97 % 6.96 C
2723 30-11-2018 10:55:00 7.5 C 97 % 7.06 C
2724 30-11-2018 11:00:00 7.5 C 97 % 7.06 C
2725 30-11-2018 11:05:00 7.6 C 97 % 7.16 C
Sensor: Nr:Datum:Temp:Feuchte:Taupunkt:
Aussen-T/F 2726 30-11-2018 11:10:00 7.6 C 97 % 7.16 C
2727 30-11-2018 11:15:00 7.7 C 97 % 7.25 C
2728 30-11-2018 11:20:00 7.8 C 97 % 7.35 C
2729 30-11-2018 11:25:00 7.9 C 97 % 7.45 C
2730 30-11-2018 11:30:00 7.9 C 97 % 7.45 C
2731 30-11-2018 11:35:00 8 C 97 % 7.55 C
2732 30-11-2018 11:40:00 8.1 C 97 % 7.65 C
2733 30-11-2018 11:45:00 8.1 C 97 % 7.65 C
2734 30-11-2018 11:50:00 8.2 C 97 % 7.75 C
2735 30-11-2018 11:55:00 8.2 C 97 % 7.75 C
2736 30-11-2018 12:00:00 8.2 C 97 % 7.75 C
2737 30-11-2018 12:05:00 8.3 C 97 % 7.85 C
2738 30-11-2018 12:10:00 8.4 C 97 % 7.95 C
2739 30-11-2018 12:15:00 8.4 C 97 % 7.95 C
2740 30-11-2018 12:20:00 8.5 C 97 % 8.05 C
2741 30-11-2018 12:25:00 8.5 C 97 % 8.05 C
2742 30-11-2018 12:30:00 8.5 C 97 % 8.05 C
2743 30-11-2018 12:35:00 8.4 C 97 % 7.95 C
2744 30-11-2018 12:40:00 8.4 C 97 % 7.95 C
2745 30-11-2018 12:45:00 8.4 C 97 % 7.95 C
2746 30-11-2018 12:50:00 8.5 C 96 % 7.9 C
2747 30-11-2018 12:55:00 8.6 C 96 % 8 C
2748 30-11-2018 13:00:00 8.7 C 97 % 8.25 C
2749 30-11-2018 13:05:00 8.7 C 97 % 8.25 C
2750 30-11-2018 13:10:00 8.7 C 96 % 8.1 C
Sensor: Nr:Datum:Temp:Feuchte:Taupunkt:
Aussen-T/F 2751 30-11-2018 13:15:00 8.8 C 96 % 8.2 C
2752 30-11-2018 13:20:00 8.8 C 96 % 8.2 C
2753 30-11-2018 13:25:00 8.9 C 97 % 8.45 C
2754 30-11-2018 13:30:00 9.1 C 97 % 8.65 C
2755 30-11-2018 13:35:00 9.2 C 96 % 8.6 C
2756 30-11-2018 13:40:00 9.3 C 96 % 8.7 C
2757 30-11-2018 13:45:00 9.3 C 96 % 8.7 C
2758 30-11-2018 13:50:00 9.4 C 96 % 8.8 C
2759 30-11-2018 13:55:00 9.6 C 96 % 8.99 C
2760 30-11-2018 14:00:00 9.7 C 97 % 9.25 C
2761 30-11-2018 14:05:00 9.8 C 96 % 9.19 C
2762 30-11-2018 14:10:00 9.7 C 96 % 9.09 C
2763 30-11-2018 14:15:00 9.7 C 95 % 8.94 C
2764 30-11-2018 14:20:00 9.6 C 95 % 8.84 C
2765 30-11-2018 14:25:00 9.6 C 95 % 8.84 C
2766 30-11-2018 14:30:00 9.6 C 95 % 8.84 C
2767 30-11-2018 14:35:00 9.4 C 94 % 8.48 C
2768 30-11-2018 14:40:00 9.4 C 94 % 8.48 C
2769 30-11-2018 14:45:00 9.5 C 94 % 8.58 C
2770 30-11-2018 14:50:00 9.5 C 94 % 8.58 C
2771 30-11-2018 14:55:00 9.5 C 94 % 8.58 C
2772 30-11-2018 15:00:00 9.5 C 94 % 8.58 C
2773 30-11-2018 15:05:00 9.5 C 94 % 8.58 C
2774 30-11-2018 15:10:00 9.4 C 93 % 8.33 C
2775 30-11-2018 15:15:00 9.4 C 93 % 8.33 C
Sensor: Nr:Datum:Temp:Feuchte:Taupunkt:
Aussen-T/F 2776 30-11-2018 15:20:00 9.3 C 93 % 8.23 C
2777 30-11-2018 15:25:00 9.3 C 93 % 8.23 C
2778 30-11-2018 15:30:00 9.2 C 93 % 8.13 C
2779 30-11-2018 15:35:00 9.2 C 92 % 7.97 C
2780 30-11-2018 15:40:00 9.2 C 92 % 7.97 C
2781 30-11-2018 15:45:00 9.2 C 92 % 7.97 C
2782 30-11-2018 15:50:00 9.2 C 92 % 7.97 C
2783 30-11-2018 15:55:00 9.2 C 92 % 7.97 C
2784 30-11-2018 16:00:00 9.1 C 92 % 7.87 C
2785 30-11-2018 16:05:00 9.1 C 92 % 7.87 C
2786 30-11-2018 16:10:00 9.1 C 92 % 7.87 C
2787 30-11-2018 16:15:00 9.1 C 92 % 7.87 C
2788 30-11-2018 16:20:00 9.1 C 92 % 7.87 C
2789 30-11-2018 16:25:00 9 C 92 % 7.77 C
2790 30-11-2018 16:30:00 9 C 92 % 7.77 C
2791 30-11-2018 16:35:00 8.9 C 93 % 7.83 C
2792 30-11-2018 16:40:00 8.9 C 93 % 7.83 C
2793 30-11-2018 16:45:00 8.9 C 93 % 7.83 C
2794 30-11-2018 16:50:00 8.9 C 93 % 7.83 C
2795 30-11-2018 16:55:00 8.9 C 93 % 7.83 C
2796 30-11-2018 17:00:00 8.9 C 93 % 7.83 C
2797 30-11-2018 17:05:00 8.9 C 93 % 7.83 C
2798 30-11-2018 17:10:00 8.9 C 93 % 7.83 C
2799 30-11-2018 17:15:00 8.9 C 93 % 7.83 C
2800 30-11-2018 17:20:00 8.8 C 93 % 7.73 C
Sensor: Nr:Datum:Temp:Feuchte:Taupunkt:
Aussen-T/F 2801 30-11-2018 17:25:00 8.8 C 93 % 7.73 C
2802 30-11-2018 17:30:00 8.8 C 93 % 7.73 C
2803 30-11-2018 17:35:00 8.8 C 93 % 7.73 C
2804 30-11-2018 17:40:00 8.8 C 93 % 7.73 C
2805 30-11-2018 17:45:00 8.8 C 93 % 7.73 C
2806 30-11-2018 17:50:00 8.9 C 93 % 7.83 C
2807 30-11-2018 17:55:00 8.9 C 93 % 7.83 C
2808 30-11-2018 18:00:00 8.9 C 93 % 7.83 C
2809 30-11-2018 18:05:00 8.9 C 93 % 7.83 C
2810 30-11-2018 18:10:00 8.8 C 93 % 7.73 C
2811 30-11-2018 18:15:00 8.7 C 93 % 7.63 C
2812 30-11-2018 18:20:00 8.6 C 93 % 7.53 C
2813 30-11-2018 18:25:00 8.4 C 93 % 7.34 C
2814 30-11-2018 18:30:00 8.3 C 93 % 7.24 C
2815 30-11-2018 18:35:00 8.3 C 93 % 7.24 C
2816 30-11-2018 18:40:00 8.2 C 93 % 7.14 C
2817 30-11-2018 18:45:00 8.2 C 93 % 7.14 C
2818 30-11-2018 18:50:00 8.2 C 94 % 7.29 C
2819 30-11-2018 18:55:00 8.2 C 94 % 7.29 C
2820 30-11-2018 19:00:00 8.3 C 94 % 7.39 C
2821 30-11-2018 19:05:00 8.3 C 94 % 7.39 C
2822 30-11-2018 19:10:00 8.3 C 94 % 7.39 C
2823 30-11-2018 19:15:00 8.3 C 94 % 7.39 C
2824 30-11-2018 19:20:00 8.3 C 94 % 7.39 C
2825 30-11-2018 19:25:00 8.3 C 94 % 7.39 C
Sensor: Nr:Datum:Temp:Feuchte:Taupunkt:
Aussen-T/F 2826 30-11-2018 19:30:00 8.3 C 94 % 7.39 C
2827 30-11-2018 19:35:00 8.3 C 94 % 7.39 C
2828 30-11-2018 19:40:00 8.3 C 94 % 7.39 C
2829 30-11-2018 19:45:00 8.3 C 94 % 7.39 C
2830 30-11-2018 19:50:00 8.2 C 95 % 7.45 C
2831 30-11-2018 19:55:00 8.2 C 94 % 7.29 C
2832 30-11-2018 20:00:00 8.1 C 94 % 7.19 C
2833 30-11-2018 20:05:00 7.9 C 94 % 7 C
2834 30-11-2018 20:10:00 7.7 C 94 % 6.8 C
2835 30-11-2018 20:15:00 7.5 C 93 % 6.44 C
2836 30-11-2018 20:20:00 7.3 C 93 % 6.25 C
2837 30-11-2018 20:25:00 7.2 C 94 % 6.3 C
2838 30-11-2018 20:30:00 7.1 C 94 % 6.2 C
2839 30-11-2018 20:35:00 7 C 94 % 6.1 C
2840 30-11-2018 20:40:00 7 C 95 % 6.26 C
2841 30-11-2018 20:45:00 7.2 C 95 % 6.45 C
2842 30-11-2018 20:50:00 7.5 C 96 % 6.9 C
2843 30-11-2018 20:55:00 7.8 C 96 % 7.2 C
2844 30-11-2018 21:00:00 8 C 96 % 7.4 C
2845 30-11-2018 21:05:00 8.1 C 96 % 7.5 C
2846 30-11-2018 21:10:00 8.2 C 95 % 7.45 C
2847 30-11-2018 21:15:00 8.3 C 95 % 7.55 C
2848 30-11-2018 21:20:00 8.3 C 94 % 7.39 C
2849 30-11-2018 21:25:00 8.3 C 94 % 7.39 C
2850 30-11-2018 21:30:00 8.3 C 93 % 7.24 C
Sensor: Nr:Datum:Temp:Feuchte:Taupunkt:
Aussen-T/F 2851 30-11-2018 21:35:00 8.3 C 93 % 7.24 C
2852 30-11-2018 21:40:00 8.2 C 93 % 7.14 C
2853 30-11-2018 21:45:00 8.1 C 92 % 6.88 C
2854 30-11-2018 21:50:00 7.9 C 92 % 6.68 C
2855 30-11-2018 21:55:00 7.8 C 92 % 6.58 C
2856 30-11-2018 22:00:00 7.7 C 92 % 6.48 C
2857 30-11-2018 22:05:00 7.5 C 92 % 6.29 C
2858 30-11-2018 22:10:00 7.4 C 93 % 6.34 C
2859 30-11-2018 22:15:00 7.3 C 92 % 6.09 C
2860 30-11-2018 22:20:00 7.2 C 93 % 6.15 C
2861 30-11-2018 22:25:00 7.1 C 93 % 6.05 C
2862 30-11-2018 22:30:00 6.9 C 93 % 5.85 C
2863 30-11-2018 22:35:00 6.8 C 93 % 5.75 C
2864 30-11-2018 22:40:00 6.8 C 94 % 5.9 C
2865 30-11-2018 22:45:00 6.8 C 94 % 5.9 C
2866 30-11-2018 22:50:00 6.7 C 94 % 5.8 C
2867 30-11-2018 22:55:00 6.5 C 93 % 5.45 C
2868 30-11-2018 23:00:00 6.3 C 94 % 5.41 C
2869 30-11-2018 23:05:00 6.2 C 93 % 5.15 C
2870 30-11-2018 23:10:00 6.1 C 93 % 5.06 C
2871 30-11-2018 23:15:00 5.9 C 93 % 4.86 C
2872 30-11-2018 23:20:00 5.8 C 94 % 4.91 C
2873 30-11-2018 23:25:00 5.7 C 94 % 4.81 C
2874 30-11-2018 23:30:00 5.7 C 94 % 4.81 C
2875 30-11-2018 23:35:00 5.6 C 94 % 4.71 C
Sensor: Nr:Datum:Temp:Feuchte:Taupunkt:
Aussen-T/F 2876 30-11-2018 23:40:00 5.5 C 94 % 4.61 C
2877 30-11-2018 23:45:00 5.4 C 94 % 4.51 C
2878 30-11-2018 23:50:00 5.4 C 94 % 4.51 C
2879 30-11-2018 23:55:00 5.4 C 95 % 4.66 C
2880 01-12-2018 00:00:00 5.3 C 95 % 4.57 C
2881 01-12-2018 00:05:00 5.3 C 95 % 4.57 C
2882 01-12-2018 00:10:00 5.2 C 95 % 4.47 C
2883 01-12-2018 00:15:00 5.2 C 95 % 4.47 C
2884 01-12-2018 00:20:00 5.2 C 95 % 4.47 C
2885 01-12-2018 00:25:00 5.2 C 95 % 4.47 C
2886 01-12-2018 00:30:00 5.2 C 95 % 4.47 C
2887 01-12-2018 00:35:00 5.3 C 96 % 4.72 C
2888 01-12-2018 00:40:00 5.5 C 96 % 4.91 C
2889 01-12-2018 00:45:00 5.6 C 96 % 5.01 C
2890 01-12-2018 00:50:00 5.4 C 96 % 4.81 C
2891 01-12-2018 00:55:00 5.2 C 95 % 4.47 C
2892 01-12-2018 01:00:00 5.1 C 95 % 4.37 C
2893 01-12-2018 01:05:00 5 C 95 % 4.27 C
2894 01-12-2018 01:10:00 5 C 96 % 4.42 C
2895 01-12-2018 01:15:00 5.1 C 96 % 4.52 C
2896 01-12-2018 01:20:00 5.3 C 96 % 4.72 C
2897 01-12-2018 01:25:00 5.3 C 96 % 4.72 C
2898 01-12-2018 01:30:00 5.3 C 96 % 4.72 C
2899 01-12-2018 01:35:00 5.4 C 96 % 4.81 C
2900 01-12-2018 01:40:00 5.5 C 96 % 4.91 C
Sensor: Nr:Datum:Temp:Feuchte:Taupunkt:
Aussen-T/F 2901 01-12-2018 01:45:00 5.6 C 96 % 5.01 C
2902 01-12-2018 01:50:00 5.8 C 97 % 5.36 C
2903 01-12-2018 01:55:00 5.8 C 97 % 5.36 C
2904 01-12-2018 02:00:00 5.9 C 96 % 5.31 C
2905 01-12-2018 02:05:00 5.9 C 96 % 5.31 C
2906 01-12-2018 02:10:00 6 C 96 % 5.41 C
2907 01-12-2018 02:15:00 6 C 97 % 5.56 C
2908 01-12-2018 02:20:00 6 C 97 % 5.56 C
2909 01-12-2018 02:25:00 6 C 96 % 5.41 C
2910 01-12-2018 02:30:00 5.9 C 96 % 5.31 C
2911 01-12-2018 02:35:00 5.9 C 96 % 5.31 C
2912 01-12-2018 02:40:00 5.8 C 96 % 5.21 C
2913 01-12-2018 02:45:00 5.7 C 96 % 5.11 C
2914 01-12-2018 02:50:00 5.7 C 96 % 5.11 C
2915 01-12-2018 02:55:00 5.6 C 96 % 5.01 C
2916 01-12-2018 03:00:00 5.5 C 96 % 4.91 C
2917 01-12-2018 03:05:00 5.4 C 96 % 4.81 C
2918 01-12-2018 03:10:00 5.3 C 96 % 4.72 C
2919 01-12-2018 03:15:00 5.2 C 96 % 4.62 C
2920 01-12-2018 03:20:00 5.1 C 96 % 4.52 C
2921 01-12-2018 03:25:00 5.1 C 96 % 4.52 C
2922 01-12-2018 03:30:00 5.1 C 96 % 4.52 C
2923 01-12-2018 03:35:00 5.2 C 96 % 4.62 C
2924 01-12-2018 03:40:00 5.2 C 96 % 4.62 C
2925 01-12-2018 03:45:00 5.3 C 96 % 4.72 C
Sensor: Nr:Datum:Temp:Feuchte:Taupunkt:
Aussen-T/F 2926 01-12-2018 03:50:00 5.3 C 96 % 4.72 C
2927 01-12-2018 03:55:00 5.3 C 96 % 4.72 C
2928 01-12-2018 04:00:00 5.4 C 96 % 4.81 C
2929 01-12-2018 04:05:00 5.4 C 96 % 4.81 C
2930 01-12-2018 04:10:00 5.3 C 96 % 4.72 C
2931 01-12-2018 04:15:00 5.3 C 96 % 4.72 C
2932 01-12-2018 04:20:00 5.2 C 96 % 4.62 C
2933 01-12-2018 04:25:00 5.1 C 96 % 4.52 C
2934 01-12-2018 04:30:00 5.1 C 96 % 4.52 C
2935 01-12-2018 04:35:00 5.1 C 96 % 4.52 C
2936 01-12-2018 04:40:00 5.1 C 96 % 4.52 C
2937 01-12-2018 04:45:00 4.9 C 96 % 4.32 C
2938 01-12-2018 04:50:00 4.9 C 96 % 4.32 C
2939 01-12-2018 04:55:00 4.8 C 96 % 4.22 C
2940 01-12-2018 05:00:00 4.8 C 96 % 4.22 C
2941 01-12-2018 05:05:00 4.8 C 96 % 4.22 C
2942 01-12-2018 05:10:00 4.8 C 96 % 4.22 C
2943 01-12-2018 05:15:00 4.8 C 96 % 4.22 C
2944 01-12-2018 05:20:00 4.8 C 96 % 4.22 C
2945 01-12-2018 05:25:00 4.9 C 96 % 4.32 C
2946 01-12-2018 05:30:00 4.9 C 96 % 4.32 C
2947 01-12-2018 05:35:00 4.9 C 96 % 4.32 C
2948 01-12-2018 05:40:00 4.9 C 96 % 4.32 C
2949 01-12-2018 05:45:00 5 C 97 % 4.56 C
2950 01-12-2018 05:50:00 5.1 C 97 % 4.66 C
Sensor: Nr:Datum:Temp:Feuchte:Taupunkt:
Aussen-T/F 2951 01-12-2018 05:55:00 5.2 C 97 % 4.76 C
2952 01-12-2018 06:00:00 5.2 C 97 % 4.76 C
2953 01-12-2018 06:05:00 5.3 C 97 % 4.86 C
2954 01-12-2018 06:10:00 5.3 C 97 % 4.86 C
2955 01-12-2018 06:15:00 5.4 C 97 % 4.96 C
2956 01-12-2018 06:20:00 5.5 C 97 % 5.06 C
2957 01-12-2018 06:25:00 5.7 C 97 % 5.26 C
2958 01-12-2018 06:30:00 5.7 C 97 % 5.26 C
2959 01-12-2018 06:35:00 5.7 C 97 % 5.26 C
2960 01-12-2018 06:40:00 5.7 C 97 % 5.26 C
2961 01-12-2018 06:45:00 5.7 C 97 % 5.26 C
2962 01-12-2018 06:50:00 5.6 C 97 % 5.16 C
2963 01-12-2018 06:55:00 5.6 C 97 % 5.16 C
2964 01-12-2018 07:00:00 5.6 C 97 % 5.16 C
2965 01-12-2018 07:05:00 5.6 C 97 % 5.16 C
2966 01-12-2018 07:10:00 5.8 C 97 % 5.36 C
2967 01-12-2018 07:15:00 5.8 C 97 % 5.36 C
2968 01-12-2018 07:20:00 5.8 C 97 % 5.36 C
2969 01-12-2018 07:25:00 6 C 97 % 5.56 C
2970 01-12-2018 07:30:00 6.2 C 97 % 5.76 C
2971 01-12-2018 07:35:00 6.4 C 97 % 5.96 C
2972 01-12-2018 07:40:00 6.5 C 97 % 6.06 C
2973 01-12-2018 07:45:00 6.6 C 97 % 6.16 C
2974 01-12-2018 07:50:00 6.6 C 97 % 6.16 C
2975 01-12-2018 07:55:00 6.6 C 97 % 6.16 C
Sensor: Nr:Datum:Temp:Feuchte:Taupunkt:
Aussen-T/F 2976 01-12-2018 08:00:00 6.5 C 97 % 6.06 C
2977 01-12-2018 08:05:00 6.4 C 96 % 5.81 C
2978 01-12-2018 08:10:00 6.3 C 96 % 5.71 C
2979 01-12-2018 08:15:00 6.2 C 96 % 5.61 C
2980 01-12-2018 08:20:00 6.3 C 96 % 5.71 C
2981 01-12-2018 08:25:00 6.4 C 96 % 5.81 C
2982 01-12-2018 08:30:00 6.6 C 96 % 6.01 C
2983 01-12-2018 08:35:00 6.6 C 96 % 6.01 C
2984 01-12-2018 08:40:00 6.7 C 97 % 6.26 C
2985 01-12-2018 08:45:00 6.8 C 97 % 6.36 C
2986 01-12-2018 08:50:00 7 C 97 % 6.56 C
2987 01-12-2018 08:55:00 7.1 C 96 % 6.51 C
2988 01-12-2018 09:00:00 7.1 C 96 % 6.51 C
2989 01-12-2018 09:05:00 7.2 C 96 % 6.61 C
2990 01-12-2018 09:10:00 7.2 C 96 % 6.61 C
2991 01-12-2018 09:15:00 7.1 C 96 % 6.51 C
2992 01-12-2018 09:20:00 7.1 C 96 % 6.51 C
2993 01-12-2018 09:25:00 7.1 C 96 % 6.51 C
2994 01-12-2018 09:30:00 7.1 C 96 % 6.51 C
2995 01-12-2018 09:35:00 7.2 C 96 % 6.61 C
2996 01-12-2018 09:40:00 7.3 C 96 % 6.71 C
2997 01-12-2018 09:45:00 7.3 C 96 % 6.71 C
2998 01-12-2018 09:50:00 7.4 C 96 % 6.8 C
2999 01-12-2018 09:55:00 7.6 C 96 % 7 C
3000 01-12-2018 10:00:00 7.7 C 96 % 7.1 C
Sensor: Nr:Datum:Temp:Feuchte:Taupunkt:
Aussen-T/F 3001 01-12-2018 10:05:00 7.7 C 96 % 7.1 C
3002 01-12-2018 10:10:00 7.8 C 96 % 7.2 C
3003 01-12-2018 10:15:00 7.8 C 95 % 7.05 C
3004 01-12-2018 10:20:00 7.8 C 95 % 7.05 C
3005 01-12-2018 10:25:00 7.9 C 95 % 7.15 C
3006 01-12-2018 10:30:00 7.9 C 95 % 7.15 C
3007 01-12-2018 10:35:00 7.9 C 95 % 7.15 C
3008 01-12-2018 10:40:00 8.1 C 95 % 7.35 C
3009 01-12-2018 10:45:00 8.2 C 95 % 7.45 C
3010 01-12-2018 10:50:00 8.3 C 94 % 7.39 C
3011 01-12-2018 10:55:00 8.4 C 93 % 7.34 C
3012 01-12-2018 11:00:00 8.6 C 93 % 7.53 C
3013 01-12-2018 11:05:00 8.7 C 92 % 7.47 C
3014 01-12-2018 11:10:00 8.7 C 91 % 7.32 C
3015 01-12-2018 11:15:00 8.8 C 91 % 7.41 C
3016 01-12-2018 11:20:00 8.8 C 90 % 7.25 C
3017 01-12-2018 11:25:00 8.9 C 90 % 7.35 C
3018 01-12-2018 11:30:00 9 C 89 % 7.29 C
3019 01-12-2018 11:35:00 9.1 C 89 % 7.39 C
3020 01-12-2018 11:40:00 9.2 C 89 % 7.48 C
3021 01-12-2018 11:45:00 9.2 C 88 % 7.32 C
3022 01-12-2018 11:50:00 9.3 C 88 % 7.42 C
3023 01-12-2018 11:55:00 9.4 C 88 % 7.52 C
3024 01-12-2018 12:00:00 9.4 C 88 % 7.52 C
3025 01-12-2018 12:05:00 9.6 C 88 % 7.71 C
Sensor: Nr:Datum:Temp:Feuchte:Taupunkt:
Aussen-T/F 3026 01-12-2018 12:10:00 9.6 C 87 % 7.55 C
3027 01-12-2018 12:15:00 9.7 C 87 % 7.64 C
3028 01-12-2018 12:20:00 9.7 C 86 % 7.47 C
3029 01-12-2018 12:25:00 9.7 C 86 % 7.47 C
3030 01-12-2018 12:30:00 9.7 C 86 % 7.47 C
3031 01-12-2018 12:35:00 9.8 C 86 % 7.57 C
3032 01-12-2018 12:40:00 9.9 C 86 % 7.67 C
3033 01-12-2018 12:45:00 9.9 C 85 % 7.5 C
3034 01-12-2018 12:50:00 10 C 85 % 7.6 C
3035 01-12-2018 12:55:00 10 C 85 % 7.6 C
3036 01-12-2018 13:00:00 9.9 C 84 % 7.33 C
3037 01-12-2018 13:05:00 9.9 C 84 % 7.33 C
3038 01-12-2018 13:10:00 9.9 C 84 % 7.33 C
3039 01-12-2018 13:15:00 9.8 C 83 % 7.05 C
3040 01-12-2018 13:20:00 9.8 C 83 % 7.05 C
3041 01-12-2018 13:25:00 9.8 C 83 % 7.05 C
3042 01-12-2018 13:30:00 9.8 C 83 % 7.05 C
3043 01-12-2018 13:35:00 9.8 C 82 % 6.88 C
3044 01-12-2018 13:40:00 9.8 C 83 % 7.05 C
3045 01-12-2018 13:45:00 9.7 C 83 % 6.96 C
3046 01-12-2018 13:50:00 9.7 C 82 % 6.78 C
3047 01-12-2018 13:55:00 9.6 C 83 % 6.86 C
3048 01-12-2018 14:00:00 9.5 C 84 % 6.94 C
3049 01-12-2018 14:05:00 9.3 C 83 % 6.57 C
3050 01-12-2018 14:10:00 9.3 C 84 % 6.74 C
Sensor: Nr:Datum:Temp:Feuchte:Taupunkt:
Aussen-T/F 3051 01-12-2018 14:15:00 9.3 C 84 % 6.74 C
3052 01-12-2018 14:20:00 9.3 C 84 % 6.74 C
3053 01-12-2018 14:25:00 9.4 C 84 % 6.84 C
3054 01-12-2018 14:30:00 9.5 C 82 % 6.59 C
3055 01-12-2018 14:35:00 9.6 C 81 % 6.5 C
3056 01-12-2018 14:40:00 9.7 C 82 % 6.78 C
3057 01-12-2018 14:45:00 9.7 C 81 % 6.6 C
3058 01-12-2018 14:50:00 9.7 C 82 % 6.78 C
3059 01-12-2018 14:55:00 9.7 C 82 % 6.78 C
3060 01-12-2018 15:00:00 9.7 C 82 % 6.78 C
3061 01-12-2018 15:05:00 9.7 C 82 % 6.78 C
3062 01-12-2018 15:10:00 9.7 C 83 % 6.96 C
3063 01-12-2018 15:15:00 9.7 C 83 % 6.96 C
3064 01-12-2018 15:20:00 9.5 C 83 % 6.76 C
3065 01-12-2018 15:25:00 9.4 C 83 % 6.66 C
3066 01-12-2018 15:30:00 9.4 C 84 % 6.84 C
3067 01-12-2018 15:35:00 9.4 C 85 % 7.01 C
3068 01-12-2018 15:40:00 9.3 C 85 % 6.91 C
3069 01-12-2018 15:45:00 9.3 C 86 % 7.08 C
3070 01-12-2018 15:50:00 9.3 C 85 % 6.91 C
3071 01-12-2018 15:55:00 9.3 C 86 % 7.08 C
3072 01-12-2018 16:00:00 9.2 C 86 % 6.98 C
3073 01-12-2018 16:05:00 9.2 C 86 % 6.98 C
3074 01-12-2018 16:10:00 9.1 C 86 % 6.89 C
3075 01-12-2018 16:15:00 9.1 C 84 % 6.54 C
Sensor: Nr:Datum:Temp:Feuchte:Taupunkt:
Aussen-T/F 3076 01-12-2018 16:20:00 9.1 C 85 % 6.72 C
3077 01-12-2018 16:25:00 9.1 C 85 % 6.72 C
3078 01-12-2018 16:30:00 9 C 84 % 6.45 C
3079 01-12-2018 16:35:00 9 C 85 % 6.62 C
3080 01-12-2018 16:40:00 8.9 C 85 % 6.52 C
3081 01-12-2018 16:45:00 8.8 C 85 % 6.42 C
3082 01-12-2018 16:50:00 8.8 C 85 % 6.42 C
3083 01-12-2018 16:55:00 8.8 C 85 % 6.42 C
3084 01-12-2018 17:00:00 8.8 C 84 % 6.25 C
3085 01-12-2018 17:05:00 8.9 C 84 % 6.35 C
3086 01-12-2018 17:10:00 8.9 C 86 % 6.69 C
3087 01-12-2018 17:15:00 8.9 C 86 % 6.69 C
3088 01-12-2018 17:20:00 8.9 C 88 % 7.02 C
3089 01-12-2018 17:25:00 8.8 C 89 % 7.09 C
3090 01-12-2018 17:30:00 8.6 C 89 % 6.89 C
3091 01-12-2018 17:35:00 8.5 C 90 % 6.96 C
3092 01-12-2018 17:40:00 8.4 C 91 % 7.02 C
3093 01-12-2018 17:45:00 8.3 C 91 % 6.92 C
3094 01-12-2018 17:50:00 8.2 C 91 % 6.82 C
3095 01-12-2018 17:55:00 8.1 C 92 % 6.88 C
3096 01-12-2018 18:00:00 8 C 92 % 6.78 C
3097 01-12-2018 18:05:00 7.9 C 92 % 6.68 C
3098 01-12-2018 18:10:00 7.9 C 93 % 6.84 C
3099 01-12-2018 18:15:00 7.8 C 93 % 6.74 C
3100 01-12-2018 18:20:00 7.8 C 93 % 6.74 C
Sensor: Nr:Datum:Temp:Feuchte:Taupunkt:
Aussen-T/F 3101 01-12-2018 18:25:00 7.7 C 93 % 6.64 C
3102 01-12-2018 18:30:00 7.7 C 93 % 6.64 C
3103 01-12-2018 18:35:00 7.6 C 94 % 6.7 C
3104 01-12-2018 18:40:00 7.6 C 93 % 6.54 C
3105 01-12-2018 18:45:00 7.5 C 93 % 6.44 C
3106 01-12-2018 18:50:00 7.5 C 93 % 6.44 C
3107 01-12-2018 18:55:00 7.6 C 93 % 6.54 C
3108 01-12-2018 19:00:00 7.6 C 93 % 6.54 C
3109 01-12-2018 19:05:00 7.6 C 93 % 6.54 C
3110 01-12-2018 19:10:00 7.6 C 93 % 6.54 C
3111 01-12-2018 19:15:00 7.6 C 93 % 6.54 C
3112 01-12-2018 19:20:00 7.7 C 92 % 6.48 C
3113 01-12-2018 19:25:00 7.8 C 92 % 6.58 C
3114 01-12-2018 19:30:00 7.9 C 92 % 6.68 C
3115 01-12-2018 19:35:00 8 C 91 % 6.62 C
3116 01-12-2018 19:40:00 8.1 C 91 % 6.72 C
3117 01-12-2018 19:45:00 8.1 C 90 % 6.56 C
3118 01-12-2018 19:50:00 8.2 C 89 % 6.5 C
3119 01-12-2018 19:55:00 8.3 C 89 % 6.6 C
3120 01-12-2018 20:00:00 8.3 C 88 % 6.43 C
3121 01-12-2018 20:05:00 8.3 C 89 % 6.6 C
3122 01-12-2018 20:10:00 8.3 C 88 % 6.43 C
3123 01-12-2018 20:15:00 8.4 C 88 % 6.53 C
3124 01-12-2018 20:20:00 8.4 C 88 % 6.53 C
3125 01-12-2018 20:25:00 8.4 C 88 % 6.53 C
Sensor: Nr:Datum:Temp:Feuchte:Taupunkt:
Aussen-T/F 3126 01-12-2018 20:30:00 8.4 C 88 % 6.53 C
3127 01-12-2018 20:35:00 8.4 C 89 % 6.7 C
3128 01-12-2018 20:40:00 8.3 C 89 % 6.6 C
3129 01-12-2018 20:45:00 8.3 C 88 % 6.43 C
3130 01-12-2018 20:50:00 8.3 C 89 % 6.6 C
3131 01-12-2018 20:55:00 8.3 C 89 % 6.6 C
3132 01-12-2018 21:00:00 8.3 C 89 % 6.6 C
3133 01-12-2018 21:05:00 8.3 C 89 % 6.6 C
3134 01-12-2018 21:10:00 8.3 C 89 % 6.6 C
3135 01-12-2018 21:15:00 8.3 C 89 % 6.6 C
3136 01-12-2018 21:20:00 8.3 C 89 % 6.6 C
3137 01-12-2018 21:25:00 8.3 C 89 % 6.6 C
3138 01-12-2018 21:30:00 8.4 C 89 % 6.7 C
3139 01-12-2018 21:35:00 8.4 C 89 % 6.7 C
3140 01-12-2018 21:40:00 8.6 C 88 % 6.73 C
3141 01-12-2018 21:45:00 8.6 C 88 % 6.73 C
3142 01-12-2018 21:50:00 8.6 C 89 % 6.89 C
3143 01-12-2018 21:55:00 8.6 C 89 % 6.89 C
3144 01-12-2018 22:00:00 8.6 C 89 % 6.89 C
3145 01-12-2018 22:05:00 8.6 C 90 % 7.06 C
3146 01-12-2018 22:10:00 8.5 C 90 % 6.96 C
3147 01-12-2018 22:15:00 8.4 C 90 % 6.86 C
3148 01-12-2018 22:20:00 8.4 C 90 % 6.86 C
3149 01-12-2018 22:25:00 8.3 C 90 % 6.76 C
3150 01-12-2018 22:30:00 8.3 C 91 % 6.92 C
Sensor: Nr:Datum:Temp:Feuchte:Taupunkt:
Aussen-T/F 3151 01-12-2018 22:35:00 8.3 C 90 % 6.76 C
3152 01-12-2018 22:40:00 8.3 C 90 % 6.76 C
3153 01-12-2018 22:45:00 8.3 C 91 % 6.92 C
3154 01-12-2018 22:50:00 8.3 C 91 % 6.92 C
3155 01-12-2018 22:55:00 8.3 C 91 % 6.92 C
3156 01-12-2018 23:00:00 8.3 C 91 % 6.92 C
3157 01-12-2018 23:05:00 8.4 C 91 % 7.02 C
3158 01-12-2018 23:10:00 8.4 C 91 % 7.02 C
3159 01-12-2018 23:15:00 8.6 C 90 % 7.06 C
3160 01-12-2018 23:20:00 8.7 C 90 % 7.15 C
3161 01-12-2018 23:25:00 8.7 C 89 % 6.99 C
3162 01-12-2018 23:30:00 8.8 C 89 % 7.09 C
3163 01-12-2018 23:35:00 8.8 C 89 % 7.09 C
3164 01-12-2018 23:40:00 8.9 C 89 % 7.19 C
3165 01-12-2018 23:45:00 8.9 C 89 % 7.19 C
3166 01-12-2018 23:50:00 8.9 C 89 % 7.19 C
3167 01-12-2018 23:55:00 8.9 C 89 % 7.19 C
3168 02-12-2018 00:00:00 8.9 C 89 % 7.19 C
3169 02-12-2018 00:05:00 8.9 C 89 % 7.19 C
3170 02-12-2018 00:10:00 8.9 C 89 % 7.19 C
3171 02-12-2018 00:15:00 9.1 C 88 % 7.22 C
3172 02-12-2018 00:20:00 9.1 C 89 % 7.39 C
3173 02-12-2018 00:25:00 9.1 C 89 % 7.39 C
3174 02-12-2018 00:30:00 9.1 C 88 % 7.22 C
3175 02-12-2018 00:35:00 9.2 C 89 % 7.48 C
Sensor: Nr:Datum:Temp:Feuchte:Taupunkt:
Aussen-T/F 3176 02-12-2018 00:40:00 9.2 C 88 % 7.32 C
3177 02-12-2018 00:45:00 9.2 C 88 % 7.32 C
3178 02-12-2018 00:50:00 9.2 C 88 % 7.32 C
3179 02-12-2018 00:55:00 9.3 C 88 % 7.42 C
3180 02-12-2018 01:00:00 9.3 C 88 % 7.42 C
3181 02-12-2018 01:05:00 9.3 C 88 % 7.42 C
3182 02-12-2018 01:10:00 9.3 C 88 % 7.42 C
3183 02-12-2018 01:15:00 9.3 C 88 % 7.42 C
3184 02-12-2018 01:20:00 9.3 C 88 % 7.42 C
3185 02-12-2018 01:25:00 9.3 C 88 % 7.42 C
3186 02-12-2018 01:30:00 9.4 C 88 % 7.52 C
3187 02-12-2018 01:35:00 9.4 C 88 % 7.52 C
3188 02-12-2018 01:40:00 9.6 C 87 % 7.55 C
3189 02-12-2018 01:45:00 9.6 C 87 % 7.55 C
3190 02-12-2018 01:50:00 9.6 C 87 % 7.55 C
3191 02-12-2018 01:55:00 9.7 C 87 % 7.64 C
3192 02-12-2018 02:00:00 9.7 C 87 % 7.64 C
3193 02-12-2018 02:05:00 9.7 C 87 % 7.64 C
3194 02-12-2018 02:10:00 9.8 C 87 % 7.74 C
3195 02-12-2018 02:15:00 9.8 C 87 % 7.74 C
3196 02-12-2018 02:20:00 9.8 C 87 % 7.74 C
3197 02-12-2018 02:25:00 9.7 C 87 % 7.64 C
3198 02-12-2018 02:30:00 9.7 C 87 % 7.64 C
3199 02-12-2018 02:35:00 9.8 C 87 % 7.74 C
3200 02-12-2018 02:40:00 9.8 C 87 % 7.74 C
Sensor: Nr:Datum:Temp:Feuchte:Taupunkt:
Aussen-T/F 3201 02-12-2018 02:45:00 9.8 C 87 % 7.74 C
3202 02-12-2018 02:50:00 9.8 C 87 % 7.74 C
3203 02-12-2018 02:55:00 9.8 C 87 % 7.74 C
3204 02-12-2018 03:00:00 9.8 C 87 % 7.74 C
3205 02-12-2018 03:05:00 9.8 C 87 % 7.74 C
3206 02-12-2018 03:10:00 9.8 C 87 % 7.74 C
3207 02-12-2018 03:15:00 9.9 C 87 % 7.84 C
3208 02-12-2018 03:20:00 9.9 C 87 % 7.84 C
3209 02-12-2018 03:25:00 9.9 C 87 % 7.84 C
3210 02-12-2018 03:30:00 10 C 87 % 7.94 C
3211 02-12-2018 03:35:00 9.9 C 87 % 7.84 C
3212 02-12-2018 03:40:00 9.9 C 87 % 7.84 C
3213 02-12-2018 03:45:00 9.9 C 87 % 7.84 C
3214 02-12-2018 03:50:00 10.1 C 87 % 8.04 C
3215 02-12-2018 03:55:00 10.1 C 87 % 8.04 C
3216 02-12-2018 04:00:00 10.1 C 87 % 8.04 C
3217 02-12-2018 04:05:00 10.1 C 87 % 8.04 C
3218 02-12-2018 04:10:00 10.1 C 88 % 8.21 C
3219 02-12-2018 04:15:00 9.9 C 89 % 8.17 C
3220 02-12-2018 04:20:00 9.8 C 90 % 8.24 C
3221 02-12-2018 04:25:00 9.6 C 91 % 8.21 C
3222 02-12-2018 04:30:00 9.5 C 91 % 8.11 C
3223 02-12-2018 04:35:00 9.4 C 92 % 8.17 C
3224 02-12-2018 04:40:00 9.3 C 92 % 8.07 C
3225 02-12-2018 04:45:00 9.2 C 93 % 8.13 C
Sensor: Nr:Datum:Temp:Feuchte:Taupunkt:
Aussen-T/F 3226 02-12-2018 04:50:00 9.1 C 93 % 8.03 C
3227 02-12-2018 04:55:00 9 C 93 % 7.93 C
3228 02-12-2018 05:00:00 8.9 C 94 % 7.99 C
3229 02-12-2018 05:05:00 8.9 C 94 % 7.99 C
3230 02-12-2018 05:10:00 8.8 C 94 % 7.89 C
3231 02-12-2018 05:15:00 8.8 C 94 % 7.89 C
3232 02-12-2018 05:20:00 8.8 C 94 % 7.89 C
3233 02-12-2018 05:25:00 8.7 C 95 % 7.94 C
3234 02-12-2018 05:30:00 8.7 C 95 % 7.94 C
3235 02-12-2018 05:35:00 8.7 C 95 % 7.94 C
3236 02-12-2018 05:40:00 8.7 C 95 % 7.94 C
3237 02-12-2018 05:45:00 8.7 C 95 % 7.94 C
3238 02-12-2018 05:50:00 8.7 C 95 % 7.94 C
3239 02-12-2018 05:55:00 8.7 C 95 % 7.94 C
3240 02-12-2018 06:00:00 8.7 C 95 % 7.94 C
3241 02-12-2018 06:05:00 8.7 C 95 % 7.94 C
3242 02-12-2018 06:10:00 8.7 C 95 % 7.94 C
3243 02-12-2018 06:15:00 8.7 C 96 % 8.1 C
3244 02-12-2018 06:20:00 8.7 C 96 % 8.1 C
3245 02-12-2018 06:25:00 8.7 C 96 % 8.1 C
3246 02-12-2018 06:30:00 8.7 C 96 % 8.1 C
3247 02-12-2018 06:35:00 8.8 C 96 % 8.2 C
3248 02-12-2018 06:40:00 8.8 C 96 % 8.2 C
3249 02-12-2018 06:45:00 8.8 C 96 % 8.2 C
3250 02-12-2018 06:50:00 8.8 C 96 % 8.2 C
Sensor: Nr:Datum:Temp:Feuchte:Taupunkt:
Aussen-T/F 3251 02-12-2018 06:55:00 8.8 C 96 % 8.2 C
3252 02-12-2018 07:00:00 8.8 C 96 % 8.2 C
3253 02-12-2018 07:05:00 8.9 C 96 % 8.3 C
3254 02-12-2018 07:10:00 8.9 C 96 % 8.3 C
3255 02-12-2018 07:15:00 8.9 C 96 % 8.3 C
3256 02-12-2018 07:20:00 8.9 C 96 % 8.3 C
3257 02-12-2018 07:25:00 8.9 C 96 % 8.3 C
3258 02-12-2018 07:30:00 8.9 C 96 % 8.3 C
3259 02-12-2018 07:35:00 9 C 96 % 8.4 C
3260 02-12-2018 07:40:00 9 C 96 % 8.4 C
3261 02-12-2018 07:45:00 9 C 96 % 8.4 C
3262 02-12-2018 07:50:00 9.1 C 96 % 8.5 C
3263 02-12-2018 07:55:00 9.1 C 96 % 8.5 C
3264 02-12-2018 08:00:00 9.1 C 96 % 8.5 C
3265 02-12-2018 08:05:00 9.1 C 96 % 8.5 C
3266 02-12-2018 08:10:00 9.1 C 97 % 8.65 C
3267 02-12-2018 08:15:00 9.1 C 97 % 8.65 C
3268 02-12-2018 08:20:00 9.1 C 97 % 8.65 C
3269 02-12-2018 08:25:00 9.1 C 97 % 8.65 C
3270 02-12-2018 08:30:00 9.1 C 96 % 8.5 C
3271 02-12-2018 08:35:00 9.2 C 97 % 8.75 C
3272 02-12-2018 08:40:00 9.2 C 97 % 8.75 C
3273 02-12-2018 08:45:00 9.2 C 97 % 8.75 C
3274 02-12-2018 08:50:00 9.2 C 97 % 8.75 C
3275 02-12-2018 08:55:00 9.3 C 97 % 8.85 C
Sensor: Nr:Datum:Temp:Feuchte:Taupunkt:
Aussen-T/F 3276 02-12-2018 09:00:00 9.4 C 97 % 8.95 C
3277 02-12-2018 09:05:00 9.4 C 97 % 8.95 C
3278 02-12-2018 09:10:00 9.4 C 97 % 8.95 C
3279 02-12-2018 09:15:00 9.5 C 97 % 9.05 C
3280 02-12-2018 09:20:00 9.5 C 97 % 9.05 C
3281 02-12-2018 09:25:00 9.6 C 97 % 9.15 C
3282 02-12-2018 09:30:00 9.6 C 97 % 9.15 C
3283 02-12-2018 09:35:00 9.7 C 97 % 9.25 C
3284 02-12-2018 09:40:00 9.8 C 97 % 9.35 C
3285 02-12-2018 09:45:00 9.8 C 97 % 9.35 C
3286 02-12-2018 09:50:00 9.8 C 97 % 9.35 C
3287 02-12-2018 09:55:00 9.8 C 97 % 9.35 C
3288 02-12-2018 10:00:00 9.9 C 97 % 9.45 C
3289 02-12-2018 10:05:00 9.9 C 97 % 9.45 C
3290 02-12-2018 10:10:00 9.9 C 97 % 9.45 C
3291 02-12-2018 10:15:00 9.9 C 97 % 9.45 C
3292 02-12-2018 10:20:00 10 C 97 % 9.55 C
3293 02-12-2018 10:25:00 10.1 C 97 % 9.65 C
3294 02-12-2018 10:30:00 10.1 C 97 % 9.65 C
3295 02-12-2018 10:35:00 10.2 C 96 % 9.59 C
3296 02-12-2018 10:40:00 10.2 C 96 % 9.59 C
3297 02-12-2018 10:45:00 10.3 C 96 % 9.69 C
3298 02-12-2018 10:50:00 10.3 C 96 % 9.69 C
3299 02-12-2018 10:55:00 10.4 C 96 % 9.79 C
3300 02-12-2018 11:00:00 10.4 C 96 % 9.79 C
Sensor: Nr:Datum:Temp:Feuchte:Taupunkt:
Aussen-T/F 3301 02-12-2018 11:05:00 10.5 C 96 % 9.89 C
3302 02-12-2018 11:10:00 10.6 C 96 % 9.99 C
3303 02-12-2018 11:15:00 10.7 C 96 % 10.09 C
3304 02-12-2018 11:20:00 10.7 C 96 % 10.09 C
3305 02-12-2018 11:25:00 10.8 C 96 % 10.19 C
3306 02-12-2018 11:30:00 10.9 C 96 % 10.29 C
3307 02-12-2018 11:35:00 11.1 C 96 % 10.49 C
3308 02-12-2018 11:40:00 11.2 C 95 % 10.43 C
3309 02-12-2018 11:45:00 11.2 C 95 % 10.43 C
3310 02-12-2018 11:50:00 11.3 C 95 % 10.53 C
3311 02-12-2018 11:55:00 11.4 C 95 % 10.63 C
3312 02-12-2018 12:00:00 11.5 C 95 % 10.73 C
3313 02-12-2018 12:05:00 11.6 C 95 % 10.83 C
3314 02-12-2018 12:10:00 11.7 C 95 % 10.93 C
3315 02-12-2018 12:15:00 11.8 C 95 % 11.03 C
3316 02-12-2018 12:20:00 11.9 C 94 % 10.97 C
3317 02-12-2018 12:25:00 12.1 C 94 % 11.16 C
3318 02-12-2018 12:30:00 12.3 C 94 % 11.36 C
3319 02-12-2018 12:35:00 12.4 C 94 % 11.46 C
3320 02-12-2018 12:40:00 12.5 C 93 % 11.4 C
3321 02-12-2018 12:45:00 12.6 C 93 % 11.5 C
3322 02-12-2018 12:50:00 12.7 C 93 % 11.6 C
3323 02-12-2018 12:55:00 12.8 C 93 % 11.7 C
3324 02-12-2018 13:00:00 12.8 C 92 % 11.53 C
3325 02-12-2018 13:05:00 12.8 C 92 % 11.53 C
Sensor: Nr:Datum:Temp:Feuchte:Taupunkt:
Aussen-T/F 3326 02-12-2018 13:10:00 12.9 C 92 % 11.63 C
3327 02-12-2018 13:15:00 13.1 C 92 % 11.83 C
3328 02-12-2018 13:20:00 13.1 C 92 % 11.83 C
3329 02-12-2018 13:25:00 13.2 C 92 % 11.93 C
3330 02-12-2018 13:30:00 13.2 C 91 % 11.76 C
3331 02-12-2018 13:35:00 13.2 C 91 % 11.76 C
3332 02-12-2018 13:40:00 13.2 C 91 % 11.76 C
3333 02-12-2018 13:45:00 13.2 C 91 % 11.76 C
3334 02-12-2018 13:50:00 13.2 C 91 % 11.76 C
3335 02-12-2018 13:55:00 13.3 C 92 % 12.03 C
3336 02-12-2018 14:00:00 13.3 C 92 % 12.03 C
3337 02-12-2018 14:05:00 13.3 C 92 % 12.03 C
3338 02-12-2018 14:10:00 13.3 C 92 % 12.03 C
3339 02-12-2018 14:15:00 13.3 C 92 % 12.03 C
3340 02-12-2018 14:20:00 13.3 C 92 % 12.03 C
3341 02-12-2018 14:25:00 13.4 C 92 % 12.13 C
3342 02-12-2018 14:30:00 13.4 C 92 % 12.13 C
3343 02-12-2018 14:35:00 13.4 C 92 % 12.13 C
3344 02-12-2018 14:40:00 13.5 C 92 % 12.23 C
3345 02-12-2018 14:45:00 13.5 C 92 % 12.23 C
3346 02-12-2018 14:50:00 13.5 C 92 % 12.23 C
3347 02-12-2018 14:55:00 13.4 C 92 % 12.13 C
3348 02-12-2018 15:00:00 13.4 C 92 % 12.13 C
3349 02-12-2018 15:05:00 13.4 C 92 % 12.13 C
3350 02-12-2018 15:10:00 13.4 C 92 % 12.13 C
Sensor: Nr:Datum:Temp:Feuchte:Taupunkt:
Aussen-T/F 3351 02-12-2018 15:15:00 13.4 C 92 % 12.13 C
3352 02-12-2018 15:20:00 13.5 C 92 % 12.23 C
3353 02-12-2018 15:25:00 13.6 C 92 % 12.33 C
3354 02-12-2018 15:30:00 13.7 C 92 % 12.42 C
3355 02-12-2018 15:35:00 13.7 C 92 % 12.42 C
3356 02-12-2018 15:40:00 13.8 C 92 % 12.52 C
3357 02-12-2018 15:45:00 13.7 C 92 % 12.42 C
3358 02-12-2018 15:50:00 13.7 C 92 % 12.42 C
3359 02-12-2018 15:55:00 13.7 C 92 % 12.42 C
3360 02-12-2018 16:00:00 13.7 C 92 % 12.42 C
3361 02-12-2018 16:05:00 13.7 C 92 % 12.42 C
3362 02-12-2018 16:10:00 13.7 C 93 % 12.59 C
3363 02-12-2018 16:15:00 13.6 C 93 % 12.49 C
3364 02-12-2018 16:20:00 13.5 C 92 % 12.23 C
3365 02-12-2018 16:25:00 13.3 C 92 % 12.03 C
3366 02-12-2018 16:30:00 13.2 C 92 % 11.93 C
3367 02-12-2018 16:35:00 12.9 C 93 % 11.8 C
3368 02-12-2018 16:40:00 12.8 C 93 % 11.7 C
3369 02-12-2018 16:45:00 12.8 C 94 % 11.86 C
3370 02-12-2018 16:50:00 12.9 C 94 % 11.96 C
3371 02-12-2018 16:55:00 12.9 C 94 % 11.96 C
3372 02-12-2018 17:00:00 12.8 C 94 % 11.86 C
3373 02-12-2018 17:05:00 12.8 C 94 % 11.86 C
3374 02-12-2018 17:10:00 12.8 C 94 % 11.86 C
3375 02-12-2018 17:15:00 12.8 C 95 % 12.02 C
Sensor: Nr:Datum:Temp:Feuchte:Taupunkt:
Aussen-T/F 3376 02-12-2018 17:20:00 12.9 C 95 % 12.12 C
3377 02-12-2018 17:25:00 13.1 C 95 % 12.32 C
3378 02-12-2018 17:30:00 13.1 C 95 % 12.32 C
3379 02-12-2018 17:35:00 13.2 C 94 % 12.26 C
3380 02-12-2018 17:40:00 13.3 C 94 % 12.36 C
3381 02-12-2018 17:45:00 13.3 C 94 % 12.36 C
3382 02-12-2018 17:50:00 13.3 C 94 % 12.36 C
3383 02-12-2018 17:55:00 13.4 C 93 % 12.29 C
3384 02-12-2018 18:00:00 13.4 C 93 % 12.29 C
3385 02-12-2018 18:05:00 13.4 C 93 % 12.29 C
3386 02-12-2018 18:10:00 13.5 C 93 % 12.39 C
3387 02-12-2018 18:15:00 13.5 C 92 % 12.23 C
3388 02-12-2018 18:20:00 13.6 C 93 % 12.49 C
3389 02-12-2018 18:25:00 13.7 C 92 % 12.42 C
3390 02-12-2018 18:30:00 13.8 C 92 % 12.52 C
3391 02-12-2018 18:35:00 13.9 C 92 % 12.62 C
3392 02-12-2018 18:40:00 13.9 C 91 % 12.46 C
3393 02-12-2018 18:45:00 13.9 C 91 % 12.46 C
3394 02-12-2018 18:50:00 13.9 C 91 % 12.46 C
3395 02-12-2018 18:55:00 14 C 92 % 12.72 C
3396 02-12-2018 19:00:00 14 C 92 % 12.72 C
3397 02-12-2018 19:05:00 14 C 92 % 12.72 C
3398 02-12-2018 19:10:00 13.9 C 92 % 12.62 C
3399 02-12-2018 19:15:00 13.8 C 92 % 12.52 C
3400 02-12-2018 19:20:00 13.7 C 93 % 12.59 C
Sensor: Nr:Datum:Temp:Feuchte:Taupunkt:
Aussen-T/F 3401 02-12-2018 19:25:00 13.6 C 93 % 12.49 C
3402 02-12-2018 19:30:00 13.6 C 93 % 12.49 C
3403 02-12-2018 19:35:00 13.6 C 93 % 12.49 C
3404 02-12-2018 19:40:00 13.6 C 94 % 12.65 C
3405 02-12-2018 19:45:00 13.6 C 93 % 12.49 C
3406 02-12-2018 19:50:00 13.6 C 93 % 12.49 C
3407 02-12-2018 19:55:00 13.6 C 93 % 12.49 C
3408 02-12-2018 20:00:00 13.5 C 93 % 12.39 C
3409 02-12-2018 20:05:00 13.4 C 93 % 12.29 C
3410 02-12-2018 20:10:00 13.2 C 93 % 12.09 C
3411 02-12-2018 20:15:00 13.1 C 93 % 11.99 C
3412 02-12-2018 20:20:00 13 C 93 % 11.9 C
3413 02-12-2018 20:25:00 12.9 C 93 % 11.8 C
3414 02-12-2018 20:30:00 12.9 C 94 % 11.96 C
3415 02-12-2018 20:35:00 12.9 C 94 % 11.96 C
3416 02-12-2018 20:40:00 12.9 C 94 % 11.96 C
3417 02-12-2018 20:45:00 12.8 C 94 % 11.86 C
3418 02-12-2018 20:50:00 12.8 C 94 % 11.86 C
3419 02-12-2018 20:55:00 12.7 C 94 % 11.76 C
3420 02-12-2018 21:00:00 12.7 C 94 % 11.76 C
3421 02-12-2018 21:05:00 12.7 C 94 % 11.76 C
3422 02-12-2018 21:10:00 12.8 C 95 % 12.02 C
3423 02-12-2018 21:15:00 12.8 C 95 % 12.02 C
3424 02-12-2018 21:20:00 12.8 C 95 % 12.02 C
3425 02-12-2018 21:25:00 12.8 C 95 % 12.02 C
Sensor: Nr:Datum:Temp:Feuchte:Taupunkt:
Aussen-T/F 3426 02-12-2018 21:30:00 12.9 C 95 % 12.12 C
3427 02-12-2018 21:35:00 12.9 C 95 % 12.12 C
3428 02-12-2018 21:40:00 12.8 C 95 % 12.02 C
3429 02-12-2018 21:45:00 12.8 C 95 % 12.02 C
3430 02-12-2018 21:50:00 12.8 C 95 % 12.02 C
3431 02-12-2018 21:55:00 12.8 C 95 % 12.02 C
3432 02-12-2018 22:00:00 12.7 C 95 % 11.92 C
3433 02-12-2018 22:05:00 12.6 C 95 % 11.82 C
3434 02-12-2018 22:10:00 12.6 C 95 % 11.82 C
3435 02-12-2018 22:15:00 12.5 C 95 % 11.72 C
3436 02-12-2018 22:20:00 12.5 C 95 % 11.72 C
3437 02-12-2018 22:25:00 12.5 C 95 % 11.72 C
3438 02-12-2018 22:30:00 12.4 C 95 % 11.62 C
3439 02-12-2018 22:35:00 12.4 C 95 % 11.62 C
3440 02-12-2018 22:40:00 12.4 C 95 % 11.62 C
3441 02-12-2018 22:45:00 12.4 C 96 % 11.78 C
3442 02-12-2018 22:50:00 12.4 C 95 % 11.62 C
3443 02-12-2018 22:55:00 12.4 C 95 % 11.62 C
3444 02-12-2018 23:00:00 12.3 C 96 % 11.68 C
3445 02-12-2018 23:05:00 12.3 C 96 % 11.68 C
3446 02-12-2018 23:10:00 12.3 C 96 % 11.68 C
3447 02-12-2018 23:15:00 12.3 C 96 % 11.68 C
3448 02-12-2018 23:20:00 12.3 C 96 % 11.68 C
3449 02-12-2018 23:25:00 12.4 C 96 % 11.78 C
3450 02-12-2018 23:30:00 12.4 C 96 % 11.78 C
Sensor: Nr:Datum:Temp:Feuchte:Taupunkt:
Aussen-T/F 3451 02-12-2018 23:35:00 12.4 C 96 % 11.78 C
3452 02-12-2018 23:40:00 12.5 C 96 % 11.88 C
3453 02-12-2018 23:45:00 12.7 C 96 % 12.08 C
3454 02-12-2018 23:50:00 12.8 C 97 % 12.34 C
3455 02-12-2018 23:55:00 12.9 C 97 % 12.44 C
3456 03-12-2018 00:00:00 13.1 C 97 % 12.63 C
3457 03-12-2018 00:05:00 13.1 C 97 % 12.63 C
3458 03-12-2018 00:10:00 13.1 C 96 % 12.48 C
3459 03-12-2018 00:15:00 12.9 C 96 % 12.28 C
3460 03-12-2018 00:20:00 12.9 C 96 % 12.28 C
3461 03-12-2018 00:25:00 12.8 C 96 % 12.18 C
3462 03-12-2018 00:30:00 12.8 C 96 % 12.18 C
3463 03-12-2018 00:35:00 12.8 C 96 % 12.18 C
3464 03-12-2018 00:40:00 12.8 C 96 % 12.18 C
3465 03-12-2018 00:45:00 12.7 C 96 % 12.08 C
3466 03-12-2018 00:50:00 12.7 C 96 % 12.08 C
3467 03-12-2018 00:55:00 12.7 C 96 % 12.08 C
3468 03-12-2018 01:00:00 12.6 C 96 % 11.98 C
3469 03-12-2018 01:05:00 12.5 C 96 % 11.88 C
3470 03-12-2018 01:10:00 12.5 C 96 % 11.88 C
3471 03-12-2018 01:15:00 12.4 C 96 % 11.78 C
3472 03-12-2018 01:20:00 12.4 C 96 % 11.78 C
3473 03-12-2018 01:25:00 12.4 C 96 % 11.78 C
3474 03-12-2018 01:30:00 12.4 C 96 % 11.78 C
3475 03-12-2018 01:35:00 12.4 C 95 % 11.62 C
Sensor: Nr:Datum:Temp:Feuchte:Taupunkt:
Aussen-T/F 3476 03-12-2018 01:40:00 12.4 C 95 % 11.62 C
3477 03-12-2018 01:45:00 12.3 C 95 % 11.52 C
3478 03-12-2018 01:50:00 12.3 C 95 % 11.52 C
3479 03-12-2018 01:55:00 12.3 C 95 % 11.52 C
3480 03-12-2018 02:00:00 12.2 C 95 % 11.42 C
3481 03-12-2018 02:05:00 12.1 C 95 % 11.32 C
3482 03-12-2018 02:10:00 12.1 C 95 % 11.32 C
3483 03-12-2018 02:15:00 12 C 95 % 11.22 C
3484 03-12-2018 02:20:00 12.1 C 96 % 11.48 C
3485 03-12-2018 02:25:00 12.2 C 96 % 11.58 C
3486 03-12-2018 02:30:00 12.3 C 96 % 11.68 C
3487 03-12-2018 02:35:00 12.2 C 95 % 11.42 C
3488 03-12-2018 02:40:00 12.2 C 95 % 11.42 C
3489 03-12-2018 02:45:00 12.1 C 95 % 11.32 C
3490 03-12-2018 02:50:00 11.9 C 95 % 11.13 C
3491 03-12-2018 02:55:00 11.8 C 95 % 11.03 C
3492 03-12-2018 03:00:00 11.7 C 95 % 10.93 C
3493 03-12-2018 03:05:00 11.7 C 95 % 10.93 C
3494 03-12-2018 03:10:00 11.7 C 96 % 11.08 C
3495 03-12-2018 03:15:00 11.7 C 96 % 11.08 C
3496 03-12-2018 03:20:00 11.8 C 96 % 11.18 C
3497 03-12-2018 03:25:00 11.8 C 96 % 11.18 C
3498 03-12-2018 03:30:00 11.8 C 96 % 11.18 C
3499 03-12-2018 03:35:00 11.7 C 96 % 11.08 C
3500 03-12-2018 03:40:00 11.8 C 96 % 11.18 C
Sensor: Nr:Datum:Temp:Feuchte:Taupunkt:
Aussen-T/F 3501 03-12-2018 03:45:00 11.8 C 96 % 11.18 C
3502 03-12-2018 03:50:00 11.9 C 96 % 11.28 C
3503 03-12-2018 03:55:00 12 C 96 % 11.38 C
3504 03-12-2018 04:00:00 12.1 C 97 % 11.64 C
3505 03-12-2018 04:05:00 12.2 C 96 % 11.58 C
3506 03-12-2018 04:10:00 12.2 C 96 % 11.58 C
3507 03-12-2018 04:15:00 12.2 C 96 % 11.58 C
3508 03-12-2018 04:20:00 12.3 C 96 % 11.68 C
3509 03-12-2018 04:25:00 12.4 C 96 % 11.78 C
3510 03-12-2018 04:30:00 12.4 C 96 % 11.78 C
3511 03-12-2018 04:35:00 12.5 C 96 % 11.88 C
3512 03-12-2018 04:40:00 12.6 C 96 % 11.98 C
3513 03-12-2018 04:45:00 12.6 C 96 % 11.98 C
3514 03-12-2018 04:50:00 12.6 C 96 % 11.98 C
3515 03-12-2018 04:55:00 12.6 C 96 % 11.98 C
3516 03-12-2018 05:00:00 12.6 C 96 % 11.98 C
3517 03-12-2018 05:05:00 12.5 C 96 % 11.88 C
3518 03-12-2018 05:10:00 12.5 C 96 % 11.88 C
3519 03-12-2018 05:15:00 12.4 C 96 % 11.78 C
3520 03-12-2018 05:20:00 12.4 C 96 % 11.78 C
3521 03-12-2018 05:25:00 12.3 C 96 % 11.68 C
3522 03-12-2018 05:30:00 12.3 C 96 % 11.68 C
3523 03-12-2018 05:35:00 12.3 C 96 % 11.68 C
3524 03-12-2018 05:40:00 12.2 C 96 % 11.58 C
3525 03-12-2018 05:45:00 12.2 C 96 % 11.58 C
Sensor: Nr:Datum:Temp:Feuchte:Taupunkt:
Aussen-T/F 3526 03-12-2018 05:50:00 12.1 C 96 % 11.48 C
3527 03-12-2018 05:55:00 12.1 C 96 % 11.48 C
3528 03-12-2018 06:00:00 12 C 96 % 11.38 C
3529 03-12-2018 06:05:00 11.9 C 96 % 11.28 C
3530 03-12-2018 06:10:00 11.9 C 96 % 11.28 C
3531 03-12-2018 06:15:00 11.8 C 96 % 11.18 C
3532 03-12-2018 06:20:00 11.8 C 96 % 11.18 C
3533 03-12-2018 06:25:00 11.8 C 96 % 11.18 C
3534 03-12-2018 06:30:00 11.8 C 96 % 11.18 C
3535 03-12-2018 06:35:00 11.9 C 96 % 11.28 C
3536 03-12-2018 06:40:00 11.9 C 97 % 11.44 C
3537 03-12-2018 06:45:00 12.1 C 97 % 11.64 C
3538 03-12-2018 06:50:00 12.1 C 97 % 11.64 C
3539 03-12-2018 06:55:00 12.2 C 97 % 11.74 C
3540 03-12-2018 07:00:00 12.2 C 97 % 11.74 C
3541 03-12-2018 07:05:00 12.2 C 97 % 11.74 C
3542 03-12-2018 07:10:00 12.2 C 97 % 11.74 C
3543 03-12-2018 07:15:00 12.2 C 97 % 11.74 C
3544 03-12-2018 07:20:00 12.2 C 97 % 11.74 C
3545 03-12-2018 07:25:00 12.1 C 97 % 11.64 C
3546 03-12-2018 07:30:00 11.9 C 96 % 11.28 C
3547 03-12-2018 07:35:00 11.8 C 97 % 11.34 C
3548 03-12-2018 07:40:00 11.8 C 97 % 11.34 C
3549 03-12-2018 07:45:00 11.7 C 97 % 11.24 C
3550 03-12-2018 07:50:00 11.7 C 97 % 11.24 C
Sensor: Nr:Datum:Temp:Feuchte:Taupunkt:
Aussen-T/F 3551 03-12-2018 07:55:00 11.8 C 97 % 11.34 C
3552 03-12-2018 08:00:00 11.8 C 97 % 11.34 C
3553 03-12-2018 08:05:00 11.9 C 97 % 11.44 C
3554 03-12-2018 08:10:00 11.9 C 97 % 11.44 C
3555 03-12-2018 08:15:00 12 C 97 % 11.54 C
3556 03-12-2018 08:20:00 12 C 97 % 11.54 C
3557 03-12-2018 08:25:00 11.9 C 97 % 11.44 C
3558 03-12-2018 08:30:00 11.8 C 97 % 11.34 C
3559 03-12-2018 08:35:00 11.8 C 97 % 11.34 C
3560 03-12-2018 08:40:00 11.7 C 97 % 11.24 C
3561 03-12-2018 08:45:00 11.6 C 97 % 11.14 C
3562 03-12-2018 08:50:00 11.8 C 97 % 11.34 C
3563 03-12-2018 08:55:00 11.9 C 97 % 11.44 C
3564 03-12-2018 09:00:00 11.9 C 97 % 11.44 C
3565 03-12-2018 09:05:00 12 C 97 % 11.54 C
3566 03-12-2018 09:10:00 12.1 C 97 % 11.64 C
3567 03-12-2018 09:15:00 12.1 C 97 % 11.64 C
3568 03-12-2018 09:20:00 12.2 C 97 % 11.74 C
3569 03-12-2018 09:25:00 12.2 C 97 % 11.74 C
3570 03-12-2018 09:30:00 12.2 C 97 % 11.74 C
3571 03-12-2018 09:35:00 12.3 C 97 % 11.84 C
3572 03-12-2018 09:40:00 12.3 C 97 % 11.84 C
3573 03-12-2018 09:45:00 12.3 C 97 % 11.84 C
3574 03-12-2018 09:50:00 12.3 C 97 % 11.84 C
3575 03-12-2018 09:55:00 12.2 C 97 % 11.74 C
Sensor: Nr:Datum:Temp:Feuchte:Taupunkt:
Aussen-T/F 3576 03-12-2018 10:00:00 12.2 C 97 % 11.74 C
3577 03-12-2018 10:05:00 12.1 C 97 % 11.64 C
3578 03-12-2018 10:10:00 12.1 C 97 % 11.64 C
3579 03-12-2018 10:15:00 12.1 C 97 % 11.64 C
3580 03-12-2018 10:20:00 12.2 C 97 % 11.74 C
3581 03-12-2018 10:25:00 12.3 C 97 % 11.84 C
3582 03-12-2018 10:30:00 12.3 C 97 % 11.84 C
3583 03-12-2018 10:35:00 12.4 C 97 % 11.94 C
3584 03-12-2018 10:40:00 12.4 C 97 % 11.94 C
3585 03-12-2018 10:45:00 12.6 C 97 % 12.14 C
3586 03-12-2018 10:50:00 12.6 C 97 % 12.14 C
3587 03-12-2018 10:55:00 12.7 C 97 % 12.24 C
3588 03-12-2018 11:00:00 12.8 C 97 % 12.34 C
3589 03-12-2018 11:05:00 12.8 C 97 % 12.34 C
3590 03-12-2018 11:10:00 12.8 C 97 % 12.34 C
3591 03-12-2018 11:15:00 12.8 C 97 % 12.34 C
3592 03-12-2018 11:20:00 12.8 C 97 % 12.34 C
3593 03-12-2018 11:25:00 12.8 C 97 % 12.34 C
3594 03-12-2018 11:30:00 12.9 C 97 % 12.44 C
3595 03-12-2018 11:35:00 12.9 C 97 % 12.44 C
3596 03-12-2018 11:40:00 12.9 C 97 % 12.44 C
3597 03-12-2018 11:45:00 12.8 C 97 % 12.34 C
3598 03-12-2018 11:50:00 12.8 C 97 % 12.34 C
3599 03-12-2018 11:55:00 12.8 C 97 % 12.34 C
3600 03-12-2018 12:00:00 12.9 C 97 % 12.44 C
Sensor: Nr:Datum:Temp:Feuchte:Taupunkt:
Aussen-T/F 3601 03-12-2018 12:05:00 12.9 C 97 % 12.44 C
3602 03-12-2018 12:10:00 12.9 C 97 % 12.44 C
3603 03-12-2018 12:15:00 12.9 C 97 % 12.44 C
3604 03-12-2018 12:20:00 12.9 C 97 % 12.44 C
3605 03-12-2018 12:25:00 12.9 C 96 % 12.28 C
3606 03-12-2018 12:30:00 12.9 C 96 % 12.28 C
3607 03-12-2018 12:35:00 12.9 C 96 % 12.28 C
3608 03-12-2018 12:40:00 12.9 C 96 % 12.28 C
3609 03-12-2018 12:45:00 12.8 C 95 % 12.02 C
3610 03-12-2018 12:50:00 12.8 C 95 % 12.02 C
3611 03-12-2018 12:55:00 12.8 C 95 % 12.02 C
3612 03-12-2018 13:00:00 12.7 C 95 % 11.92 C
3613 03-12-2018 13:05:00 12.6 C 94 % 11.66 C
3614 03-12-2018 13:10:00 12.6 C 94 % 11.66 C
3615 03-12-2018 13:15:00 12.4 C 94 % 11.46 C
3616 03-12-2018 13:20:00 12.4 C 93 % 11.3 C
3617 03-12-2018 13:25:00 12.4 C 94 % 11.46 C
3618 03-12-2018 13:30:00 12.3 C 94 % 11.36 C
3619 03-12-2018 13:35:00 12.3 C 94 % 11.36 C
3620 03-12-2018 13:40:00 12.3 C 94 % 11.36 C
3621 03-12-2018 13:45:00 12.3 C 94 % 11.36 C
3622 03-12-2018 13:50:00 12.3 C 94 % 11.36 C
3623 03-12-2018 13:55:00 12.3 C 94 % 11.36 C
3624 03-12-2018 14:00:00 12.3 C 94 % 11.36 C
3625 03-12-2018 14:05:00 12.3 C 94 % 11.36 C
Sensor: Nr:Datum:Temp:Feuchte:Taupunkt:
Aussen-T/F 3626 03-12-2018 14:10:00 12.3 C 94 % 11.36 C
3627 03-12-2018 14:15:00 12.2 C 94 % 11.26 C
3628 03-12-2018 14:20:00 12.2 C 94 % 11.26 C
3629 03-12-2018 14:25:00 12.2 C 94 % 11.26 C
3630 03-12-2018 14:30:00 12.1 C 95 % 11.32 C
3631 03-12-2018 14:35:00 12.1 C 95 % 11.32 C
3632 03-12-2018 14:40:00 12.1 C 95 % 11.32 C
3633 03-12-2018 14:45:00 12 C 94 % 11.07 C
3634 03-12-2018 14:50:00 11.9 C 95 % 11.13 C
3635 03-12-2018 14:55:00 11.9 C 95 % 11.13 C
3636 03-12-2018 15:00:00 11.9 C 94 % 10.97 C
3637 03-12-2018 15:05:00 11.9 C 94 % 10.97 C
3638 03-12-2018 15:10:00 11.9 C 94 % 10.97 C
3639 03-12-2018 15:15:00 11.9 C 94 % 10.97 C
3640 03-12-2018 15:20:00 11.9 C 94 % 10.97 C
3641 03-12-2018 15:25:00 11.9 C 94 % 10.97 C
3642 03-12-2018 15:30:00 11.8 C 94 % 10.87 C
3643 03-12-2018 15:35:00 11.8 C 94 % 10.87 C
3644 03-12-2018 15:40:00 11.8 C 94 % 10.87 C
3645 03-12-2018 15:45:00 11.7 C 94 % 10.77 C
3646 03-12-2018 15:50:00 11.7 C 94 % 10.77 C
3647 03-12-2018 15:55:00 11.7 C 94 % 10.77 C
3648 03-12-2018 16:00:00 11.6 C 94 % 10.67 C
3649 03-12-2018 16:05:00 11.6 C 94 % 10.67 C
3650 03-12-2018 16:10:00 11.6 C 94 % 10.67 C
Sensor: Nr:Datum:Temp:Feuchte:Taupunkt:
Aussen-T/F 3651 03-12-2018 16:15:00 11.5 C 94 % 10.57 C
3652 03-12-2018 16:20:00 11.6 C 94 % 10.67 C
3653 03-12-2018 16:25:00 11.6 C 94 % 10.67 C
3654 03-12-2018 16:30:00 11.6 C 95 % 10.83 C
3655 03-12-2018 16:35:00 11.6 C 95 % 10.83 C
3656 03-12-2018 16:40:00 11.5 C 95 % 10.73 C
3657 03-12-2018 16:45:00 11.5 C 95 % 10.73 C
3658 03-12-2018 16:50:00 11.5 C 95 % 10.73 C
3659 03-12-2018 16:55:00 11.4 C 95 % 10.63 C
3660 03-12-2018 17:00:00 11.4 C 95 % 10.63 C
3661 03-12-2018 17:05:00 11.4 C 95 % 10.63 C
3662 03-12-2018 17:10:00 11.3 C 95 % 10.53 C
3663 03-12-2018 17:15:00 11.3 C 95 % 10.53 C
3664 03-12-2018 17:20:00 11.3 C 95 % 10.53 C
3665 03-12-2018 17:25:00 11.2 C 95 % 10.43 C
3666 03-12-2018 17:30:00 11.2 C 95 % 10.43 C
3667 03-12-2018 17:35:00 11.2 C 95 % 10.43 C
3668 03-12-2018 17:40:00 11.1 C 95 % 10.33 C
3669 03-12-2018 17:45:00 11.1 C 96 % 10.49 C
3670 03-12-2018 17:50:00 11.1 C 96 % 10.49 C
3671 03-12-2018 17:55:00 11.1 C 96 % 10.49 C
3672 03-12-2018 18:00:00 11.1 C 96 % 10.49 C
3673 03-12-2018 18:05:00 11.1 C 96 % 10.49 C
3674 03-12-2018 18:10:00 11.1 C 96 % 10.49 C
3675 03-12-2018 18:15:00 11.1 C 96 % 10.49 C
Sensor: Nr:Datum:Temp:Feuchte:Taupunkt:
Aussen-T/F 3676 03-12-2018 18:20:00 11.1 C 96 % 10.49 C
3677 03-12-2018 18:25:00 11.1 C 96 % 10.49 C
3678 03-12-2018 18:30:00 11 C 96 % 10.39 C
3679 03-12-2018 18:35:00 11.1 C 96 % 10.49 C
3680 03-12-2018 18:40:00 11.1 C 96 % 10.49 C
3681 03-12-2018 18:45:00 11 C 96 % 10.39 C
3682 03-12-2018 18:50:00 11 C 96 % 10.39 C
3683 03-12-2018 18:55:00 10.9 C 96 % 10.29 C
3684 03-12-2018 19:00:00 10.9 C 96 % 10.29 C
3685 03-12-2018 19:05:00 10.9 C 96 % 10.29 C
3686 03-12-2018 19:10:00 10.8 C 96 % 10.19 C
3687 03-12-2018 19:15:00 10.8 C 96 % 10.19 C
3688 03-12-2018 19:20:00 10.9 C 96 % 10.29 C
3689 03-12-2018 19:25:00 10.9 C 96 % 10.29 C
3690 03-12-2018 19:30:00 10.9 C 96 % 10.29 C
3691 03-12-2018 19:35:00 10.9 C 96 % 10.29 C
3692 03-12-2018 19:40:00 10.9 C 96 % 10.29 C
3693 03-12-2018 19:45:00 10.9 C 96 % 10.29 C
3694 03-12-2018 19:50:00 10.9 C 96 % 10.29 C
3695 03-12-2018 19:55:00 10.9 C 96 % 10.29 C
3696 03-12-2018 20:00:00 10.9 C 96 % 10.29 C
3697 03-12-2018 20:05:00 10.9 C 96 % 10.29 C
3698 03-12-2018 20:10:00 10.9 C 96 % 10.29 C
3699 03-12-2018 20:15:00 10.8 C 96 % 10.19 C
3700 03-12-2018 20:20:00 10.8 C 96 % 10.19 C
Sensor: Nr:Datum:Temp:Feuchte:Taupunkt:
Aussen-T/F 3701 03-12-2018 20:25:00 10.7 C 96 % 10.09 C
3702 03-12-2018 20:30:00 10.8 C 96 % 10.19 C
3703 03-12-2018 20:35:00 10.9 C 96 % 10.29 C
3704 03-12-2018 20:40:00 10.9 C 96 % 10.29 C
3705 03-12-2018 20:45:00 10.9 C 96 % 10.29 C
3706 03-12-2018 20:50:00 11 C 96 % 10.39 C
3707 03-12-2018 20:55:00 10.9 C 96 % 10.29 C
3708 03-12-2018 21:00:00 10.8 C 95 % 10.03 C
3709 03-12-2018 21:05:00 10.7 C 95 % 9.93 C
3710 03-12-2018 21:10:00 10.6 C 95 % 9.83 C
3711 03-12-2018 21:15:00 10.4 C 95 % 9.63 C
3712 03-12-2018 21:20:00 10.3 C 95 % 9.54 C
3713 03-12-2018 21:25:00 10.2 C 95 % 9.44 C
3714 03-12-2018 21:30:00 10.1 C 95 % 9.34 C
3715 03-12-2018 21:35:00 10 C 95 % 9.24 C
3716 03-12-2018 21:40:00 10 C 95 % 9.24 C
3717 03-12-2018 21:45:00 10 C 96 % 9.39 C
3718 03-12-2018 21:50:00 9.9 C 96 % 9.29 C
3719 03-12-2018 21:55:00 9.8 C 96 % 9.19 C
3720 03-12-2018 22:00:00 9.8 C 96 % 9.19 C
3721 03-12-2018 22:05:00 9.8 C 95 % 9.04 C
3722 03-12-2018 22:10:00 9.7 C 95 % 8.94 C
3723 03-12-2018 22:15:00 9.6 C 95 % 8.84 C
3724 03-12-2018 22:20:00 9.6 C 96 % 8.99 C
3725 03-12-2018 22:25:00 9.6 C 96 % 8.99 C
Sensor: Nr:Datum:Temp:Feuchte:Taupunkt:
Aussen-T/F 3726 03-12-2018 22:30:00 9.6 C 96 % 8.99 C
3727 03-12-2018 22:35:00 9.6 C 96 % 8.99 C
3728 03-12-2018 22:40:00 9.7 C 96 % 9.09 C
3729 03-12-2018 22:45:00 9.7 C 96 % 9.09 C
3730 03-12-2018 22:50:00 9.9 C 96 % 9.29 C
3731 03-12-2018 22:55:00 10.2 C 97 % 9.75 C
3732 03-12-2018 23:00:00 10.4 C 97 % 9.94 C
3733 03-12-2018 23:05:00 10.5 C 96 % 9.89 C
3734 03-12-2018 23:10:00 10.6 C 96 % 9.99 C
3735 03-12-2018 23:15:00 10.7 C 95 % 9.93 C
3736 03-12-2018 23:20:00 10.7 C 95 % 9.93 C
3737 03-12-2018 23:25:00 10.7 C 95 % 9.93 C
3738 03-12-2018 23:30:00 10.8 C 95 % 10.03 C
3739 03-12-2018 23:35:00 10.7 C 94 % 9.77 C
3740 03-12-2018 23:40:00 10.7 C 94 % 9.77 C
3741 03-12-2018 23:45:00 10.7 C 94 % 9.77 C
3742 03-12-2018 23:50:00 10.7 C 94 % 9.77 C
3743 03-12-2018 23:55:00 10.6 C 94 % 9.68 C
3744 04-12-2018 00:00:00 10.7 C 94 % 9.77 C
3745 04-12-2018 00:05:00 10.7 C 94 % 9.77 C
3746 04-12-2018 00:10:00 10.7 C 94 % 9.77 C
3747 04-12-2018 00:15:00 10.8 C 94 % 9.87 C
3748 04-12-2018 00:20:00 10.8 C 94 % 9.87 C
3749 04-12-2018 00:25:00 10.8 C 94 % 9.87 C
3750 04-12-2018 00:30:00 10.8 C 94 % 9.87 C
Sensor: Nr:Datum:Temp:Feuchte:Taupunkt:
Aussen-T/F 3751 04-12-2018 00:35:00 10.8 C 94 % 9.87 C
3752 04-12-2018 00:40:00 10.8 C 94 % 9.87 C
3753 04-12-2018 00:45:00 10.8 C 94 % 9.87 C
3754 04-12-2018 00:50:00 10.8 C 94 % 9.87 C
3755 04-12-2018 00:55:00 10.8 C 94 % 9.87 C
3756 04-12-2018 01:00:00 10.7 C 94 % 9.77 C
3757 04-12-2018 01:05:00 10.7 C 94 % 9.77 C
3758 04-12-2018 01:10:00 10.7 C 94 % 9.77 C
3759 04-12-2018 01:15:00 10.7 C 93 % 9.62 C
3760 04-12-2018 01:20:00 10.7 C 93 % 9.62 C
3761 04-12-2018 01:25:00 10.7 C 93 % 9.62 C
3762 04-12-2018 01:30:00 10.7 C 93 % 9.62 C
3763 04-12-2018 01:35:00 10.6 C 93 % 9.52 C
3764 04-12-2018 01:40:00 10.5 C 92 % 9.26 C
3765 04-12-2018 01:45:00 10.4 C 92 % 9.16 C
3766 04-12-2018 01:50:00 10.3 C 92 % 9.06 C
3767 04-12-2018 01:55:00 10.3 C 92 % 9.06 C
3768 04-12-2018 02:00:00 10.3 C 91 % 8.9 C
3769 04-12-2018 02:05:00 10.2 C 90 % 8.64 C
3770 04-12-2018 02:10:00 10.2 C 91 % 8.8 C
3771 04-12-2018 02:15:00 10.2 C 90 % 8.64 C
3772 04-12-2018 02:20:00 10.3 C 90 % 8.73 C
3773 04-12-2018 02:25:00 10.3 C 90 % 8.73 C
3774 04-12-2018 02:30:00 10.4 C 90 % 8.83 C
3775 04-12-2018 02:35:00 10.3 C 89 % 8.57 C
Sensor: Nr:Datum:Temp:Feuchte:Taupunkt:
Aussen-T/F 3776 04-12-2018 02:40:00 10.3 C 89 % 8.57 C
3777 04-12-2018 02:45:00 10.3 C 89 % 8.57 C
3778 04-12-2018 02:50:00 10.3 C 89 % 8.57 C
3779 04-12-2018 02:55:00 10.3 C 89 % 8.57 C
3780 04-12-2018 03:00:00 10.3 C 89 % 8.57 C
3781 04-12-2018 03:05:00 10.2 C 89 % 8.47 C
3782 04-12-2018 03:10:00 10.2 C 88 % 8.3 C
3783 04-12-2018 03:15:00 10.1 C 87 % 8.04 C
3784 04-12-2018 03:20:00 9.9 C 87 % 7.84 C
3785 04-12-2018 03:25:00 9.7 C 88 % 7.81 C
3786 04-12-2018 03:30:00 9.6 C 88 % 7.71 C
3787 04-12-2018 03:35:00 9.4 C 88 % 7.52 C
3788 04-12-2018 03:40:00 9.4 C 88 % 7.52 C
3789 04-12-2018 03:45:00 9.3 C 89 % 7.58 C
3790 04-12-2018 03:50:00 9.2 C 89 % 7.48 C
3791 04-12-2018 03:55:00 9.1 C 89 % 7.39 C
3792 04-12-2018 04:00:00 9 C 89 % 7.29 C
3793 04-12-2018 04:05:00 8.9 C 89 % 7.19 C
3794 04-12-2018 04:10:00 8.9 C 89 % 7.19 C
3795 04-12-2018 04:15:00 8.8 C 90 % 7.25 C
3796 04-12-2018 04:20:00 8.8 C 90 % 7.25 C
3797 04-12-2018 04:25:00 8.8 C 90 % 7.25 C
3798 04-12-2018 04:30:00 8.7 C 90 % 7.15 C
3799 04-12-2018 04:35:00 8.7 C 90 % 7.15 C
3800 04-12-2018 04:40:00 8.6 C 90 % 7.06 C
Sensor: Nr:Datum:Temp:Feuchte:Taupunkt:
Aussen-T/F 3801 04-12-2018 04:45:00 8.6 C 90 % 7.06 C
3802 04-12-2018 04:50:00 8.6 C 90 % 7.06 C
3803 04-12-2018 04:55:00 8.5 C 90 % 6.96 C
3804 04-12-2018 05:00:00 8.5 C 90 % 6.96 C
3805 04-12-2018 05:05:00 8.4 C 91 % 7.02 C
3806 04-12-2018 05:10:00 8.4 C 91 % 7.02 C
3807 04-12-2018 05:15:00 8.4 C 90 % 6.86 C
3808 04-12-2018 05:20:00 8.4 C 90 % 6.86 C
3809 04-12-2018 05:25:00 8.3 C 90 % 6.76 C
3810 04-12-2018 05:30:00 8.3 C 90 % 6.76 C
3811 04-12-2018 05:35:00 8.3 C 90 % 6.76 C
3812 04-12-2018 05:40:00 8.3 C 90 % 6.76 C
3813 04-12-2018 05:45:00 8.3 C 90 % 6.76 C
3814 04-12-2018 05:50:00 8.2 C 90 % 6.66 C
3815 04-12-2018 05:55:00 8.1 C 91 % 6.72 C
3816 04-12-2018 06:00:00 8.1 C 91 % 6.72 C
3817 04-12-2018 06:05:00 7.9 C 91 % 6.52 C
3818 04-12-2018 06:10:00 7.9 C 91 % 6.52 C
3819 04-12-2018 06:15:00 7.8 C 91 % 6.43 C
3820 04-12-2018 06:20:00 7.8 C 91 % 6.43 C
3821 04-12-2018 06:25:00 7.7 C 92 % 6.48 C
3822 04-12-2018 06:30:00 7.7 C 92 % 6.48 C
3823 04-12-2018 06:35:00 7.6 C 92 % 6.39 C
3824 04-12-2018 06:40:00 7.6 C 92 % 6.39 C
3825 04-12-2018 06:45:00 7.6 C 92 % 6.39 C
Sensor: Nr:Datum:Temp:Feuchte:Taupunkt:
Aussen-T/F 3826 04-12-2018 06:50:00 7.6 C 92 % 6.39 C
3827 04-12-2018 06:55:00 7.6 C 92 % 6.39 C
3828 04-12-2018 07:00:00 7.6 C 92 % 6.39 C
3829 04-12-2018 07:05:00 7.6 C 92 % 6.39 C
3830 04-12-2018 07:10:00 7.7 C 92 % 6.48 C
3831 04-12-2018 07:15:00 7.7 C 92 % 6.48 C
3832 04-12-2018 07:20:00 7.7 C 92 % 6.48 C
3833 04-12-2018 07:25:00 7.7 C 92 % 6.48 C
3834 04-12-2018 07:30:00 7.7 C 92 % 6.48 C
3835 04-12-2018 07:35:00 7.7 C 91 % 6.33 C
3836 04-12-2018 07:40:00 7.6 C 91 % 6.23 C
3837 04-12-2018 07:45:00 7.6 C 91 % 6.23 C
3838 04-12-2018 07:50:00 7.5 C 91 % 6.13 C
3839 04-12-2018 07:55:00 7.4 C 91 % 6.03 C
3840 04-12-2018 08:00:00 7.4 C 91 % 6.03 C
3841 04-12-2018 08:05:00 7.4 C 92 % 6.19 C
3842 04-12-2018 08:10:00 7.4 C 92 % 6.19 C
3843 04-12-2018 08:15:00 7.4 C 92 % 6.19 C
3844 04-12-2018 08:20:00 7.3 C 92 % 6.09 C
3845 04-12-2018 08:25:00 7.3 C 92 % 6.09 C
3846 04-12-2018 08:30:00 7.2 C 92 % 5.99 C
3847 04-12-2018 08:35:00 7.2 C 92 % 5.99 C
3848 04-12-2018 08:40:00 7.1 C 92 % 5.89 C
3849 04-12-2018 08:45:00 7.1 C 92 % 5.89 C
3850 04-12-2018 08:50:00 7.1 C 92 % 5.89 C
Sensor: Nr:Datum:Temp:Feuchte:Taupunkt:
Aussen-T/F 3851 04-12-2018 08:55:00 7.1 C 91 % 5.73 C
3852 04-12-2018 09:00:00 7.1 C 91 % 5.73 C
3853 04-12-2018 09:05:00 7.1 C 91 % 5.73 C
3854 04-12-2018 09:10:00 7.1 C 91 % 5.73 C
3855 04-12-2018 09:15:00 7.1 C 90 % 5.57 C
3856 04-12-2018 09:20:00 7.2 C 90 % 5.67 C
3857 04-12-2018 09:25:00 7.2 C 90 % 5.67 C
3858 04-12-2018 09:30:00 7.3 C 89 % 5.61 C
3859 04-12-2018 09:35:00 7.3 C 89 % 5.61 C
3860 04-12-2018 09:40:00 7.4 C 89 % 5.71 C
3861 04-12-2018 09:45:00 7.4 C 88 % 5.55 C
3862 04-12-2018 09:50:00 7.5 C 89 % 5.81 C
3863 04-12-2018 09:55:00 7.6 C 89 % 5.91 C
3864 04-12-2018 10:00:00 7.6 C 88 % 5.74 C
3865 04-12-2018 10:05:00 7.6 C 89 % 5.91 C
3866 04-12-2018 10:10:00 7.6 C 88 % 5.74 C
3867 04-12-2018 10:15:00 7.6 C 88 % 5.74 C
3868 04-12-2018 10:20:00 7.6 C 88 % 5.74 C
3869 04-12-2018 10:25:00 7.6 C 87 % 5.58 C
3870 04-12-2018 10:30:00 7.7 C 88 % 5.84 C
3871 04-12-2018 10:35:00 7.7 C 88 % 5.84 C
3872 04-12-2018 10:40:00 7.6 C 88 % 5.74 C
3873 04-12-2018 10:45:00 7.6 C 88 % 5.74 C
3874 04-12-2018 10:50:00 7.5 C 88 % 5.64 C
3875 04-12-2018 10:55:00 7.4 C 88 % 5.55 C
Sensor: Nr:Datum:Temp:Feuchte:Taupunkt:
Aussen-T/F 3876 04-12-2018 11:00:00 7.5 C 88 % 5.64 C
3877 04-12-2018 11:05:00 7.6 C 89 % 5.91 C
3878 04-12-2018 11:10:00 7.7 C 89 % 6 C
3879 04-12-2018 11:15:00 7.7 C 89 % 6 C
3880 04-12-2018 11:20:00 7.8 C 88 % 5.94 C
3881 04-12-2018 11:25:00 7.9 C 89 % 6.2 C
3882 04-12-2018 11:30:00 8.1 C 89 % 6.4 C
3883 04-12-2018 11:35:00 8.1 C 88 % 6.24 C
3884 04-12-2018 11:40:00 8.2 C 89 % 6.5 C
3885 04-12-2018 11:45:00 8.3 C 88 % 6.43 C
3886 04-12-2018 11:50:00 8.4 C 88 % 6.53 C
3887 04-12-2018 11:55:00 8.4 C 87 % 6.37 C
3888 04-12-2018 12:00:00 8.4 C 86 % 6.2 C
3889 04-12-2018 12:05:00 8.4 C 86 % 6.2 C
3890 04-12-2018 12:10:00 8.4 C 86 % 6.2 C
3891 04-12-2018 12:15:00 8.4 C 85 % 6.03 C
3892 04-12-2018 12:20:00 8.4 C 86 % 6.2 C
3893 04-12-2018 12:25:00 8.3 C 85 % 5.93 C
3894 04-12-2018 12:30:00 8.3 C 85 % 5.93 C
3895 04-12-2018 12:35:00 8.3 C 86 % 6.1 C
3896 04-12-2018 12:40:00 8.2 C 86 % 6 C
3897 04-12-2018 12:45:00 8.1 C 85 % 5.73 C
3898 04-12-2018 12:50:00 8.1 C 86 % 5.9 C
3899